<?xml version="1.0" encoding="UTF-8" standalone="no" ?>
<gpx xmlns="http://www.topografix.com/GPX/1/1" xmlns:xsi="http://www.w3.org/2001/XMLSchema-instance" xsi:schemaLocation="http://www.topografix.com/GPX/1/1 http://www.topografix.com/GPX/1/1/gpx.xsd" version="1.1" creator="VisuGPX - https://www.visugpx.com">
  <metadata>
    <name>Col de la Pierre</name>
    <desc><![CDATA[Riviers d\\\'Allemont - Col de la Pierre, face Est]]></desc>
  </metadata>
  <trk>
    <name><![CDATA[col_de_la_pierre]]></name>
    <trkseg>
      <trkpt lat="45.20449" lon="6.04194">
        <ele>1301.7</ele>
        <time>2013-03-10T07:07:24Z</time>
      </trkpt>
      <trkpt lat="45.20457" lon="6.04197">
        <ele>1301.2</ele>
        <time>2013-03-10T07:08:58Z</time>
      </trkpt>
      <trkpt lat="45.20458" lon="6.04197">
        <ele>1301.1</ele>
        <time>2013-03-10T07:08:59Z</time>
      </trkpt>
      <trkpt lat="45.20449" lon="6.04192">
        <ele>1301.2</ele>
        <time>2013-03-10T07:10:49Z</time>
      </trkpt>
      <trkpt lat="45.2044" lon="6.0419">
        <ele>1301.3</ele>
        <time>2013-03-10T07:11:58Z</time>
      </trkpt>
      <trkpt lat="45.20457" lon="6.04189">
        <ele>1301.8</ele>
        <time>2013-03-10T07:12:30Z</time>
      </trkpt>
      <trkpt lat="45.20465" lon="6.04193">
        <ele>1300.9</ele>
        <time>2013-03-10T07:12:38Z</time>
      </trkpt>
      <trkpt lat="45.20458" lon="6.04187">
        <ele>1302</ele>
        <time>2013-03-10T07:13:04Z</time>
      </trkpt>
      <trkpt lat="45.20457" lon="6.04186">
        <ele>1301.8</ele>
        <time>2013-03-10T07:13:05Z</time>
      </trkpt>
      <trkpt lat="45.20444" lon="6.04175">
        <ele>1300.7</ele>
        <time>2013-03-10T07:13:14Z</time>
      </trkpt>
      <trkpt lat="45.20438" lon="6.04169">
        <ele>1302.5</ele>
        <time>2013-03-10T07:13:18Z</time>
      </trkpt>
      <trkpt lat="45.20431" lon="6.04162">
        <ele>1301.9</ele>
        <time>2013-03-10T07:13:22Z</time>
      </trkpt>
      <trkpt lat="45.20424" lon="6.04155">
        <ele>1301.8</ele>
        <time>2013-03-10T07:13:26Z</time>
      </trkpt>
      <trkpt lat="45.2042" lon="6.04145">
        <ele>1301.3</ele>
        <time>2013-03-10T07:13:34Z</time>
      </trkpt>
      <trkpt lat="45.20414" lon="6.04136">
        <ele>1301.7</ele>
        <time>2013-03-10T07:13:41Z</time>
      </trkpt>
      <trkpt lat="45.20407" lon="6.0413">
        <ele>1302.1</ele>
        <time>2013-03-10T07:13:47Z</time>
      </trkpt>
      <trkpt lat="45.204" lon="6.04124">
        <ele>1301.8</ele>
        <time>2013-03-10T07:13:53Z</time>
      </trkpt>
      <trkpt lat="45.20392" lon="6.04121">
        <ele>1301.1</ele>
        <time>2013-03-10T07:13:57Z</time>
      </trkpt>
      <trkpt lat="45.20385" lon="6.04116">
        <ele>1301.4</ele>
        <time>2013-03-10T07:14:01Z</time>
      </trkpt>
      <trkpt lat="45.20379" lon="6.04114">
        <ele>1300.9</ele>
        <time>2013-03-10T07:14:05Z</time>
      </trkpt>
      <trkpt lat="45.20371" lon="6.04111">
        <ele>1300.3</ele>
        <time>2013-03-10T07:14:08Z</time>
      </trkpt>
      <trkpt lat="45.20369" lon="6.0411">
        <ele>1300.2</ele>
        <time>2013-03-10T07:14:09Z</time>
      </trkpt>
      <trkpt lat="45.20356" lon="6.04102">
        <ele>1301.5</ele>
        <time>2013-03-10T07:14:14Z</time>
      </trkpt>
      <trkpt lat="45.20349" lon="6.04098">
        <ele>1300.6</ele>
        <time>2013-03-10T07:14:17Z</time>
      </trkpt>
      <trkpt lat="45.20342" lon="6.04092">
        <ele>1300.3</ele>
        <time>2013-03-10T07:14:21Z</time>
      </trkpt>
      <trkpt lat="45.20336" lon="6.04086">
        <ele>1300.6</ele>
        <time>2013-03-10T07:14:25Z</time>
      </trkpt>
      <trkpt lat="45.20329" lon="6.04079">
        <ele>1300.3</ele>
        <time>2013-03-10T07:14:31Z</time>
      </trkpt>
      <trkpt lat="45.20323" lon="6.04071">
        <ele>1299.6</ele>
        <time>2013-03-10T07:14:44Z</time>
      </trkpt>
      <trkpt lat="45.2032" lon="6.04061">
        <ele>1298.1</ele>
        <time>2013-03-10T07:14:50Z</time>
      </trkpt>
      <trkpt lat="45.20316" lon="6.0405">
        <ele>1298.3</ele>
        <time>2013-03-10T07:14:56Z</time>
      </trkpt>
      <trkpt lat="45.2031" lon="6.0404">
        <ele>1297.7</ele>
        <time>2013-03-10T07:15:02Z</time>
      </trkpt>
      <trkpt lat="45.20306" lon="6.04032">
        <ele>1296.2</ele>
        <time>2013-03-10T07:15:07Z</time>
      </trkpt>
      <trkpt lat="45.20303" lon="6.0402">
        <ele>1297.3</ele>
        <time>2013-03-10T07:15:14Z</time>
      </trkpt>
      <trkpt lat="45.20302" lon="6.04018">
        <ele>1297.4</ele>
        <time>2013-03-10T07:15:15Z</time>
      </trkpt>
      <trkpt lat="45.20288" lon="6.04012">
        <ele>1297.8</ele>
        <time>2013-03-10T07:15:29Z</time>
      </trkpt>
      <trkpt lat="45.2028" lon="6.04013">
        <ele>1298.3</ele>
        <time>2013-03-10T07:15:35Z</time>
      </trkpt>
      <trkpt lat="45.20271" lon="6.04015">
        <ele>1298.8</ele>
        <time>2013-03-10T07:15:43Z</time>
      </trkpt>
      <trkpt lat="45.20265" lon="6.04023">
        <ele>1298.3</ele>
        <time>2013-03-10T07:16:15Z</time>
      </trkpt>
      <trkpt lat="45.20257" lon="6.0402">
        <ele>1299.2</ele>
        <time>2013-03-10T07:16:21Z</time>
      </trkpt>
      <trkpt lat="45.20255" lon="6.0402">
        <ele>1298.7</ele>
        <time>2013-03-10T07:16:22Z</time>
      </trkpt>
      <trkpt lat="45.20242" lon="6.04011">
        <ele>1298.2</ele>
        <time>2013-03-10T07:16:30Z</time>
      </trkpt>
      <trkpt lat="45.20235" lon="6.04007">
        <ele>1298.3</ele>
        <time>2013-03-10T07:16:34Z</time>
      </trkpt>
      <trkpt lat="45.20229" lon="6.04002">
        <ele>1297.4</ele>
        <time>2013-03-10T07:16:37Z</time>
      </trkpt>
      <trkpt lat="45.20221" lon="6.03997">
        <ele>1298.2</ele>
        <time>2013-03-10T07:16:41Z</time>
      </trkpt>
      <trkpt lat="45.20214" lon="6.03992">
        <ele>1297.9</ele>
        <time>2013-03-10T07:16:45Z</time>
      </trkpt>
      <trkpt lat="45.20208" lon="6.03989">
        <ele>1297.8</ele>
        <time>2013-03-10T07:16:48Z</time>
      </trkpt>
      <trkpt lat="45.202" lon="6.03984">
        <ele>1298.4</ele>
        <time>2013-03-10T07:16:51Z</time>
      </trkpt>
      <trkpt lat="45.20194" lon="6.03979">
        <ele>1298.4</ele>
        <time>2013-03-10T07:16:54Z</time>
      </trkpt>
      <trkpt lat="45.20187" lon="6.03973">
        <ele>1298.1</ele>
        <time>2013-03-10T07:16:58Z</time>
      </trkpt>
      <trkpt lat="45.20179" lon="6.03967">
        <ele>1298.4</ele>
        <time>2013-03-10T07:17:03Z</time>
      </trkpt>
      <trkpt lat="45.20173" lon="6.03959">
        <ele>1298.1</ele>
        <time>2013-03-10T07:17:08Z</time>
      </trkpt>
      <trkpt lat="45.20168" lon="6.0395">
        <ele>1299</ele>
        <time>2013-03-10T07:17:14Z</time>
      </trkpt>
      <trkpt lat="45.20165" lon="6.03939">
        <ele>1299.4</ele>
        <time>2013-03-10T07:17:21Z</time>
      </trkpt>
      <trkpt lat="45.20158" lon="6.03932">
        <ele>1300.2</ele>
        <time>2013-03-10T07:17:29Z</time>
      </trkpt>
      <trkpt lat="45.20157" lon="6.03931">
        <ele>1300.3</ele>
        <time>2013-03-10T07:17:30Z</time>
      </trkpt>
      <trkpt lat="45.20142" lon="6.03923">
        <ele>1303</ele>
        <time>2013-03-10T07:17:48Z</time>
      </trkpt>
      <trkpt lat="45.20134" lon="6.03919">
        <ele>1304.4</ele>
        <time>2013-03-10T07:17:56Z</time>
      </trkpt>
      <trkpt lat="45.20126" lon="6.03914">
        <ele>1305.5</ele>
        <time>2013-03-10T07:18:08Z</time>
      </trkpt>
      <trkpt lat="45.20118" lon="6.03908">
        <ele>1306.7</ele>
        <time>2013-03-10T07:18:16Z</time>
      </trkpt>
      <trkpt lat="45.2011" lon="6.03904">
        <ele>1307.4</ele>
        <time>2013-03-10T07:18:23Z</time>
      </trkpt>
      <trkpt lat="45.20102" lon="6.03899">
        <ele>1308.2</ele>
        <time>2013-03-10T07:18:30Z</time>
      </trkpt>
      <trkpt lat="45.20096" lon="6.03892">
        <ele>1309.4</ele>
        <time>2013-03-10T07:18:37Z</time>
      </trkpt>
      <trkpt lat="45.20095" lon="6.03891">
        <ele>1309.5</ele>
        <time>2013-03-10T07:18:38Z</time>
      </trkpt>
      <trkpt lat="45.20084" lon="6.03874">
        <ele>1312</ele>
        <time>2013-03-10T07:18:57Z</time>
      </trkpt>
      <trkpt lat="45.20079" lon="6.03864">
        <ele>1313.6</ele>
        <time>2013-03-10T07:19:06Z</time>
      </trkpt>
      <trkpt lat="45.20073" lon="6.03854">
        <ele>1314.4</ele>
        <time>2013-03-10T07:19:16Z</time>
      </trkpt>
      <trkpt lat="45.20066" lon="6.0385">
        <ele>1316.7</ele>
        <time>2013-03-10T07:19:23Z</time>
      </trkpt>
      <trkpt lat="45.20058" lon="6.03844">
        <ele>1317.1</ele>
        <time>2013-03-10T07:19:28Z</time>
      </trkpt>
      <trkpt lat="45.20051" lon="6.03838">
        <ele>1317.6</ele>
        <time>2013-03-10T07:19:33Z</time>
      </trkpt>
      <trkpt lat="45.20044" lon="6.03831">
        <ele>1318.4</ele>
        <time>2013-03-10T07:19:39Z</time>
      </trkpt>
      <trkpt lat="45.20043" lon="6.03831">
        <ele>1318.4</ele>
        <time>2013-03-10T07:19:40Z</time>
      </trkpt>
      <trkpt lat="45.20028" lon="6.03823">
        <ele>1320.4</ele>
        <time>2013-03-10T07:19:57Z</time>
      </trkpt>
      <trkpt lat="45.20021" lon="6.03817">
        <ele>1321.8</ele>
        <time>2013-03-10T07:20:06Z</time>
      </trkpt>
      <trkpt lat="45.20014" lon="6.0381">
        <ele>1323.1</ele>
        <time>2013-03-10T07:20:15Z</time>
      </trkpt>
      <trkpt lat="45.20007" lon="6.03802">
        <ele>1324.7</ele>
        <time>2013-03-10T07:20:24Z</time>
      </trkpt>
      <trkpt lat="45.2" lon="6.03797">
        <ele>1325.8</ele>
        <time>2013-03-10T07:20:32Z</time>
      </trkpt>
      <trkpt lat="45.19992" lon="6.03793">
        <ele>1326.9</ele>
        <time>2013-03-10T07:20:40Z</time>
      </trkpt>
      <trkpt lat="45.19989" lon="6.03791">
        <ele>1327.7</ele>
        <time>2013-03-10T07:20:44Z</time>
      </trkpt>
      <trkpt lat="45.19981" lon="6.03785">
        <ele>1327.7</ele>
        <time>2013-03-10T07:20:45Z</time>
      </trkpt>
      <trkpt lat="45.19973" lon="6.03779">
        <ele>1328</ele>
        <time>2013-03-10T07:20:52Z</time>
      </trkpt>
      <trkpt lat="45.19966" lon="6.03773">
        <ele>1329.4</ele>
        <time>2013-03-10T07:21:00Z</time>
      </trkpt>
      <trkpt lat="45.19958" lon="6.0377">
        <ele>1330.3</ele>
        <time>2013-03-10T07:21:07Z</time>
      </trkpt>
      <trkpt lat="45.1995" lon="6.03766">
        <ele>1330.3</ele>
        <time>2013-03-10T07:21:16Z</time>
      </trkpt>
      <trkpt lat="45.19942" lon="6.03763">
        <ele>1330.6</ele>
        <time>2013-03-10T07:21:23Z</time>
      </trkpt>
      <trkpt lat="45.19934" lon="6.03759">
        <ele>1331</ele>
        <time>2013-03-10T07:21:29Z</time>
      </trkpt>
      <trkpt lat="45.19927" lon="6.03754">
        <ele>1332.3</ele>
        <time>2013-03-10T07:22:41Z</time>
      </trkpt>
      <trkpt lat="45.19926" lon="6.03753">
        <ele>1332.4</ele>
        <time>2013-03-10T07:22:42Z</time>
      </trkpt>
      <trkpt lat="45.19926" lon="6.03757">
        <ele>1331.8</ele>
        <time>2013-03-10T07:23:35Z</time>
      </trkpt>
      <trkpt lat="45.19918" lon="6.03762">
        <ele>1332.2</ele>
        <time>2013-03-10T07:24:11Z</time>
      </trkpt>
      <trkpt lat="45.19918" lon="6.03763">
        <ele>1332.1</ele>
        <time>2013-03-10T07:24:12Z</time>
      </trkpt>
      <trkpt lat="45.19929" lon="6.03744">
        <ele>1331</ele>
        <time>2013-03-10T07:24:42Z</time>
      </trkpt>
      <trkpt lat="45.1992" lon="6.03753">
        <ele>1332.4</ele>
        <time>2013-03-10T07:25:01Z</time>
      </trkpt>
      <trkpt lat="45.19913" lon="6.03749">
        <ele>1331.5</ele>
        <time>2013-03-10T07:25:14Z</time>
      </trkpt>
      <trkpt lat="45.19911" lon="6.03748">
        <ele>1331.4</ele>
        <time>2013-03-10T07:25:15Z</time>
      </trkpt>
      <trkpt lat="45.19913" lon="6.03746">
        <ele>1332.7</ele>
        <time>2013-03-10T07:25:48Z</time>
      </trkpt>
      <trkpt lat="45.19896" lon="6.0375">
        <ele>1332</ele>
        <time>2013-03-10T07:26:46Z</time>
      </trkpt>
      <trkpt lat="45.19901" lon="6.03742">
        <ele>1333.1</ele>
        <time>2013-03-10T07:26:54Z</time>
      </trkpt>
      <trkpt lat="45.1989" lon="6.03752">
        <ele>1333</ele>
        <time>2013-03-10T07:27:05Z</time>
      </trkpt>
      <trkpt lat="45.19895" lon="6.03739">
        <ele>1333.3</ele>
        <time>2013-03-10T07:27:07Z</time>
      </trkpt>
      <trkpt lat="45.19884" lon="6.03741">
        <ele>1332</ele>
        <time>2013-03-10T07:27:15Z</time>
      </trkpt>
      <trkpt lat="45.19892" lon="6.03743">
        <ele>1332.3</ele>
        <time>2013-03-10T07:28:14Z</time>
      </trkpt>
      <trkpt lat="45.19893" lon="6.03743">
        <ele>1332.1</ele>
        <time>2013-03-10T07:28:15Z</time>
      </trkpt>
      <trkpt lat="45.19901" lon="6.03744">
        <ele>1333.1</ele>
        <time>2013-03-10T07:29:20Z</time>
      </trkpt>
      <trkpt lat="45.19885" lon="6.03738">
        <ele>1332.7</ele>
        <time>2013-03-10T07:30:09Z</time>
      </trkpt>
      <trkpt lat="45.19887" lon="6.0375">
        <ele>1332.9</ele>
        <time>2013-03-10T07:31:33Z</time>
      </trkpt>
      <trkpt lat="45.19888" lon="6.03751">
        <ele>1332.8</ele>
        <time>2013-03-10T07:31:34Z</time>
      </trkpt>
      <trkpt lat="45.19903" lon="6.03761">
        <ele>1332.8</ele>
        <time>2013-03-10T07:32:37Z</time>
      </trkpt>
      <trkpt lat="45.19905" lon="6.03762">
        <ele>1332.9</ele>
        <time>2013-03-10T07:32:38Z</time>
      </trkpt>
      <trkpt lat="45.19914" lon="6.03756">
        <ele>1332.9</ele>
        <time>2013-03-10T07:33:49Z</time>
      </trkpt>
      <trkpt lat="45.19915" lon="6.03755">
        <ele>1332.6</ele>
        <time>2013-03-10T07:33:50Z</time>
      </trkpt>
      <trkpt lat="45.19914" lon="6.03757">
        <ele>1333.6</ele>
        <time>2013-03-10T07:34:29Z</time>
      </trkpt>
      <trkpt lat="45.19916" lon="6.03746">
        <ele>1332.9</ele>
        <time>2013-03-10T07:34:59Z</time>
      </trkpt>
      <trkpt lat="45.19918" lon="6.03745">
        <ele>1333</ele>
        <time>2013-03-10T07:35:00Z</time>
      </trkpt>
      <trkpt lat="45.19899" lon="6.03741">
        <ele>1334.1</ele>
        <time>2013-03-10T07:35:22Z</time>
      </trkpt>
      <trkpt lat="45.19891" lon="6.03737">
        <ele>1334.6</ele>
        <time>2013-03-10T07:35:32Z</time>
      </trkpt>
      <trkpt lat="45.19883" lon="6.03737">
        <ele>1335.3</ele>
        <time>2013-03-10T07:35:46Z</time>
      </trkpt>
      <trkpt lat="45.19876" lon="6.03738">
        <ele>1335.6</ele>
        <time>2013-03-10T07:35:52Z</time>
      </trkpt>
      <trkpt lat="45.19867" lon="6.03739">
        <ele>1335</ele>
        <time>2013-03-10T07:36:04Z</time>
      </trkpt>
      <trkpt lat="45.19867" lon="6.03739">
        <ele>1334.9</ele>
        <time>2013-03-10T07:36:05Z</time>
      </trkpt>
      <trkpt lat="45.19884" lon="6.03745">
        <ele>1335.7</ele>
        <time>2013-03-10T07:36:39Z</time>
      </trkpt>
      <trkpt lat="45.19876" lon="6.03739">
        <ele>1336.6</ele>
        <time>2013-03-10T07:37:13Z</time>
      </trkpt>
      <trkpt lat="45.19875" lon="6.03739">
        <ele>1336.7</ele>
        <time>2013-03-10T07:37:14Z</time>
      </trkpt>
      <trkpt lat="45.19875" lon="6.03734">
        <ele>1338.4</ele>
        <time>2013-03-10T07:38:45Z</time>
      </trkpt>
      <trkpt lat="45.19875" lon="6.03733">
        <ele>1338.4</ele>
        <time>2013-03-10T07:38:46Z</time>
      </trkpt>
      <trkpt lat="45.19858" lon="6.03729">
        <ele>1338.9</ele>
        <time>2013-03-10T07:40:14Z</time>
      </trkpt>
      <trkpt lat="45.19857" lon="6.0373">
        <ele>1339.1</ele>
        <time>2013-03-10T07:40:15Z</time>
      </trkpt>
      <trkpt lat="45.19844" lon="6.03742">
        <ele>1340.6</ele>
        <time>2013-03-10T07:40:28Z</time>
      </trkpt>
      <trkpt lat="45.19836" lon="6.03747">
        <ele>1341.6</ele>
        <time>2013-03-10T07:40:47Z</time>
      </trkpt>
      <trkpt lat="45.19844" lon="6.03742">
        <ele>1341.1</ele>
        <time>2013-03-10T07:41:22Z</time>
      </trkpt>
      <trkpt lat="45.19844" lon="6.03742">
        <ele>1341.1</ele>
        <time>2013-03-10T07:41:23Z</time>
      </trkpt>
      <trkpt lat="45.19827" lon="6.03744">
        <ele>1341.6</ele>
        <time>2013-03-10T07:42:09Z</time>
      </trkpt>
      <trkpt lat="45.19818" lon="6.0374">
        <ele>1341.8</ele>
        <time>2013-03-10T07:42:16Z</time>
      </trkpt>
      <trkpt lat="45.19812" lon="6.03731">
        <ele>1342.7</ele>
        <time>2013-03-10T07:42:31Z</time>
      </trkpt>
      <trkpt lat="45.19811" lon="6.03731">
        <ele>1343</ele>
        <time>2013-03-10T07:42:32Z</time>
      </trkpt>
      <trkpt lat="45.19795" lon="6.03726">
        <ele>1343.1</ele>
        <time>2013-03-10T07:42:56Z</time>
      </trkpt>
      <trkpt lat="45.19787" lon="6.03725">
        <ele>1343.6</ele>
        <time>2013-03-10T07:43:05Z</time>
      </trkpt>
      <trkpt lat="45.19779" lon="6.03722">
        <ele>1343.6</ele>
        <time>2013-03-10T07:43:12Z</time>
      </trkpt>
      <trkpt lat="45.19771" lon="6.0372">
        <ele>1343.8</ele>
        <time>2013-03-10T07:43:19Z</time>
      </trkpt>
      <trkpt lat="45.19764" lon="6.03717">
        <ele>1344.4</ele>
        <time>2013-03-10T07:43:26Z</time>
      </trkpt>
      <trkpt lat="45.19755" lon="6.03713">
        <ele>1344.1</ele>
        <time>2013-03-10T07:43:35Z</time>
      </trkpt>
      <trkpt lat="45.19754" lon="6.03713">
        <ele>1344.3</ele>
        <time>2013-03-10T07:43:36Z</time>
      </trkpt>
      <trkpt lat="45.19739" lon="6.03704">
        <ele>1345.4</ele>
        <time>2013-03-10T07:43:54Z</time>
      </trkpt>
      <trkpt lat="45.19731" lon="6.03699">
        <ele>1347</ele>
        <time>2013-03-10T07:44:04Z</time>
      </trkpt>
      <trkpt lat="45.19722" lon="6.03697">
        <ele>1347.3</ele>
        <time>2013-03-10T07:44:15Z</time>
      </trkpt>
      <trkpt lat="45.19714" lon="6.03697">
        <ele>1348.4</ele>
        <time>2013-03-10T07:44:25Z</time>
      </trkpt>
      <trkpt lat="45.19705" lon="6.03696">
        <ele>1349.3</ele>
        <time>2013-03-10T07:44:35Z</time>
      </trkpt>
      <trkpt lat="45.19697" lon="6.03695">
        <ele>1348.9</ele>
        <time>2013-03-10T07:44:44Z</time>
      </trkpt>
      <trkpt lat="45.19696" lon="6.03695">
        <ele>1349.2</ele>
        <time>2013-03-10T07:44:45Z</time>
      </trkpt>
      <trkpt lat="45.1968" lon="6.03694">
        <ele>1350.3</ele>
        <time>2013-03-10T07:45:00Z</time>
      </trkpt>
      <trkpt lat="45.19672" lon="6.03691">
        <ele>1351.8</ele>
        <time>2013-03-10T07:45:08Z</time>
      </trkpt>
      <trkpt lat="45.19664" lon="6.03687">
        <ele>1351.2</ele>
        <time>2013-03-10T07:45:15Z</time>
      </trkpt>
      <trkpt lat="45.19655" lon="6.03683">
        <ele>1351.6</ele>
        <time>2013-03-10T07:45:23Z</time>
      </trkpt>
      <trkpt lat="45.19648" lon="6.03678">
        <ele>1352.1</ele>
        <time>2013-03-10T07:45:32Z</time>
      </trkpt>
      <trkpt lat="45.1964" lon="6.03673">
        <ele>1352.2</ele>
        <time>2013-03-10T07:45:40Z</time>
      </trkpt>
      <trkpt lat="45.19632" lon="6.03667">
        <ele>1352.1</ele>
        <time>2013-03-10T07:45:47Z</time>
      </trkpt>
      <trkpt lat="45.19632" lon="6.03667">
        <ele>1351.8</ele>
        <time>2013-03-10T07:45:48Z</time>
      </trkpt>
      <trkpt lat="45.19616" lon="6.03656">
        <ele>1352.1</ele>
        <time>2013-03-10T07:46:04Z</time>
      </trkpt>
      <trkpt lat="45.19609" lon="6.0365">
        <ele>1352.7</ele>
        <time>2013-03-10T07:46:10Z</time>
      </trkpt>
      <trkpt lat="45.19606" lon="6.03649">
        <ele>1352.8</ele>
        <time>2013-03-10T07:46:12Z</time>
      </trkpt>
      <trkpt lat="45.19598" lon="6.03646">
        <ele>1352.9</ele>
        <time>2013-03-10T07:46:13Z</time>
      </trkpt>
      <trkpt lat="45.1959" lon="6.03646">
        <ele>1352.6</ele>
        <time>2013-03-10T07:46:21Z</time>
      </trkpt>
      <trkpt lat="45.19581" lon="6.03646">
        <ele>1353.9</ele>
        <time>2013-03-10T07:46:28Z</time>
      </trkpt>
      <trkpt lat="45.19572" lon="6.0365">
        <ele>1354</ele>
        <time>2013-03-10T07:46:33Z</time>
      </trkpt>
      <trkpt lat="45.19564" lon="6.03648">
        <ele>1354.1</ele>
        <time>2013-03-10T07:46:40Z</time>
      </trkpt>
      <trkpt lat="45.19556" lon="6.03645">
        <ele>1354.2</ele>
        <time>2013-03-10T07:46:48Z</time>
      </trkpt>
      <trkpt lat="45.1955" lon="6.03635">
        <ele>1354.8</ele>
        <time>2013-03-10T07:46:58Z</time>
      </trkpt>
      <trkpt lat="45.19549" lon="6.03634">
        <ele>1355.1</ele>
        <time>2013-03-10T07:46:59Z</time>
      </trkpt>
      <trkpt lat="45.19537" lon="6.03623">
        <ele>1355.8</ele>
        <time>2013-03-10T07:47:11Z</time>
      </trkpt>
      <trkpt lat="45.19529" lon="6.03619">
        <ele>1356.3</ele>
        <time>2013-03-10T07:47:16Z</time>
      </trkpt>
      <trkpt lat="45.19524" lon="6.0361">
        <ele>1356.1</ele>
        <time>2013-03-10T07:47:21Z</time>
      </trkpt>
      <trkpt lat="45.19519" lon="6.03603">
        <ele>1356.5</ele>
        <time>2013-03-10T07:47:26Z</time>
      </trkpt>
      <trkpt lat="45.19512" lon="6.03598">
        <ele>1355.9</ele>
        <time>2013-03-10T07:47:35Z</time>
      </trkpt>
      <trkpt lat="45.19505" lon="6.03592">
        <ele>1356.9</ele>
        <time>2013-03-10T07:47:42Z</time>
      </trkpt>
      <trkpt lat="45.19499" lon="6.03583">
        <ele>1357.8</ele>
        <time>2013-03-10T07:47:49Z</time>
      </trkpt>
      <trkpt lat="45.19493" lon="6.03577">
        <ele>1357.8</ele>
        <time>2013-03-10T07:47:55Z</time>
      </trkpt>
      <trkpt lat="45.19488" lon="6.03568">
        <ele>1359.2</ele>
        <time>2013-03-10T07:48:05Z</time>
      </trkpt>
      <trkpt lat="45.19487" lon="6.03567">
        <ele>1359.4</ele>
        <time>2013-03-10T07:48:06Z</time>
      </trkpt>
      <trkpt lat="45.19478" lon="6.03548">
        <ele>1360.1</ele>
        <time>2013-03-10T07:48:24Z</time>
      </trkpt>
      <trkpt lat="45.19474" lon="6.03537">
        <ele>1360.5</ele>
        <time>2013-03-10T07:48:33Z</time>
      </trkpt>
      <trkpt lat="45.19468" lon="6.03529">
        <ele>1361.5</ele>
        <time>2013-03-10T07:48:42Z</time>
      </trkpt>
      <trkpt lat="45.1946" lon="6.03523">
        <ele>1362.7</ele>
        <time>2013-03-10T07:48:51Z</time>
      </trkpt>
      <trkpt lat="45.19454" lon="6.03515">
        <ele>1363.6</ele>
        <time>2013-03-10T07:49:01Z</time>
      </trkpt>
      <trkpt lat="45.19447" lon="6.03507">
        <ele>1364.7</ele>
        <time>2013-03-10T07:49:11Z</time>
      </trkpt>
      <trkpt lat="45.19446" lon="6.03506">
        <ele>1364.9</ele>
        <time>2013-03-10T07:49:12Z</time>
      </trkpt>
      <trkpt lat="45.19435" lon="6.0349">
        <ele>1365.8</ele>
        <time>2013-03-10T07:49:35Z</time>
      </trkpt>
      <trkpt lat="45.1943" lon="6.03482">
        <ele>1366.8</ele>
        <time>2013-03-10T07:49:44Z</time>
      </trkpt>
      <trkpt lat="45.19424" lon="6.03473">
        <ele>1366.9</ele>
        <time>2013-03-10T07:49:54Z</time>
      </trkpt>
      <trkpt lat="45.19416" lon="6.03468">
        <ele>1367</ele>
        <time>2013-03-10T07:50:03Z</time>
      </trkpt>
      <trkpt lat="45.19408" lon="6.03466">
        <ele>1367.6</ele>
        <time>2013-03-10T07:50:11Z</time>
      </trkpt>
      <trkpt lat="45.19399" lon="6.03463">
        <ele>1367.9</ele>
        <time>2013-03-10T07:50:19Z</time>
      </trkpt>
      <trkpt lat="45.19398" lon="6.03462">
        <ele>1367.7</ele>
        <time>2013-03-10T07:50:20Z</time>
      </trkpt>
      <trkpt lat="45.19389" lon="6.03445">
        <ele>1368.2</ele>
        <time>2013-03-10T07:50:34Z</time>
      </trkpt>
      <trkpt lat="45.19382" lon="6.0344">
        <ele>1367.8</ele>
        <time>2013-03-10T07:50:40Z</time>
      </trkpt>
      <trkpt lat="45.19374" lon="6.03438">
        <ele>1367.9</ele>
        <time>2013-03-10T07:50:46Z</time>
      </trkpt>
      <trkpt lat="45.19366" lon="6.03434">
        <ele>1368.3</ele>
        <time>2013-03-10T07:50:53Z</time>
      </trkpt>
      <trkpt lat="45.19358" lon="6.03432">
        <ele>1368.3</ele>
        <time>2013-03-10T07:51:01Z</time>
      </trkpt>
      <trkpt lat="45.19349" lon="6.03432">
        <ele>1367.4</ele>
        <time>2013-03-10T07:51:11Z</time>
      </trkpt>
      <trkpt lat="45.19347" lon="6.03419">
        <ele>1367.5</ele>
        <time>2013-03-10T07:52:22Z</time>
      </trkpt>
      <trkpt lat="45.19348" lon="6.03419">
        <ele>1367.5</ele>
        <time>2013-03-10T07:52:23Z</time>
      </trkpt>
      <trkpt lat="45.19332" lon="6.03412">
        <ele>1367.5</ele>
        <time>2013-03-10T07:52:54Z</time>
      </trkpt>
      <trkpt lat="45.19323" lon="6.03411">
        <ele>1368.2</ele>
        <time>2013-03-10T07:53:02Z</time>
      </trkpt>
      <trkpt lat="45.19314" lon="6.03409">
        <ele>1368.1</ele>
        <time>2013-03-10T07:53:12Z</time>
      </trkpt>
      <trkpt lat="45.19306" lon="6.03405">
        <ele>1370.1</ele>
        <time>2013-03-10T07:53:21Z</time>
      </trkpt>
      <trkpt lat="45.19299" lon="6.03397">
        <ele>1370.2</ele>
        <time>2013-03-10T07:53:28Z</time>
      </trkpt>
      <trkpt lat="45.19299" lon="6.03396">
        <ele>1370.1</ele>
        <time>2013-03-10T07:53:29Z</time>
      </trkpt>
      <trkpt lat="45.19285" lon="6.03385">
        <ele>1371.3</ele>
        <time>2013-03-10T07:53:57Z</time>
      </trkpt>
      <trkpt lat="45.19279" lon="6.03376">
        <ele>1372.4</ele>
        <time>2013-03-10T07:54:09Z</time>
      </trkpt>
      <trkpt lat="45.19274" lon="6.03366">
        <ele>1373.2</ele>
        <time>2013-03-10T07:54:20Z</time>
      </trkpt>
      <trkpt lat="45.19267" lon="6.0336">
        <ele>1373.5</ele>
        <time>2013-03-10T07:54:33Z</time>
      </trkpt>
      <trkpt lat="45.19266" lon="6.0336">
        <ele>1373.5</ele>
        <time>2013-03-10T07:54:34Z</time>
      </trkpt>
      <trkpt lat="45.19252" lon="6.03351">
        <ele>1375.5</ele>
        <time>2013-03-10T07:54:53Z</time>
      </trkpt>
      <trkpt lat="45.19243" lon="6.03348">
        <ele>1375.2</ele>
        <time>2013-03-10T07:55:04Z</time>
      </trkpt>
      <trkpt lat="45.19235" lon="6.03346">
        <ele>1376.6</ele>
        <time>2013-03-10T07:55:12Z</time>
      </trkpt>
      <trkpt lat="45.19226" lon="6.03349">
        <ele>1374.8</ele>
        <time>2013-03-10T07:55:23Z</time>
      </trkpt>
      <trkpt lat="45.19218" lon="6.03347">
        <ele>1376.2</ele>
        <time>2013-03-10T07:55:51Z</time>
      </trkpt>
      <trkpt lat="45.19217" lon="6.03346">
        <ele>1376.1</ele>
        <time>2013-03-10T07:55:52Z</time>
      </trkpt>
      <trkpt lat="45.19201" lon="6.03343">
        <ele>1377.3</ele>
        <time>2013-03-10T07:56:58Z</time>
      </trkpt>
      <trkpt lat="45.192" lon="6.03342">
        <ele>1376.8</ele>
        <time>2013-03-10T07:56:59Z</time>
      </trkpt>
      <trkpt lat="45.19186" lon="6.03335">
        <ele>1378.3</ele>
        <time>2013-03-10T07:57:14Z</time>
      </trkpt>
      <trkpt lat="45.19177" lon="6.03331">
        <ele>1379.4</ele>
        <time>2013-03-10T07:57:21Z</time>
      </trkpt>
      <trkpt lat="45.1917" lon="6.03326">
        <ele>1379.3</ele>
        <time>2013-03-10T07:57:28Z</time>
      </trkpt>
      <trkpt lat="45.19163" lon="6.03321">
        <ele>1379.4</ele>
        <time>2013-03-10T07:57:35Z</time>
      </trkpt>
      <trkpt lat="45.19157" lon="6.03313">
        <ele>1380.2</ele>
        <time>2013-03-10T07:57:43Z</time>
      </trkpt>
      <trkpt lat="45.1915" lon="6.03308">
        <ele>1380.2</ele>
        <time>2013-03-10T07:57:50Z</time>
      </trkpt>
      <trkpt lat="45.19141" lon="6.03304">
        <ele>1382.4</ele>
        <time>2013-03-10T07:57:57Z</time>
      </trkpt>
      <trkpt lat="45.19134" lon="6.03298">
        <ele>1383</ele>
        <time>2013-03-10T07:58:04Z</time>
      </trkpt>
      <trkpt lat="45.19133" lon="6.03297">
        <ele>1383.3</ele>
        <time>2013-03-10T07:58:05Z</time>
      </trkpt>
      <trkpt lat="45.19119" lon="6.03285">
        <ele>1384.2</ele>
        <time>2013-03-10T07:58:19Z</time>
      </trkpt>
      <trkpt lat="45.19114" lon="6.03277">
        <ele>1384.9</ele>
        <time>2013-03-10T07:58:26Z</time>
      </trkpt>
      <trkpt lat="45.19107" lon="6.03268">
        <ele>1385</ele>
        <time>2013-03-10T07:58:36Z</time>
      </trkpt>
      <trkpt lat="45.19101" lon="6.03259">
        <ele>1385.9</ele>
        <time>2013-03-10T07:58:44Z</time>
      </trkpt>
      <trkpt lat="45.19096" lon="6.0325">
        <ele>1386.9</ele>
        <time>2013-03-10T07:58:54Z</time>
      </trkpt>
      <trkpt lat="45.1909" lon="6.03243">
        <ele>1386.4</ele>
        <time>2013-03-10T07:59:01Z</time>
      </trkpt>
      <trkpt lat="45.19083" lon="6.03236">
        <ele>1386.5</ele>
        <time>2013-03-10T07:59:08Z</time>
      </trkpt>
      <trkpt lat="45.19083" lon="6.03234">
        <ele>1386.6</ele>
        <time>2013-03-10T07:59:09Z</time>
      </trkpt>
      <trkpt lat="45.19069" lon="6.03225">
        <ele>1386.7</ele>
        <time>2013-03-10T07:59:20Z</time>
      </trkpt>
      <trkpt lat="45.19061" lon="6.03224">
        <ele>1387.5</ele>
        <time>2013-03-10T07:59:26Z</time>
      </trkpt>
      <trkpt lat="45.19053" lon="6.0322">
        <ele>1388.4</ele>
        <time>2013-03-10T07:59:32Z</time>
      </trkpt>
      <trkpt lat="45.19045" lon="6.03214">
        <ele>1388</ele>
        <time>2013-03-10T07:59:39Z</time>
      </trkpt>
      <trkpt lat="45.19038" lon="6.03208">
        <ele>1388.2</ele>
        <time>2013-03-10T07:59:46Z</time>
      </trkpt>
      <trkpt lat="45.19031" lon="6.03201">
        <ele>1389.5</ele>
        <time>2013-03-10T07:59:53Z</time>
      </trkpt>
      <trkpt lat="45.19024" lon="6.03192">
        <ele>1390.2</ele>
        <time>2013-03-10T08:00:02Z</time>
      </trkpt>
      <trkpt lat="45.19021" lon="6.03181">
        <ele>1391.2</ele>
        <time>2013-03-10T08:00:13Z</time>
      </trkpt>
      <trkpt lat="45.1902" lon="6.0318">
        <ele>1391.2</ele>
        <time>2013-03-10T08:00:14Z</time>
      </trkpt>
      <trkpt lat="45.1901" lon="6.03163">
        <ele>1391.2</ele>
        <time>2013-03-10T08:00:27Z</time>
      </trkpt>
      <trkpt lat="45.19004" lon="6.03154">
        <ele>1391.5</ele>
        <time>2013-03-10T08:00:34Z</time>
      </trkpt>
      <trkpt lat="45.19" lon="6.03144">
        <ele>1392</ele>
        <time>2013-03-10T08:00:44Z</time>
      </trkpt>
      <trkpt lat="45.18998" lon="6.03132">
        <ele>1392.7</ele>
        <time>2013-03-10T08:00:54Z</time>
      </trkpt>
      <trkpt lat="45.19002" lon="6.03121">
        <ele>1392.6</ele>
        <time>2013-03-10T08:01:03Z</time>
      </trkpt>
      <trkpt lat="45.19004" lon="6.0311">
        <ele>1394</ele>
        <time>2013-03-10T08:01:11Z</time>
      </trkpt>
      <trkpt lat="45.19005" lon="6.03097">
        <ele>1394.6</ele>
        <time>2013-03-10T08:01:21Z</time>
      </trkpt>
      <trkpt lat="45.19005" lon="6.03096">
        <ele>1394.7</ele>
        <time>2013-03-10T08:01:22Z</time>
      </trkpt>
      <trkpt lat="45.19009" lon="6.03076">
        <ele>1395.9</ele>
        <time>2013-03-10T08:01:34Z</time>
      </trkpt>
      <trkpt lat="45.19013" lon="6.03065">
        <ele>1396.8</ele>
        <time>2013-03-10T08:01:47Z</time>
      </trkpt>
      <trkpt lat="45.19015" lon="6.03053">
        <ele>1398.5</ele>
        <time>2013-03-10T08:02:00Z</time>
      </trkpt>
      <trkpt lat="45.19017" lon="6.03041">
        <ele>1399.6</ele>
        <time>2013-03-10T08:02:07Z</time>
      </trkpt>
      <trkpt lat="45.1902" lon="6.0303">
        <ele>1399.7</ele>
        <time>2013-03-10T08:02:14Z</time>
      </trkpt>
      <trkpt lat="45.19024" lon="6.03019">
        <ele>1400.9</ele>
        <time>2013-03-10T08:02:22Z</time>
      </trkpt>
      <trkpt lat="45.19027" lon="6.03008">
        <ele>1400.9</ele>
        <time>2013-03-10T08:02:30Z</time>
      </trkpt>
      <trkpt lat="45.19028" lon="6.03006">
        <ele>1401.2</ele>
        <time>2013-03-10T08:02:31Z</time>
      </trkpt>
      <trkpt lat="45.1903" lon="6.02984">
        <ele>1402.9</ele>
        <time>2013-03-10T08:02:46Z</time>
      </trkpt>
      <trkpt lat="45.19035" lon="6.02973">
        <ele>1403.5</ele>
        <time>2013-03-10T08:03:03Z</time>
      </trkpt>
      <trkpt lat="45.19035" lon="6.02961">
        <ele>1405.7</ele>
        <time>2013-03-10T08:03:14Z</time>
      </trkpt>
      <trkpt lat="45.19037" lon="6.02948">
        <ele>1405.8</ele>
        <time>2013-03-10T08:03:25Z</time>
      </trkpt>
      <trkpt lat="45.19038" lon="6.02936">
        <ele>1407.5</ele>
        <time>2013-03-10T08:03:34Z</time>
      </trkpt>
      <trkpt lat="45.19038" lon="6.02935">
        <ele>1407.7</ele>
        <time>2013-03-10T08:03:35Z</time>
      </trkpt>
      <trkpt lat="45.19044" lon="6.02914">
        <ele>1409.3</ele>
        <time>2013-03-10T08:03:50Z</time>
      </trkpt>
      <trkpt lat="45.19046" lon="6.02902">
        <ele>1410</ele>
        <time>2013-03-10T08:03:59Z</time>
      </trkpt>
      <trkpt lat="45.19049" lon="6.0289">
        <ele>1411.3</ele>
        <time>2013-03-10T08:04:08Z</time>
      </trkpt>
      <trkpt lat="45.19052" lon="6.02878">
        <ele>1411.5</ele>
        <time>2013-03-10T08:04:17Z</time>
      </trkpt>
      <trkpt lat="45.19055" lon="6.02867">
        <ele>1412.1</ele>
        <time>2013-03-10T08:04:26Z</time>
      </trkpt>
      <trkpt lat="45.19058" lon="6.02855">
        <ele>1413.4</ele>
        <time>2013-03-10T08:04:36Z</time>
      </trkpt>
      <trkpt lat="45.19058" lon="6.02853">
        <ele>1413.6</ele>
        <time>2013-03-10T08:04:37Z</time>
      </trkpt>
      <trkpt lat="45.19062" lon="6.02831">
        <ele>1415.3</ele>
        <time>2013-03-10T08:04:55Z</time>
      </trkpt>
      <trkpt lat="45.19064" lon="6.02818">
        <ele>1416.6</ele>
        <time>2013-03-10T08:05:04Z</time>
      </trkpt>
      <trkpt lat="45.19066" lon="6.02807">
        <ele>1417.7</ele>
        <time>2013-03-10T08:05:12Z</time>
      </trkpt>
      <trkpt lat="45.19069" lon="6.02797">
        <ele>1417.9</ele>
        <time>2013-03-10T08:05:21Z</time>
      </trkpt>
      <trkpt lat="45.19071" lon="6.02785">
        <ele>1419.3</ele>
        <time>2013-03-10T08:05:30Z</time>
      </trkpt>
      <trkpt lat="45.19075" lon="6.02774">
        <ele>1418.6</ele>
        <time>2013-03-10T08:05:38Z</time>
      </trkpt>
      <trkpt lat="45.19075" lon="6.02773">
        <ele>1419</ele>
        <time>2013-03-10T08:05:39Z</time>
      </trkpt>
      <trkpt lat="45.19078" lon="6.0275">
        <ele>1421.2</ele>
        <time>2013-03-10T08:05:54Z</time>
      </trkpt>
      <trkpt lat="45.19079" lon="6.02738">
        <ele>1422.1</ele>
        <time>2013-03-10T08:06:01Z</time>
      </trkpt>
      <trkpt lat="45.19082" lon="6.02726">
        <ele>1422.6</ele>
        <time>2013-03-10T08:06:10Z</time>
      </trkpt>
      <trkpt lat="45.19084" lon="6.02714">
        <ele>1422.9</ele>
        <time>2013-03-10T08:06:21Z</time>
      </trkpt>
      <trkpt lat="45.19087" lon="6.02703">
        <ele>1424</ele>
        <time>2013-03-10T08:06:32Z</time>
      </trkpt>
      <trkpt lat="45.19085" lon="6.02692">
        <ele>1423.9</ele>
        <time>2013-03-10T08:06:44Z</time>
      </trkpt>
      <trkpt lat="45.19084" lon="6.0269">
        <ele>1424</ele>
        <time>2013-03-10T08:06:45Z</time>
      </trkpt>
      <trkpt lat="45.19079" lon="6.02669">
        <ele>1425.2</ele>
        <time>2013-03-10T08:06:59Z</time>
      </trkpt>
      <trkpt lat="45.19075" lon="6.02659">
        <ele>1425.3</ele>
        <time>2013-03-10T08:07:06Z</time>
      </trkpt>
      <trkpt lat="45.19073" lon="6.02646">
        <ele>1426.7</ele>
        <time>2013-03-10T08:07:16Z</time>
      </trkpt>
      <trkpt lat="45.19074" lon="6.02634">
        <ele>1428.1</ele>
        <time>2013-03-10T08:07:27Z</time>
      </trkpt>
      <trkpt lat="45.19073" lon="6.02622">
        <ele>1429.9</ele>
        <time>2013-03-10T08:07:36Z</time>
      </trkpt>
      <trkpt lat="45.19073" lon="6.02609">
        <ele>1430.4</ele>
        <time>2013-03-10T08:07:46Z</time>
      </trkpt>
      <trkpt lat="45.19073" lon="6.02609">
        <ele>1430.7</ele>
        <time>2013-03-10T08:07:47Z</time>
      </trkpt>
      <trkpt lat="45.19064" lon="6.02589">
        <ele>1432.1</ele>
        <time>2013-03-10T08:08:08Z</time>
      </trkpt>
      <trkpt lat="45.19059" lon="6.02581">
        <ele>1433.3</ele>
        <time>2013-03-10T08:08:17Z</time>
      </trkpt>
      <trkpt lat="45.19056" lon="6.0257">
        <ele>1433.3</ele>
        <time>2013-03-10T08:08:27Z</time>
      </trkpt>
      <trkpt lat="45.19052" lon="6.02558">
        <ele>1434.9</ele>
        <time>2013-03-10T08:08:37Z</time>
      </trkpt>
      <trkpt lat="45.19048" lon="6.02547">
        <ele>1434.4</ele>
        <time>2013-03-10T08:08:56Z</time>
      </trkpt>
      <trkpt lat="45.19048" lon="6.02546">
        <ele>1434.7</ele>
        <time>2013-03-10T08:08:57Z</time>
      </trkpt>
      <trkpt lat="45.19047" lon="6.02523">
        <ele>1437.1</ele>
        <time>2013-03-10T08:09:28Z</time>
      </trkpt>
      <trkpt lat="45.1904" lon="6.02515">
        <ele>1439.7</ele>
        <time>2013-03-10T08:09:38Z</time>
      </trkpt>
      <trkpt lat="45.19047" lon="6.02509">
        <ele>1440</ele>
        <time>2013-03-10T08:10:25Z</time>
      </trkpt>
      <trkpt lat="45.19048" lon="6.02509">
        <ele>1440.1</ele>
        <time>2013-03-10T08:10:26Z</time>
      </trkpt>
      <trkpt lat="45.19052" lon="6.02515">
        <ele>1440.8</ele>
        <time>2013-03-10T08:11:06Z</time>
      </trkpt>
      <trkpt lat="45.19055" lon="6.02503">
        <ele>1440.3</ele>
        <time>2013-03-10T08:12:19Z</time>
      </trkpt>
      <trkpt lat="45.19055" lon="6.02502">
        <ele>1440.7</ele>
        <time>2013-03-10T08:12:20Z</time>
      </trkpt>
      <trkpt lat="45.19054" lon="6.0249">
        <ele>1440.4</ele>
        <time>2013-03-10T08:13:31Z</time>
      </trkpt>
      <trkpt lat="45.19057" lon="6.02478">
        <ele>1445.5</ele>
        <time>2013-03-10T08:16:08Z</time>
      </trkpt>
      <trkpt lat="45.19053" lon="6.02457">
        <ele>1450.6</ele>
        <time>2013-03-10T08:16:43Z</time>
      </trkpt>
      <trkpt lat="45.19044" lon="6.02457">
        <ele>1450</ele>
        <time>2013-03-10T08:16:56Z</time>
      </trkpt>
      <trkpt lat="45.19036" lon="6.02459">
        <ele>1449.9</ele>
        <time>2013-03-10T08:17:03Z</time>
      </trkpt>
      <trkpt lat="45.19028" lon="6.02453">
        <ele>1454.4</ele>
        <time>2013-03-10T08:17:16Z</time>
      </trkpt>
      <trkpt lat="45.19028" lon="6.02451">
        <ele>1454.7</ele>
        <time>2013-03-10T08:17:17Z</time>
      </trkpt>
      <trkpt lat="45.19039" lon="6.02438">
        <ele>1455.8</ele>
        <time>2013-03-10T08:17:44Z</time>
      </trkpt>
      <trkpt lat="45.19047" lon="6.02435">
        <ele>1460.2</ele>
        <time>2013-03-10T08:18:15Z</time>
      </trkpt>
      <trkpt lat="45.19047" lon="6.02422">
        <ele>1462.8</ele>
        <time>2013-03-10T08:18:31Z</time>
      </trkpt>
      <trkpt lat="45.19047" lon="6.02422">
        <ele>1462.9</ele>
        <time>2013-03-10T08:18:32Z</time>
      </trkpt>
      <trkpt lat="45.19043" lon="6.02398">
        <ele>1468.3</ele>
        <time>2013-03-10T08:19:08Z</time>
      </trkpt>
      <trkpt lat="45.19042" lon="6.02386">
        <ele>1471.4</ele>
        <time>2013-03-10T08:19:27Z</time>
      </trkpt>
      <trkpt lat="45.19049" lon="6.0238">
        <ele>1476.6</ele>
        <time>2013-03-10T08:20:02Z</time>
      </trkpt>
      <trkpt lat="45.1905" lon="6.02379">
        <ele>1476.9</ele>
        <time>2013-03-10T08:20:03Z</time>
      </trkpt>
      <trkpt lat="45.19053" lon="6.02356">
        <ele>1482.5</ele>
        <time>2013-03-10T08:20:31Z</time>
      </trkpt>
      <trkpt lat="45.19054" lon="6.02344">
        <ele>1485.3</ele>
        <time>2013-03-10T08:20:48Z</time>
      </trkpt>
      <trkpt lat="45.19058" lon="6.02332">
        <ele>1488.4</ele>
        <time>2013-03-10T08:21:01Z</time>
      </trkpt>
      <trkpt lat="45.1906" lon="6.0232">
        <ele>1490.5</ele>
        <time>2013-03-10T08:21:18Z</time>
      </trkpt>
      <trkpt lat="45.1906" lon="6.0232">
        <ele>1490.7</ele>
        <time>2013-03-10T08:21:19Z</time>
      </trkpt>
      <trkpt lat="45.19063" lon="6.02296">
        <ele>1496.2</ele>
        <time>2013-03-10T08:21:55Z</time>
      </trkpt>
      <trkpt lat="45.19066" lon="6.02285">
        <ele>1499.3</ele>
        <time>2013-03-10T08:22:09Z</time>
      </trkpt>
      <trkpt lat="45.19067" lon="6.02273">
        <ele>1502.9</ele>
        <time>2013-03-10T08:22:21Z</time>
      </trkpt>
      <trkpt lat="45.19067" lon="6.02272">
        <ele>1502.7</ele>
        <time>2013-03-10T08:22:22Z</time>
      </trkpt>
      <trkpt lat="45.19073" lon="6.02251">
        <ele>1508.6</ele>
        <time>2013-03-10T08:22:50Z</time>
      </trkpt>
      <trkpt lat="45.19075" lon="6.02239">
        <ele>1512.8</ele>
        <time>2013-03-10T08:23:11Z</time>
      </trkpt>
      <trkpt lat="45.19078" lon="6.02227">
        <ele>1514.4</ele>
        <time>2013-03-10T08:23:35Z</time>
      </trkpt>
      <trkpt lat="45.19078" lon="6.02226">
        <ele>1514.4</ele>
        <time>2013-03-10T08:23:36Z</time>
      </trkpt>
      <trkpt lat="45.19087" lon="6.02206">
        <ele>1520.7</ele>
        <time>2013-03-10T08:24:40Z</time>
      </trkpt>
      <trkpt lat="45.19087" lon="6.02205">
        <ele>1520.5</ele>
        <time>2013-03-10T08:24:41Z</time>
      </trkpt>
      <trkpt lat="45.19094" lon="6.02183">
        <ele>1527.1</ele>
        <time>2013-03-10T08:25:11Z</time>
      </trkpt>
      <trkpt lat="45.19097" lon="6.02173">
        <ele>1529.6</ele>
        <time>2013-03-10T08:25:25Z</time>
      </trkpt>
      <trkpt lat="45.19098" lon="6.02161">
        <ele>1532.1</ele>
        <time>2013-03-10T08:25:42Z</time>
      </trkpt>
      <trkpt lat="45.19099" lon="6.0216">
        <ele>1531.9</ele>
        <time>2013-03-10T08:25:43Z</time>
      </trkpt>
      <trkpt lat="45.19102" lon="6.02136">
        <ele>1537.3</ele>
        <time>2013-03-10T08:26:09Z</time>
      </trkpt>
      <trkpt lat="45.19105" lon="6.02124">
        <ele>1539.7</ele>
        <time>2013-03-10T08:26:22Z</time>
      </trkpt>
      <trkpt lat="45.19107" lon="6.02112">
        <ele>1541.8</ele>
        <time>2013-03-10T08:26:34Z</time>
      </trkpt>
      <trkpt lat="45.191" lon="6.02106">
        <ele>1544.6</ele>
        <time>2013-03-10T08:26:53Z</time>
      </trkpt>
      <trkpt lat="45.19099" lon="6.02107">
        <ele>1544.2</ele>
        <time>2013-03-10T08:26:54Z</time>
      </trkpt>
      <trkpt lat="45.19083" lon="6.02107">
        <ele>1547</ele>
        <time>2013-03-10T08:27:09Z</time>
      </trkpt>
      <trkpt lat="45.19074" lon="6.02108">
        <ele>1550</ele>
        <time>2013-03-10T08:27:20Z</time>
      </trkpt>
      <trkpt lat="45.19073" lon="6.02095">
        <ele>1553.2</ele>
        <time>2013-03-10T08:27:37Z</time>
      </trkpt>
      <trkpt lat="45.1907" lon="6.02084">
        <ele>1558.2</ele>
        <time>2013-03-10T08:28:00Z</time>
      </trkpt>
      <trkpt lat="45.1907" lon="6.02083">
        <ele>1558.1</ele>
        <time>2013-03-10T08:28:01Z</time>
      </trkpt>
      <trkpt lat="45.19067" lon="6.02064">
        <ele>1562.7</ele>
        <time>2013-03-10T08:28:29Z</time>
      </trkpt>
      <trkpt lat="45.19066" lon="6.02051">
        <ele>1566.1</ele>
        <time>2013-03-10T08:28:48Z</time>
      </trkpt>
      <trkpt lat="45.19058" lon="6.02044">
        <ele>1566.5</ele>
        <time>2013-03-10T08:29:17Z</time>
      </trkpt>
      <trkpt lat="45.19058" lon="6.02044">
        <ele>1566.2</ele>
        <time>2013-03-10T08:29:18Z</time>
      </trkpt>
      <trkpt lat="45.19068" lon="6.02043">
        <ele>1568.7</ele>
        <time>2013-03-10T08:32:58Z</time>
      </trkpt>
      <trkpt lat="45.19077" lon="6.02025">
        <ele>1574.5</ele>
        <time>2013-03-10T08:33:25Z</time>
      </trkpt>
      <trkpt lat="45.19079" lon="6.02013">
        <ele>1577.3</ele>
        <time>2013-03-10T08:33:37Z</time>
      </trkpt>
      <trkpt lat="45.19082" lon="6.02002">
        <ele>1581.4</ele>
        <time>2013-03-10T08:33:54Z</time>
      </trkpt>
      <trkpt lat="45.19089" lon="6.01994">
        <ele>1585</ele>
        <time>2013-03-10T08:34:10Z</time>
      </trkpt>
      <trkpt lat="45.1909" lon="6.01993">
        <ele>1585.2</ele>
        <time>2013-03-10T08:34:11Z</time>
      </trkpt>
      <trkpt lat="45.19099" lon="6.01975">
        <ele>1590.6</ele>
        <time>2013-03-10T08:34:37Z</time>
      </trkpt>
      <trkpt lat="45.19105" lon="6.01967">
        <ele>1594.2</ele>
        <time>2013-03-10T08:34:49Z</time>
      </trkpt>
      <trkpt lat="45.19112" lon="6.01958">
        <ele>1598.2</ele>
        <time>2013-03-10T08:35:07Z</time>
      </trkpt>
      <trkpt lat="45.19118" lon="6.0195">
        <ele>1599.2</ele>
        <time>2013-03-10T08:35:17Z</time>
      </trkpt>
      <trkpt lat="45.19119" lon="6.01948">
        <ele>1599</ele>
        <time>2013-03-10T08:35:18Z</time>
      </trkpt>
      <trkpt lat="45.19132" lon="6.01937">
        <ele>1601.2</ele>
        <time>2013-03-10T08:35:38Z</time>
      </trkpt>
      <trkpt lat="45.1914" lon="6.01931">
        <ele>1604.4</ele>
        <time>2013-03-10T08:35:50Z</time>
      </trkpt>
      <trkpt lat="45.19145" lon="6.01921">
        <ele>1607.6</ele>
        <time>2013-03-10T08:36:03Z</time>
      </trkpt>
      <trkpt lat="45.19152" lon="6.01914">
        <ele>1611.6</ele>
        <time>2013-03-10T08:36:21Z</time>
      </trkpt>
      <trkpt lat="45.19152" lon="6.01914">
        <ele>1611.6</ele>
        <time>2013-03-10T08:36:22Z</time>
      </trkpt>
      <trkpt lat="45.19158" lon="6.01893">
        <ele>1615</ele>
        <time>2013-03-10T08:36:39Z</time>
      </trkpt>
      <trkpt lat="45.1916" lon="6.01881">
        <ele>1618.7</ele>
        <time>2013-03-10T08:36:52Z</time>
      </trkpt>
      <trkpt lat="45.19165" lon="6.01871">
        <ele>1620.1</ele>
        <time>2013-03-10T08:37:03Z</time>
      </trkpt>
      <trkpt lat="45.19168" lon="6.01859">
        <ele>1623.9</ele>
        <time>2013-03-10T08:37:21Z</time>
      </trkpt>
      <trkpt lat="45.1917" lon="6.01848">
        <ele>1627.4</ele>
        <time>2013-03-10T08:37:41Z</time>
      </trkpt>
      <trkpt lat="45.1917" lon="6.01847">
        <ele>1627.4</ele>
        <time>2013-03-10T08:37:42Z</time>
      </trkpt>
      <trkpt lat="45.19177" lon="6.01825">
        <ele>1634.9</ele>
        <time>2013-03-10T08:38:12Z</time>
      </trkpt>
      <trkpt lat="45.19179" lon="6.01813">
        <ele>1638.2</ele>
        <time>2013-03-10T08:38:32Z</time>
      </trkpt>
      <trkpt lat="45.19182" lon="6.01802">
        <ele>1642.3</ele>
        <time>2013-03-10T08:38:55Z</time>
      </trkpt>
      <trkpt lat="45.19183" lon="6.01801">
        <ele>1642.6</ele>
        <time>2013-03-10T08:38:56Z</time>
      </trkpt>
      <trkpt lat="45.19188" lon="6.01779">
        <ele>1650.4</ele>
        <time>2013-03-10T08:39:28Z</time>
      </trkpt>
      <trkpt lat="45.19195" lon="6.01771">
        <ele>1656.9</ele>
        <time>2013-03-10T08:40:02Z</time>
      </trkpt>
      <trkpt lat="45.19195" lon="6.0177">
        <ele>1657</ele>
        <time>2013-03-10T08:40:03Z</time>
      </trkpt>
      <trkpt lat="45.19211" lon="6.01762">
        <ele>1664</ele>
        <time>2013-03-10T08:40:43Z</time>
      </trkpt>
      <trkpt lat="45.19211" lon="6.01774">
        <ele>1666.9</ele>
        <time>2013-03-10T08:41:22Z</time>
      </trkpt>
      <trkpt lat="45.19211" lon="6.01775">
        <ele>1667</ele>
        <time>2013-03-10T08:41:23Z</time>
      </trkpt>
      <trkpt lat="45.19217" lon="6.01754">
        <ele>1670.9</ele>
        <time>2013-03-10T08:42:22Z</time>
      </trkpt>
      <trkpt lat="45.19225" lon="6.01749">
        <ele>1676.4</ele>
        <time>2013-03-10T08:43:00Z</time>
      </trkpt>
      <trkpt lat="45.19225" lon="6.01748">
        <ele>1676.5</ele>
        <time>2013-03-10T08:43:01Z</time>
      </trkpt>
      <trkpt lat="45.19231" lon="6.01727">
        <ele>1681.4</ele>
        <time>2013-03-10T08:43:25Z</time>
      </trkpt>
      <trkpt lat="45.19239" lon="6.01731">
        <ele>1686.9</ele>
        <time>2013-03-10T08:43:54Z</time>
      </trkpt>
      <trkpt lat="45.19241" lon="6.01719">
        <ele>1690.6</ele>
        <time>2013-03-10T08:44:23Z</time>
      </trkpt>
      <trkpt lat="45.19242" lon="6.01718">
        <ele>1690.3</ele>
        <time>2013-03-10T08:44:24Z</time>
      </trkpt>
      <trkpt lat="45.19257" lon="6.01714">
        <ele>1699.6</ele>
        <time>2013-03-10T08:45:27Z</time>
      </trkpt>
      <trkpt lat="45.19257" lon="6.01713">
        <ele>1699.9</ele>
        <time>2013-03-10T08:45:28Z</time>
      </trkpt>
      <trkpt lat="45.19257" lon="6.01691">
        <ele>1705.8</ele>
        <time>2013-03-10T08:45:50Z</time>
      </trkpt>
      <trkpt lat="45.19261" lon="6.0168">
        <ele>1706.8</ele>
        <time>2013-03-10T08:46:24Z</time>
      </trkpt>
      <trkpt lat="45.1927" lon="6.01679">
        <ele>1706</ele>
        <time>2013-03-10T08:46:58Z</time>
      </trkpt>
      <trkpt lat="45.1927" lon="6.01679">
        <ele>1706</ele>
        <time>2013-03-10T08:46:59Z</time>
      </trkpt>
      <trkpt lat="45.1926" lon="6.01677">
        <ele>1706.3</ele>
        <time>2013-03-10T08:49:12Z</time>
      </trkpt>
      <trkpt lat="45.19269" lon="6.01672">
        <ele>1718.5</ele>
        <time>2013-03-10T08:50:24Z</time>
      </trkpt>
      <trkpt lat="45.19272" lon="6.01651">
        <ele>1720.8</ele>
        <time>2013-03-10T08:50:41Z</time>
      </trkpt>
      <trkpt lat="45.19274" lon="6.01639">
        <ele>1723.9</ele>
        <time>2013-03-10T08:50:52Z</time>
      </trkpt>
      <trkpt lat="45.19271" lon="6.01651">
        <ele>1733.2</ele>
        <time>2013-03-10T08:52:05Z</time>
      </trkpt>
      <trkpt lat="45.19271" lon="6.01652">
        <ele>1733.2</ele>
        <time>2013-03-10T08:52:06Z</time>
      </trkpt>
      <trkpt lat="45.19277" lon="6.01629">
        <ele>1736.6</ele>
        <time>2013-03-10T08:53:03Z</time>
      </trkpt>
      <trkpt lat="45.1928" lon="6.01617">
        <ele>1737.3</ele>
        <time>2013-03-10T08:53:30Z</time>
      </trkpt>
      <trkpt lat="45.1928" lon="6.01616">
        <ele>1737.4</ele>
        <time>2013-03-10T08:53:31Z</time>
      </trkpt>
      <trkpt lat="45.19279" lon="6.01604">
        <ele>1744</ele>
        <time>2013-03-10T08:54:41Z</time>
      </trkpt>
      <trkpt lat="45.19294" lon="6.01598">
        <ele>1751.7</ele>
        <time>2013-03-10T08:55:25Z</time>
      </trkpt>
      <trkpt lat="45.19293" lon="6.01586">
        <ele>1756.4</ele>
        <time>2013-03-10T08:56:08Z</time>
      </trkpt>
      <trkpt lat="45.19293" lon="6.01585">
        <ele>1756.6</ele>
        <time>2013-03-10T08:56:09Z</time>
      </trkpt>
      <trkpt lat="45.19306" lon="6.01579">
        <ele>1766</ele>
        <time>2013-03-10T08:57:10Z</time>
      </trkpt>
      <trkpt lat="45.19306" lon="6.01579">
        <ele>1766</ele>
        <time>2013-03-10T08:57:11Z</time>
      </trkpt>
      <trkpt lat="45.19307" lon="6.01554">
        <ele>1769</ele>
        <time>2013-03-10T08:57:56Z</time>
      </trkpt>
      <trkpt lat="45.19302" lon="6.01544">
        <ele>1773.6</ele>
        <time>2013-03-10T08:58:09Z</time>
      </trkpt>
      <trkpt lat="45.19305" lon="6.01533">
        <ele>1779.8</ele>
        <time>2013-03-10T08:59:18Z</time>
      </trkpt>
      <trkpt lat="45.19306" lon="6.01533">
        <ele>1780.1</ele>
        <time>2013-03-10T08:59:19Z</time>
      </trkpt>
      <trkpt lat="45.19322" lon="6.01527">
        <ele>1788.1</ele>
        <time>2013-03-10T09:00:44Z</time>
      </trkpt>
      <trkpt lat="45.19322" lon="6.01526">
        <ele>1788.3</ele>
        <time>2013-03-10T09:00:45Z</time>
      </trkpt>
      <trkpt lat="45.19309" lon="6.0151">
        <ele>1798.5</ele>
        <time>2013-03-10T09:01:50Z</time>
      </trkpt>
      <trkpt lat="45.19309" lon="6.01508">
        <ele>1798.8</ele>
        <time>2013-03-10T09:01:51Z</time>
      </trkpt>
      <trkpt lat="45.19314" lon="6.01498">
        <ele>1800</ele>
        <time>2013-03-10T09:02:53Z</time>
      </trkpt>
      <trkpt lat="45.19322" lon="6.01492">
        <ele>1803.5</ele>
        <time>2013-03-10T09:03:54Z</time>
      </trkpt>
      <trkpt lat="45.19339" lon="6.01491">
        <ele>1808.2</ele>
        <time>2013-03-10T09:04:54Z</time>
      </trkpt>
      <trkpt lat="45.19339" lon="6.0149">
        <ele>1808.6</ele>
        <time>2013-03-10T09:04:55Z</time>
      </trkpt>
      <trkpt lat="45.19355" lon="6.01483">
        <ele>1812.9</ele>
        <time>2013-03-10T09:05:25Z</time>
      </trkpt>
      <trkpt lat="45.19362" lon="6.01478">
        <ele>1816.1</ele>
        <time>2013-03-10T09:05:37Z</time>
      </trkpt>
      <trkpt lat="45.19368" lon="6.01471">
        <ele>1820.8</ele>
        <time>2013-03-10T09:05:52Z</time>
      </trkpt>
      <trkpt lat="45.19366" lon="6.01459">
        <ele>1823.9</ele>
        <time>2013-03-10T09:06:55Z</time>
      </trkpt>
      <trkpt lat="45.19366" lon="6.01459">
        <ele>1824</ele>
        <time>2013-03-10T09:06:56Z</time>
      </trkpt>
      <trkpt lat="45.19357" lon="6.01438">
        <ele>1827.9</ele>
        <time>2013-03-10T09:07:37Z</time>
      </trkpt>
      <trkpt lat="45.19365" lon="6.01436">
        <ele>1828.1</ele>
        <time>2013-03-10T09:08:25Z</time>
      </trkpt>
      <trkpt lat="45.19366" lon="6.01436">
        <ele>1828.4</ele>
        <time>2013-03-10T09:08:26Z</time>
      </trkpt>
      <trkpt lat="45.19382" lon="6.01431">
        <ele>1833.8</ele>
        <time>2013-03-10T09:08:52Z</time>
      </trkpt>
      <trkpt lat="45.1939" lon="6.0143">
        <ele>1836.5</ele>
        <time>2013-03-10T09:09:07Z</time>
      </trkpt>
      <trkpt lat="45.1939" lon="6.01417">
        <ele>1841.1</ele>
        <time>2013-03-10T09:10:16Z</time>
      </trkpt>
      <trkpt lat="45.1939" lon="6.01417">
        <ele>1841.2</ele>
        <time>2013-03-10T09:10:17Z</time>
      </trkpt>
      <trkpt lat="45.19394" lon="6.01406">
        <ele>1846.2</ele>
        <time>2013-03-10T09:11:27Z</time>
      </trkpt>
      <trkpt lat="45.19394" lon="6.01405">
        <ele>1846.7</ele>
        <time>2013-03-10T09:11:28Z</time>
      </trkpt>
      <trkpt lat="45.19403" lon="6.01404">
        <ele>1854.5</ele>
        <time>2013-03-10T09:12:40Z</time>
      </trkpt>
      <trkpt lat="45.19406" lon="6.01409">
        <ele>1854.9</ele>
        <time>2013-03-10T09:13:37Z</time>
      </trkpt>
      <trkpt lat="45.19412" lon="6.014">
        <ele>1854.9</ele>
        <time>2013-03-10T09:13:45Z</time>
      </trkpt>
      <trkpt lat="45.19412" lon="6.01399">
        <ele>1855.1</ele>
        <time>2013-03-10T09:13:46Z</time>
      </trkpt>
      <trkpt lat="45.19428" lon="6.014">
        <ele>1856.8</ele>
        <time>2013-03-10T09:14:18Z</time>
      </trkpt>
      <trkpt lat="45.19436" lon="6.01404">
        <ele>1858.1</ele>
        <time>2013-03-10T09:14:47Z</time>
      </trkpt>
      <trkpt lat="45.19437" lon="6.01404">
        <ele>1858</ele>
        <time>2013-03-10T09:14:48Z</time>
      </trkpt>
      <trkpt lat="45.19449" lon="6.01419">
        <ele>1862.1</ele>
        <time>2013-03-10T09:15:22Z</time>
      </trkpt>
      <trkpt lat="45.19447" lon="6.01407">
        <ele>1863.5</ele>
        <time>2013-03-10T09:16:19Z</time>
      </trkpt>
      <trkpt lat="45.19447" lon="6.01407">
        <ele>1863.9</ele>
        <time>2013-03-10T09:16:20Z</time>
      </trkpt>
      <trkpt lat="45.19438" lon="6.01393">
        <ele>1865.5</ele>
        <time>2013-03-10T09:16:59Z</time>
      </trkpt>
      <trkpt lat="45.19429" lon="6.01391">
        <ele>1865</ele>
        <time>2013-03-10T09:17:21Z</time>
      </trkpt>
      <trkpt lat="45.19429" lon="6.01391">
        <ele>1864.8</ele>
        <time>2013-03-10T09:17:22Z</time>
      </trkpt>
      <trkpt lat="45.1943" lon="6.01366">
        <ele>1867.3</ele>
        <time>2013-03-10T09:18:12Z</time>
      </trkpt>
      <trkpt lat="45.19438" lon="6.01362">
        <ele>1869</ele>
        <time>2013-03-10T09:18:51Z</time>
      </trkpt>
      <trkpt lat="45.19439" lon="6.01362">
        <ele>1869.2</ele>
        <time>2013-03-10T09:18:52Z</time>
      </trkpt>
      <trkpt lat="45.19434" lon="6.01349">
        <ele>1874.4</ele>
        <time>2013-03-10T09:19:47Z</time>
      </trkpt>
      <trkpt lat="45.19443" lon="6.01349">
        <ele>1877</ele>
        <time>2013-03-10T09:20:10Z</time>
      </trkpt>
      <trkpt lat="45.19443" lon="6.01349">
        <ele>1877</ele>
        <time>2013-03-10T09:20:11Z</time>
      </trkpt>
      <trkpt lat="45.1946" lon="6.01355">
        <ele>1879</ele>
        <time>2013-03-10T09:20:48Z</time>
      </trkpt>
      <trkpt lat="45.19461" lon="6.01342">
        <ele>1881.3</ele>
        <time>2013-03-10T09:21:27Z</time>
      </trkpt>
      <trkpt lat="45.1946" lon="6.01342">
        <ele>1881.7</ele>
        <time>2013-03-10T09:21:28Z</time>
      </trkpt>
      <trkpt lat="45.1945" lon="6.01323">
        <ele>1883.9</ele>
        <time>2013-03-10T09:22:16Z</time>
      </trkpt>
      <trkpt lat="45.19458" lon="6.01327">
        <ele>1885</ele>
        <time>2013-03-10T09:22:54Z</time>
      </trkpt>
      <trkpt lat="45.19459" lon="6.01326">
        <ele>1885.7</ele>
        <time>2013-03-10T09:22:55Z</time>
      </trkpt>
      <trkpt lat="45.19474" lon="6.01336">
        <ele>1890.4</ele>
        <time>2013-03-10T09:23:33Z</time>
      </trkpt>
      <trkpt lat="45.19471" lon="6.01325">
        <ele>1891.8</ele>
        <time>2013-03-10T09:24:13Z</time>
      </trkpt>
      <trkpt lat="45.19471" lon="6.01324">
        <ele>1892.4</ele>
        <time>2013-03-10T09:24:14Z</time>
      </trkpt>
      <trkpt lat="45.19474" lon="6.01302">
        <ele>1895.4</ele>
        <time>2013-03-10T09:24:44Z</time>
      </trkpt>
      <trkpt lat="45.19466" lon="6.01299">
        <ele>1898.3</ele>
        <time>2013-03-10T09:25:12Z</time>
      </trkpt>
      <trkpt lat="45.19472" lon="6.01292">
        <ele>1900.9</ele>
        <time>2013-03-10T09:26:18Z</time>
      </trkpt>
      <trkpt lat="45.19473" lon="6.01292">
        <ele>1901.2</ele>
        <time>2013-03-10T09:26:19Z</time>
      </trkpt>
      <trkpt lat="45.19489" lon="6.01297">
        <ele>1903.3</ele>
        <time>2013-03-10T09:26:44Z</time>
      </trkpt>
      <trkpt lat="45.19496" lon="6.01305">
        <ele>1906.3</ele>
        <time>2013-03-10T09:27:11Z</time>
      </trkpt>
      <trkpt lat="45.19505" lon="6.01308">
        <ele>1906.8</ele>
        <time>2013-03-10T09:27:24Z</time>
      </trkpt>
      <trkpt lat="45.19505" lon="6.01309">
        <ele>1907.8</ele>
        <time>2013-03-10T09:27:25Z</time>
      </trkpt>
      <trkpt lat="45.19504" lon="6.01296">
        <ele>1912.8</ele>
        <time>2013-03-10T09:28:54Z</time>
      </trkpt>
      <trkpt lat="45.19497" lon="6.01274">
        <ele>1917.2</ele>
        <time>2013-03-10T09:29:35Z</time>
      </trkpt>
      <trkpt lat="45.19495" lon="6.01262">
        <ele>1917.5</ele>
        <time>2013-03-10T09:30:16Z</time>
      </trkpt>
      <trkpt lat="45.19495" lon="6.01262">
        <ele>1917.5</ele>
        <time>2013-03-10T09:30:17Z</time>
      </trkpt>
      <trkpt lat="45.19493" lon="6.01239">
        <ele>1919.8</ele>
        <time>2013-03-10T09:30:40Z</time>
      </trkpt>
      <trkpt lat="45.19485" lon="6.01233">
        <ele>1920.9</ele>
        <time>2013-03-10T09:31:04Z</time>
      </trkpt>
      <trkpt lat="45.19482" lon="6.01222">
        <ele>1923.3</ele>
        <time>2013-03-10T09:31:47Z</time>
      </trkpt>
      <trkpt lat="45.19482" lon="6.01222">
        <ele>1924</ele>
        <time>2013-03-10T09:31:48Z</time>
      </trkpt>
      <trkpt lat="45.19468" lon="6.01209">
        <ele>1928.1</ele>
        <time>2013-03-10T09:32:39Z</time>
      </trkpt>
      <trkpt lat="45.1946" lon="6.01206">
        <ele>1930.1</ele>
        <time>2013-03-10T09:32:50Z</time>
      </trkpt>
      <trkpt lat="45.19459" lon="6.01206">
        <ele>1930.1</ele>
        <time>2013-03-10T09:32:51Z</time>
      </trkpt>
      <trkpt lat="45.19459" lon="6.01181">
        <ele>1934</ele>
        <time>2013-03-10T09:33:42Z</time>
      </trkpt>
      <trkpt lat="45.19451" lon="6.01187">
        <ele>1936.6</ele>
        <time>2013-03-10T09:34:00Z</time>
      </trkpt>
      <trkpt lat="45.1945" lon="6.01189">
        <ele>1936.6</ele>
        <time>2013-03-10T09:34:01Z</time>
      </trkpt>
      <trkpt lat="45.19464" lon="6.01177">
        <ele>1937.5</ele>
        <time>2013-03-10T09:34:21Z</time>
      </trkpt>
      <trkpt lat="45.19456" lon="6.01174">
        <ele>1944.1</ele>
        <time>2013-03-10T09:35:45Z</time>
      </trkpt>
      <trkpt lat="45.19455" lon="6.01173">
        <ele>1944.2</ele>
        <time>2013-03-10T09:35:46Z</time>
      </trkpt>
      <trkpt lat="45.19454" lon="6.0115">
        <ele>1947.2</ele>
        <time>2013-03-10T09:35:59Z</time>
      </trkpt>
      <trkpt lat="45.19457" lon="6.0114">
        <ele>1947.9</ele>
        <time>2013-03-10T09:36:03Z</time>
      </trkpt>
      <trkpt lat="45.19465" lon="6.01134">
        <ele>1950</ele>
        <time>2013-03-10T09:36:10Z</time>
      </trkpt>
      <trkpt lat="45.19464" lon="6.01146">
        <ele>1948.8</ele>
        <time>2013-03-10T09:36:20Z</time>
      </trkpt>
      <trkpt lat="45.19459" lon="6.01157">
        <ele>1949.2</ele>
        <time>2013-03-10T09:38:12Z</time>
      </trkpt>
      <trkpt lat="45.1946" lon="6.01157">
        <ele>1949.1</ele>
        <time>2013-03-10T09:38:13Z</time>
      </trkpt>
      <trkpt lat="45.19465" lon="6.01146">
        <ele>1948.8</ele>
        <time>2013-03-10T09:40:31Z</time>
      </trkpt>
      <trkpt lat="45.19452" lon="6.0113">
        <ele>1954.6</ele>
        <time>2013-03-10T09:41:40Z</time>
      </trkpt>
      <trkpt lat="45.19452" lon="6.01129">
        <ele>1954.8</ele>
        <time>2013-03-10T09:41:41Z</time>
      </trkpt>
      <trkpt lat="45.19465" lon="6.01121">
        <ele>1960.7</ele>
        <time>2013-03-10T09:42:42Z</time>
      </trkpt>
      <trkpt lat="45.19465" lon="6.01121">
        <ele>1960.9</ele>
        <time>2013-03-10T09:42:43Z</time>
      </trkpt>
      <trkpt lat="45.19472" lon="6.01114">
        <ele>1970</ele>
        <time>2013-03-10T09:43:55Z</time>
      </trkpt>
      <trkpt lat="45.19472" lon="6.01113">
        <ele>1970.4</ele>
        <time>2013-03-10T09:43:56Z</time>
      </trkpt>
      <trkpt lat="45.19481" lon="6.01112">
        <ele>1972.3</ele>
        <time>2013-03-10T09:44:58Z</time>
      </trkpt>
      <trkpt lat="45.19474" lon="6.01092">
        <ele>1980.4</ele>
        <time>2013-03-10T09:46:21Z</time>
      </trkpt>
      <trkpt lat="45.19474" lon="6.01091">
        <ele>1980.6</ele>
        <time>2013-03-10T09:46:22Z</time>
      </trkpt>
      <trkpt lat="45.1949" lon="6.0109">
        <ele>1988.4</ele>
        <time>2013-03-10T09:48:09Z</time>
      </trkpt>
      <trkpt lat="45.1949" lon="6.01091">
        <ele>1988.5</ele>
        <time>2013-03-10T09:48:10Z</time>
      </trkpt>
      <trkpt lat="45.195" lon="6.01079">
        <ele>1994.6</ele>
        <time>2013-03-10T09:49:31Z</time>
      </trkpt>
      <trkpt lat="45.19499" lon="6.01077">
        <ele>1995.1</ele>
        <time>2013-03-10T09:49:32Z</time>
      </trkpt>
      <trkpt lat="45.19499" lon="6.01066">
        <ele>1999.1</ele>
        <time>2013-03-10T09:50:51Z</time>
      </trkpt>
      <trkpt lat="45.19511" lon="6.0108">
        <ele>2003.8</ele>
        <time>2013-03-10T09:51:32Z</time>
      </trkpt>
      <trkpt lat="45.1951" lon="6.01068">
        <ele>2004.6</ele>
        <time>2013-03-10T09:51:59Z</time>
      </trkpt>
      <trkpt lat="45.1951" lon="6.01067">
        <ele>2004.8</ele>
        <time>2013-03-10T09:52:00Z</time>
      </trkpt>
      <trkpt lat="45.19513" lon="6.01054">
        <ele>2011.6</ele>
        <time>2013-03-10T09:53:04Z</time>
      </trkpt>
      <trkpt lat="45.19514" lon="6.01054">
        <ele>2012.2</ele>
        <time>2013-03-10T09:53:05Z</time>
      </trkpt>
      <trkpt lat="45.19522" lon="6.01059">
        <ele>2014.6</ele>
        <time>2013-03-10T09:54:09Z</time>
      </trkpt>
      <trkpt lat="45.1951" lon="6.01039">
        <ele>2018.6</ele>
        <time>2013-03-10T09:54:34Z</time>
      </trkpt>
      <trkpt lat="45.19503" lon="6.01033">
        <ele>2021.7</ele>
        <time>2013-03-10T09:54:53Z</time>
      </trkpt>
      <trkpt lat="45.19497" lon="6.01023">
        <ele>2021.6</ele>
        <time>2013-03-10T09:55:11Z</time>
      </trkpt>
      <trkpt lat="45.19497" lon="6.01022">
        <ele>2021.6</ele>
        <time>2013-03-10T09:55:12Z</time>
      </trkpt>
      <trkpt lat="45.19514" lon="6.01021">
        <ele>2024.5</ele>
        <time>2013-03-10T09:55:52Z</time>
      </trkpt>
      <trkpt lat="45.19523" lon="6.01019">
        <ele>2027.8</ele>
        <time>2013-03-10T09:56:04Z</time>
      </trkpt>
      <trkpt lat="45.19515" lon="6.01013">
        <ele>2028.5</ele>
        <time>2013-03-10T09:56:42Z</time>
      </trkpt>
      <trkpt lat="45.19515" lon="6.01012">
        <ele>2028.5</ele>
        <time>2013-03-10T09:56:43Z</time>
      </trkpt>
      <trkpt lat="45.19502" lon="6.00997">
        <ele>2035.3</ele>
        <time>2013-03-10T09:57:09Z</time>
      </trkpt>
      <trkpt lat="45.19494" lon="6.00993">
        <ele>2036.7</ele>
        <time>2013-03-10T09:57:49Z</time>
      </trkpt>
      <trkpt lat="45.19493" lon="6.00993">
        <ele>2036.8</ele>
        <time>2013-03-10T09:57:50Z</time>
      </trkpt>
      <trkpt lat="45.19477" lon="6.00993">
        <ele>2044.5</ele>
        <time>2013-03-10T09:58:44Z</time>
      </trkpt>
      <trkpt lat="45.19473" lon="6.00983">
        <ele>2045</ele>
        <time>2013-03-10T09:58:54Z</time>
      </trkpt>
      <trkpt lat="45.19473" lon="6.00981">
        <ele>2045.3</ele>
        <time>2013-03-10T09:58:55Z</time>
      </trkpt>
      <trkpt lat="45.19465" lon="6.00961">
        <ele>2048.3</ele>
        <time>2013-03-10T09:59:14Z</time>
      </trkpt>
      <trkpt lat="45.19469" lon="6.0097">
        <ele>2049.5</ele>
        <time>2013-03-10T09:59:33Z</time>
      </trkpt>
      <trkpt lat="45.19465" lon="6.00959">
        <ele>2049.3</ele>
        <time>2013-03-10T10:00:10Z</time>
      </trkpt>
      <trkpt lat="45.19464" lon="6.00958">
        <ele>2049.3</ele>
        <time>2013-03-10T10:00:11Z</time>
      </trkpt>
      <trkpt lat="45.1945" lon="6.00944">
        <ele>2049.2</ele>
        <time>2013-03-10T10:00:37Z</time>
      </trkpt>
      <trkpt lat="45.19458" lon="6.00951">
        <ele>2048.8</ele>
        <time>2013-03-10T10:01:12Z</time>
      </trkpt>
      <trkpt lat="45.19458" lon="6.00951">
        <ele>2048.7</ele>
        <time>2013-03-10T10:01:13Z</time>
      </trkpt>
      <trkpt lat="45.19459" lon="6.00943">
        <ele>2048.7</ele>
        <time>2013-03-10T10:02:05Z</time>
      </trkpt>
      <trkpt lat="45.19455" lon="6.00954">
        <ele>2049.1</ele>
        <time>2013-03-10T10:02:46Z</time>
      </trkpt>
      <trkpt lat="45.19456" lon="6.00955">
        <ele>2049.2</ele>
        <time>2013-03-10T10:02:47Z</time>
      </trkpt>
      <trkpt lat="45.19456" lon="6.00953">
        <ele>2049.4</ele>
        <time>2013-03-10T10:06:32Z</time>
      </trkpt>
      <trkpt lat="45.19455" lon="6.00952">
        <ele>2049.8</ele>
        <time>2013-03-10T10:06:33Z</time>
      </trkpt>
      <trkpt lat="45.19471" lon="6.00947">
        <ele>2048.4</ele>
        <time>2013-03-10T10:07:11Z</time>
      </trkpt>
      <trkpt lat="45.19462" lon="6.00947">
        <ele>2049.6</ele>
        <time>2013-03-10T10:08:17Z</time>
      </trkpt>
      <trkpt lat="45.19461" lon="6.00947">
        <ele>2049.4</ele>
        <time>2013-03-10T10:08:18Z</time>
      </trkpt>
      <trkpt lat="45.1947" lon="6.00953">
        <ele>2048.9</ele>
        <time>2013-03-10T10:11:58Z</time>
      </trkpt>
      <trkpt lat="45.19468" lon="6.00959">
        <ele>2049.5</ele>
        <time>2013-03-10T10:12:57Z</time>
      </trkpt>
      <trkpt lat="45.19461" lon="6.00951">
        <ele>2050</ele>
        <time>2013-03-10T10:13:08Z</time>
      </trkpt>
      <trkpt lat="45.1946" lon="6.00951">
        <ele>2049.6</ele>
        <time>2013-03-10T10:13:09Z</time>
      </trkpt>
      <trkpt lat="45.19463" lon="6.00951">
        <ele>2050.1</ele>
        <time>2013-03-10T10:14:16Z</time>
      </trkpt>
      <trkpt lat="45.19463" lon="6.0095">
        <ele>2050</ele>
        <time>2013-03-10T10:14:17Z</time>
      </trkpt>
      <trkpt lat="45.19457" lon="6.00929">
        <ele>2051.9</ele>
        <time>2013-03-10T10:14:36Z</time>
      </trkpt>
      <trkpt lat="45.19452" lon="6.00919">
        <ele>2055.4</ele>
        <time>2013-03-10T10:14:49Z</time>
      </trkpt>
      <trkpt lat="45.19447" lon="6.00909">
        <ele>2057.6</ele>
        <time>2013-03-10T10:15:04Z</time>
      </trkpt>
      <trkpt lat="45.19442" lon="6.00899">
        <ele>2058.9</ele>
        <time>2013-03-10T10:15:36Z</time>
      </trkpt>
      <trkpt lat="45.19442" lon="6.00898">
        <ele>2058.9</ele>
        <time>2013-03-10T10:15:37Z</time>
      </trkpt>
      <trkpt lat="45.19432" lon="6.00881">
        <ele>2066</ele>
        <time>2013-03-10T10:16:10Z</time>
      </trkpt>
      <trkpt lat="45.19424" lon="6.00878">
        <ele>2065.9</ele>
        <time>2013-03-10T10:16:32Z</time>
      </trkpt>
      <trkpt lat="45.19418" lon="6.00868">
        <ele>2070.1</ele>
        <time>2013-03-10T10:16:58Z</time>
      </trkpt>
      <trkpt lat="45.19418" lon="6.00868">
        <ele>2070.2</ele>
        <time>2013-03-10T10:16:59Z</time>
      </trkpt>
      <trkpt lat="45.19408" lon="6.00849">
        <ele>2071.3</ele>
        <time>2013-03-10T10:17:17Z</time>
      </trkpt>
      <trkpt lat="45.194" lon="6.00848">
        <ele>2070.2</ele>
        <time>2013-03-10T10:17:25Z</time>
      </trkpt>
      <trkpt lat="45.19407" lon="6.00841">
        <ele>2076.9</ele>
        <time>2013-03-10T10:18:20Z</time>
      </trkpt>
      <trkpt lat="45.19408" lon="6.00841">
        <ele>2077.2</ele>
        <time>2013-03-10T10:18:21Z</time>
      </trkpt>
      <trkpt lat="45.19423" lon="6.00848">
        <ele>2076.8</ele>
        <time>2013-03-10T10:18:41Z</time>
      </trkpt>
      <trkpt lat="45.19429" lon="6.0085">
        <ele>2077</ele>
        <time>2013-03-10T10:18:44Z</time>
      </trkpt>
      <trkpt lat="45.19437" lon="6.00852">
        <ele>2077.3</ele>
        <time>2013-03-10T10:18:47Z</time>
      </trkpt>
      <trkpt lat="45.19446" lon="6.00854">
        <ele>2076.6</ele>
        <time>2013-03-10T10:18:50Z</time>
      </trkpt>
      <trkpt lat="45.19454" lon="6.00855">
        <ele>2077.1</ele>
        <time>2013-03-10T10:18:54Z</time>
      </trkpt>
      <trkpt lat="45.19462" lon="6.00855">
        <ele>2077</ele>
        <time>2013-03-10T10:18:57Z</time>
      </trkpt>
      <trkpt lat="45.19456" lon="6.00847">
        <ele>2079.4</ele>
        <time>2013-03-10T10:19:12Z</time>
      </trkpt>
      <trkpt lat="45.19448" lon="6.00843">
        <ele>2080.8</ele>
        <time>2013-03-10T10:19:17Z</time>
      </trkpt>
      <trkpt lat="45.1944" lon="6.00843">
        <ele>2081.6</ele>
        <time>2013-03-10T10:19:28Z</time>
      </trkpt>
      <trkpt lat="45.19439" lon="6.00843">
        <ele>2082.1</ele>
        <time>2013-03-10T10:19:29Z</time>
      </trkpt>
      <trkpt lat="45.19426" lon="6.00835">
        <ele>2089</ele>
        <time>2013-03-10T10:21:06Z</time>
      </trkpt>
      <trkpt lat="45.19425" lon="6.00834">
        <ele>2088.7</ele>
        <time>2013-03-10T10:21:07Z</time>
      </trkpt>
      <trkpt lat="45.19414" lon="6.00817">
        <ele>2096.4</ele>
        <time>2013-03-10T10:21:41Z</time>
      </trkpt>
      <trkpt lat="45.19413" lon="6.00806">
        <ele>2097.2</ele>
        <time>2013-03-10T10:22:39Z</time>
      </trkpt>
      <trkpt lat="45.19412" lon="6.00805">
        <ele>2097.1</ele>
        <time>2013-03-10T10:22:40Z</time>
      </trkpt>
      <trkpt lat="45.19408" lon="6.00786">
        <ele>2102.9</ele>
        <time>2013-03-10T10:23:06Z</time>
      </trkpt>
      <trkpt lat="45.194" lon="6.00781">
        <ele>2104.9</ele>
        <time>2013-03-10T10:23:44Z</time>
      </trkpt>
      <trkpt lat="45.19398" lon="6.00781">
        <ele>2104.6</ele>
        <time>2013-03-10T10:23:45Z</time>
      </trkpt>
      <trkpt lat="45.19383" lon="6.00774">
        <ele>2103.9</ele>
        <time>2013-03-10T10:24:08Z</time>
      </trkpt>
      <trkpt lat="45.19387" lon="6.00762">
        <ele>2108.7</ele>
        <time>2013-03-10T10:24:21Z</time>
      </trkpt>
      <trkpt lat="45.19391" lon="6.00752">
        <ele>2112.5</ele>
        <time>2013-03-10T10:24:36Z</time>
      </trkpt>
      <trkpt lat="45.194" lon="6.00753">
        <ele>2112.9</ele>
        <time>2013-03-10T10:24:52Z</time>
      </trkpt>
      <trkpt lat="45.194" lon="6.00753">
        <ele>2112.8</ele>
        <time>2013-03-10T10:24:53Z</time>
      </trkpt>
      <trkpt lat="45.19386" lon="6.00741">
        <ele>2113.2</ele>
        <time>2013-03-10T10:25:23Z</time>
      </trkpt>
      <trkpt lat="45.19379" lon="6.00733">
        <ele>2114.4</ele>
        <time>2013-03-10T10:25:29Z</time>
      </trkpt>
      <trkpt lat="45.19386" lon="6.00728">
        <ele>2118.6</ele>
        <time>2013-03-10T10:25:42Z</time>
      </trkpt>
      <trkpt lat="45.19395" lon="6.00725">
        <ele>2121.3</ele>
        <time>2013-03-10T10:25:52Z</time>
      </trkpt>
      <trkpt lat="45.19403" lon="6.00722">
        <ele>2122.9</ele>
        <time>2013-03-10T10:26:52Z</time>
      </trkpt>
      <trkpt lat="45.19404" lon="6.00722">
        <ele>2123.2</ele>
        <time>2013-03-10T10:26:53Z</time>
      </trkpt>
      <trkpt lat="45.19392" lon="6.00704">
        <ele>2129.7</ele>
        <time>2013-03-10T10:27:30Z</time>
      </trkpt>
      <trkpt lat="45.19384" lon="6.00698">
        <ele>2128.9</ele>
        <time>2013-03-10T10:27:40Z</time>
      </trkpt>
      <trkpt lat="45.19376" lon="6.00695">
        <ele>2129.6</ele>
        <time>2013-03-10T10:27:48Z</time>
      </trkpt>
      <trkpt lat="45.19385" lon="6.00697">
        <ele>2130.2</ele>
        <time>2013-03-10T10:28:16Z</time>
      </trkpt>
      <trkpt lat="45.19385" lon="6.00696">
        <ele>2130.3</ele>
        <time>2013-03-10T10:28:17Z</time>
      </trkpt>
      <trkpt lat="45.1939" lon="6.00674">
        <ele>2135.9</ele>
        <time>2013-03-10T10:28:47Z</time>
      </trkpt>
      <trkpt lat="45.19398" lon="6.00678">
        <ele>2136.6</ele>
        <time>2013-03-10T10:29:08Z</time>
      </trkpt>
      <trkpt lat="45.19407" lon="6.00679">
        <ele>2136.9</ele>
        <time>2013-03-10T10:29:14Z</time>
      </trkpt>
      <trkpt lat="45.19415" lon="6.0068">
        <ele>2136.4</ele>
        <time>2013-03-10T10:29:19Z</time>
      </trkpt>
      <trkpt lat="45.19417" lon="6.00681">
        <ele>2136.6</ele>
        <time>2013-03-10T10:29:20Z</time>
      </trkpt>
      <trkpt lat="45.19409" lon="6.0066">
        <ele>2141.9</ele>
        <time>2013-03-10T10:29:51Z</time>
      </trkpt>
      <trkpt lat="45.19406" lon="6.0065">
        <ele>2144.1</ele>
        <time>2013-03-10T10:30:03Z</time>
      </trkpt>
      <trkpt lat="45.19408" lon="6.00638">
        <ele>2146.2</ele>
        <time>2013-03-10T10:30:21Z</time>
      </trkpt>
      <trkpt lat="45.19408" lon="6.00637">
        <ele>2146.4</ele>
        <time>2013-03-10T10:30:22Z</time>
      </trkpt>
      <trkpt lat="45.19408" lon="6.00629">
        <ele>2145.2</ele>
        <time>2013-03-10T10:31:16Z</time>
      </trkpt>
      <trkpt lat="45.194" lon="6.00626">
        <ele>2146.1</ele>
        <time>2013-03-10T10:31:21Z</time>
      </trkpt>
      <trkpt lat="45.19402" lon="6.00614">
        <ele>2150</ele>
        <time>2013-03-10T10:31:43Z</time>
      </trkpt>
      <trkpt lat="45.19402" lon="6.00613">
        <ele>2150.5</ele>
        <time>2013-03-10T10:31:44Z</time>
      </trkpt>
      <trkpt lat="45.19417" lon="6.00612">
        <ele>2152</ele>
        <time>2013-03-10T10:32:15Z</time>
      </trkpt>
      <trkpt lat="45.19424" lon="6.00605">
        <ele>2153.7</ele>
        <time>2013-03-10T10:32:52Z</time>
      </trkpt>
      <trkpt lat="45.19425" lon="6.00604">
        <ele>2153.6</ele>
        <time>2013-03-10T10:32:53Z</time>
      </trkpt>
      <trkpt lat="45.19416" lon="6.00589">
        <ele>2159.1</ele>
        <time>2013-03-10T10:34:13Z</time>
      </trkpt>
      <trkpt lat="45.19414" lon="6.00589">
        <ele>2158.9</ele>
        <time>2013-03-10T10:34:14Z</time>
      </trkpt>
      <trkpt lat="45.19423" lon="6.00569">
        <ele>2163.9</ele>
        <time>2013-03-10T10:35:11Z</time>
      </trkpt>
      <trkpt lat="45.1943" lon="6.00561">
        <ele>2166.2</ele>
        <time>2013-03-10T10:35:59Z</time>
      </trkpt>
      <trkpt lat="45.1943" lon="6.0056">
        <ele>2166.3</ele>
        <time>2013-03-10T10:36:00Z</time>
      </trkpt>
      <trkpt lat="45.19438" lon="6.00539">
        <ele>2171</ele>
        <time>2013-03-10T10:36:59Z</time>
      </trkpt>
      <trkpt lat="45.19433" lon="6.00528">
        <ele>2173.4</ele>
        <time>2013-03-10T10:37:08Z</time>
      </trkpt>
      <trkpt lat="45.19433" lon="6.00528">
        <ele>2174.3</ele>
        <time>2013-03-10T10:37:09Z</time>
      </trkpt>
      <trkpt lat="45.1945" lon="6.00527">
        <ele>2175.4</ele>
        <time>2013-03-10T10:37:50Z</time>
      </trkpt>
      <trkpt lat="45.19449" lon="6.00516">
        <ele>2177.2</ele>
        <time>2013-03-10T10:38:02Z</time>
      </trkpt>
      <trkpt lat="45.19443" lon="6.00508">
        <ele>2178.2</ele>
        <time>2013-03-10T10:38:09Z</time>
      </trkpt>
      <trkpt lat="45.19449" lon="6.00499">
        <ele>2187</ele>
        <time>2013-03-10T10:39:43Z</time>
      </trkpt>
      <trkpt lat="45.19449" lon="6.00498">
        <ele>2186.9</ele>
        <time>2013-03-10T10:39:44Z</time>
      </trkpt>
      <trkpt lat="45.19436" lon="6.00484">
        <ele>2186.4</ele>
        <time>2013-03-10T10:41:33Z</time>
      </trkpt>
      <trkpt lat="45.19436" lon="6.00483">
        <ele>2186.3</ele>
        <time>2013-03-10T10:41:34Z</time>
      </trkpt>
      <trkpt lat="45.19452" lon="6.00487">
        <ele>2189</ele>
        <time>2013-03-10T10:43:03Z</time>
      </trkpt>
      <trkpt lat="45.19453" lon="6.00487">
        <ele>2189.2</ele>
        <time>2013-03-10T10:43:04Z</time>
      </trkpt>
      <trkpt lat="45.19456" lon="6.00471">
        <ele>2195.1</ele>
        <time>2013-03-10T10:44:18Z</time>
      </trkpt>
      <trkpt lat="45.19455" lon="6.00471">
        <ele>2194.7</ele>
        <time>2013-03-10T10:44:19Z</time>
      </trkpt>
      <trkpt lat="45.19448" lon="6.0045">
        <ele>2199.7</ele>
        <time>2013-03-10T10:45:32Z</time>
      </trkpt>
      <trkpt lat="45.19448" lon="6.00449">
        <ele>2199.7</ele>
        <time>2013-03-10T10:45:33Z</time>
      </trkpt>
      <trkpt lat="45.19456" lon="6.00428">
        <ele>2206.2</ele>
        <time>2013-03-10T10:46:29Z</time>
      </trkpt>
      <trkpt lat="45.19464" lon="6.00426">
        <ele>2207.3</ele>
        <time>2013-03-10T10:46:57Z</time>
      </trkpt>
      <trkpt lat="45.19465" lon="6.00426">
        <ele>2207.4</ele>
        <time>2013-03-10T10:46:58Z</time>
      </trkpt>
      <trkpt lat="45.19465" lon="6.00413">
        <ele>2208.5</ele>
        <time>2013-03-10T10:48:06Z</time>
      </trkpt>
      <trkpt lat="45.19464" lon="6.00391">
        <ele>2213.5</ele>
        <time>2013-03-10T10:49:14Z</time>
      </trkpt>
      <trkpt lat="45.19464" lon="6.00389">
        <ele>2213.7</ele>
        <time>2013-03-10T10:49:15Z</time>
      </trkpt>
      <trkpt lat="45.19466" lon="6.00366">
        <ele>2218.2</ele>
        <time>2013-03-10T10:49:50Z</time>
      </trkpt>
      <trkpt lat="45.19469" lon="6.00356">
        <ele>2221.6</ele>
        <time>2013-03-10T10:50:49Z</time>
      </trkpt>
      <trkpt lat="45.19469" lon="6.00354">
        <ele>2221.6</ele>
        <time>2013-03-10T10:50:50Z</time>
      </trkpt>
      <trkpt lat="45.19467" lon="6.00331">
        <ele>2224.9</ele>
        <time>2013-03-10T10:51:11Z</time>
      </trkpt>
      <trkpt lat="45.19464" lon="6.0032">
        <ele>2224</ele>
        <time>2013-03-10T10:51:21Z</time>
      </trkpt>
      <trkpt lat="45.1946" lon="6.00309">
        <ele>2225.4</ele>
        <time>2013-03-10T10:51:30Z</time>
      </trkpt>
      <trkpt lat="45.19467" lon="6.00301">
        <ele>2230.1</ele>
        <time>2013-03-10T10:51:58Z</time>
      </trkpt>
      <trkpt lat="45.19468" lon="6.00301">
        <ele>2230.4</ele>
        <time>2013-03-10T10:51:59Z</time>
      </trkpt>
      <trkpt lat="45.19467" lon="6.00288">
        <ele>2233.7</ele>
        <time>2013-03-10T10:53:17Z</time>
      </trkpt>
      <trkpt lat="45.19473" lon="6.00266">
        <ele>2238.6</ele>
        <time>2013-03-10T10:54:20Z</time>
      </trkpt>
      <trkpt lat="45.19474" lon="6.00265">
        <ele>2238.7</ele>
        <time>2013-03-10T10:54:21Z</time>
      </trkpt>
      <trkpt lat="45.19464" lon="6.00245">
        <ele>2248.4</ele>
        <time>2013-03-10T10:56:03Z</time>
      </trkpt>
      <trkpt lat="45.19463" lon="6.00245">
        <ele>2248.5</ele>
        <time>2013-03-10T10:56:04Z</time>
      </trkpt>
      <trkpt lat="45.19453" lon="6.00226">
        <ele>2247.9</ele>
        <time>2013-03-10T10:56:32Z</time>
      </trkpt>
      <trkpt lat="45.19458" lon="6.00216">
        <ele>2248.4</ele>
        <time>2013-03-10T10:56:55Z</time>
      </trkpt>
      <trkpt lat="45.19465" lon="6.00221">
        <ele>2250.7</ele>
        <time>2013-03-10T10:57:01Z</time>
      </trkpt>
      <trkpt lat="45.19473" lon="6.00226">
        <ele>2252.4</ele>
        <time>2013-03-10T10:57:09Z</time>
      </trkpt>
      <trkpt lat="45.19474" lon="6.00227">
        <ele>2252.4</ele>
        <time>2013-03-10T10:57:10Z</time>
      </trkpt>
      <trkpt lat="45.19474" lon="6.00206">
        <ele>2257.1</ele>
        <time>2013-03-10T10:57:48Z</time>
      </trkpt>
      <trkpt lat="45.19482" lon="6.00212">
        <ele>2258.3</ele>
        <time>2013-03-10T10:58:04Z</time>
      </trkpt>
      <trkpt lat="45.19485" lon="6.00223">
        <ele>2258.3</ele>
        <time>2013-03-10T10:58:29Z</time>
      </trkpt>
      <trkpt lat="45.19486" lon="6.00223">
        <ele>2258.1</ele>
        <time>2013-03-10T10:58:30Z</time>
      </trkpt>
      <trkpt lat="45.19498" lon="6.00209">
        <ele>2264.3</ele>
        <time>2013-03-10T10:59:16Z</time>
      </trkpt>
      <trkpt lat="45.19497" lon="6.00197">
        <ele>2270.2</ele>
        <time>2013-03-10T11:00:37Z</time>
      </trkpt>
      <trkpt lat="45.19496" lon="6.00196">
        <ele>2270.4</ele>
        <time>2013-03-10T11:00:38Z</time>
      </trkpt>
      <trkpt lat="45.19486" lon="6.00178">
        <ele>2275.9</ele>
        <time>2013-03-10T11:01:14Z</time>
      </trkpt>
      <trkpt lat="45.19477" lon="6.00178">
        <ele>2275.8</ele>
        <time>2013-03-10T11:01:48Z</time>
      </trkpt>
      <trkpt lat="45.19477" lon="6.00178">
        <ele>2276</ele>
        <time>2013-03-10T11:01:49Z</time>
      </trkpt>
      <trkpt lat="45.19465" lon="6.00161">
        <ele>2283.5</ele>
        <time>2013-03-10T11:02:51Z</time>
      </trkpt>
      <trkpt lat="45.19465" lon="6.0016">
        <ele>2283</ele>
        <time>2013-03-10T11:02:52Z</time>
      </trkpt>
      <trkpt lat="45.19475" lon="6.00145">
        <ele>2286.8</ele>
        <time>2013-03-10T11:03:26Z</time>
      </trkpt>
      <trkpt lat="45.19483" lon="6.00148">
        <ele>2288.9</ele>
        <time>2013-03-10T11:03:45Z</time>
      </trkpt>
      <trkpt lat="45.19477" lon="6.00139">
        <ele>2288.5</ele>
        <time>2013-03-10T11:04:11Z</time>
      </trkpt>
      <trkpt lat="45.19477" lon="6.00138">
        <ele>2288.5</ele>
        <time>2013-03-10T11:04:12Z</time>
      </trkpt>
      <trkpt lat="45.1949" lon="6.00129">
        <ele>2292.7</ele>
        <time>2013-03-10T11:04:34Z</time>
      </trkpt>
      <trkpt lat="45.19498" lon="6.00128">
        <ele>2293.5</ele>
        <time>2013-03-10T11:04:42Z</time>
      </trkpt>
      <trkpt lat="45.19496" lon="6.00116">
        <ele>2296.8</ele>
        <time>2013-03-10T11:05:11Z</time>
      </trkpt>
      <trkpt lat="45.19491" lon="6.00106">
        <ele>2300.3</ele>
        <time>2013-03-10T11:06:16Z</time>
      </trkpt>
      <trkpt lat="45.1949" lon="6.00105">
        <ele>2300.4</ele>
        <time>2013-03-10T11:06:17Z</time>
      </trkpt>
      <trkpt lat="45.19488" lon="6.00094">
        <ele>2301.8</ele>
        <time>2013-03-10T11:07:43Z</time>
      </trkpt>
      <trkpt lat="45.19488" lon="6.00094">
        <ele>2302.1</ele>
        <time>2013-03-10T11:07:44Z</time>
      </trkpt>
      <trkpt lat="45.19501" lon="6.0011">
        <ele>2302.6</ele>
        <time>2013-03-10T11:08:07Z</time>
      </trkpt>
      <trkpt lat="45.19507" lon="6.00102">
        <ele>2303.4</ele>
        <time>2013-03-10T11:08:25Z</time>
      </trkpt>
      <trkpt lat="45.19508" lon="6.00089">
        <ele>2306.6</ele>
        <time>2013-03-10T11:08:50Z</time>
      </trkpt>
      <trkpt lat="45.19508" lon="6.00089">
        <ele>2306.6</ele>
        <time>2013-03-10T11:08:51Z</time>
      </trkpt>
      <trkpt lat="45.195" lon="6.00083">
        <ele>2303.1</ele>
        <time>2013-03-10T11:10:55Z</time>
      </trkpt>
      <trkpt lat="45.19499" lon="6.00083">
        <ele>2283.2</ele>
        <time>2013-03-10T11:23:09Z</time>
      </trkpt>
      <trkpt lat="45.19499" lon="6.00083">
        <ele>2283.3</ele>
        <time>2013-03-10T11:23:10Z</time>
      </trkpt>
      <trkpt lat="45.19508" lon="6.00085">
        <ele>2280.1</ele>
        <time>2013-03-10T11:25:18Z</time>
      </trkpt>
      <trkpt lat="45.19505" lon="6.00063">
        <ele>2284</ele>
        <time>2013-03-10T11:25:55Z</time>
      </trkpt>
      <trkpt lat="45.195" lon="6.00052">
        <ele>2284.6</ele>
        <time>2013-03-10T11:26:08Z</time>
      </trkpt>
      <trkpt lat="45.19497" lon="6.0004">
        <ele>2288.2</ele>
        <time>2013-03-10T11:26:44Z</time>
      </trkpt>
      <trkpt lat="45.19497" lon="6.0004">
        <ele>2288.1</ele>
        <time>2013-03-10T11:26:45Z</time>
      </trkpt>
      <trkpt lat="45.19489" lon="6.00019">
        <ele>2290.9</ele>
        <time>2013-03-10T11:27:18Z</time>
      </trkpt>
      <trkpt lat="45.19484" lon="6.0001">
        <ele>2290.7</ele>
        <time>2013-03-10T11:27:28Z</time>
      </trkpt>
      <trkpt lat="45.19487" lon="5.99998">
        <ele>2294.6</ele>
        <time>2013-03-10T11:27:52Z</time>
      </trkpt>
      <trkpt lat="45.19488" lon="5.99998">
        <ele>2295</ele>
        <time>2013-03-10T11:27:53Z</time>
      </trkpt>
      <trkpt lat="45.19498" lon="5.99979">
        <ele>2300.6</ele>
        <time>2013-03-10T11:28:59Z</time>
      </trkpt>
      <trkpt lat="45.19499" lon="5.99978">
        <ele>2300.7</ele>
        <time>2013-03-10T11:29:00Z</time>
      </trkpt>
      <trkpt lat="45.19495" lon="5.99955">
        <ele>2304.5</ele>
        <time>2013-03-10T11:29:45Z</time>
      </trkpt>
      <trkpt lat="45.19489" lon="5.99946">
        <ele>2307.7</ele>
        <time>2013-03-10T11:30:15Z</time>
      </trkpt>
      <trkpt lat="45.19489" lon="5.99946">
        <ele>2307.9</ele>
        <time>2013-03-10T11:30:16Z</time>
      </trkpt>
      <trkpt lat="45.1948" lon="5.99928">
        <ele>2313.2</ele>
        <time>2013-03-10T11:31:23Z</time>
      </trkpt>
      <trkpt lat="45.1948" lon="5.99928">
        <ele>2313.1</ele>
        <time>2013-03-10T11:31:24Z</time>
      </trkpt>
      <trkpt lat="45.19485" lon="5.99906">
        <ele>2318</ele>
        <time>2013-03-10T11:32:23Z</time>
      </trkpt>
      <trkpt lat="45.19492" lon="5.99899">
        <ele>2321.1</ele>
        <time>2013-03-10T11:33:10Z</time>
      </trkpt>
      <trkpt lat="45.19492" lon="5.99898">
        <ele>2320.9</ele>
        <time>2013-03-10T11:33:11Z</time>
      </trkpt>
      <trkpt lat="45.19499" lon="5.99876">
        <ele>2327.6</ele>
        <time>2013-03-10T11:33:45Z</time>
      </trkpt>
      <trkpt lat="45.19504" lon="5.99866">
        <ele>2329.8</ele>
        <time>2013-03-10T11:33:59Z</time>
      </trkpt>
      <trkpt lat="45.19508" lon="5.99854">
        <ele>2333</ele>
        <time>2013-03-10T11:34:14Z</time>
      </trkpt>
      <trkpt lat="45.19508" lon="5.99853">
        <ele>2333.6</ele>
        <time>2013-03-10T11:34:15Z</time>
      </trkpt>
      <trkpt lat="45.19514" lon="5.99841">
        <ele>2334.1</ele>
        <time>2013-03-10T11:35:05Z</time>
      </trkpt>
      <trkpt lat="45.19511" lon="5.99831">
        <ele>2334.7</ele>
        <time>2013-03-10T11:35:15Z</time>
      </trkpt>
      <trkpt lat="45.19518" lon="5.99824">
        <ele>2340.4</ele>
        <time>2013-03-10T11:35:52Z</time>
      </trkpt>
      <trkpt lat="45.19519" lon="5.99824">
        <ele>2340.5</ele>
        <time>2013-03-10T11:35:53Z</time>
      </trkpt>
      <trkpt lat="45.19532" lon="5.99816">
        <ele>2348.4</ele>
        <time>2013-03-10T11:37:15Z</time>
      </trkpt>
      <trkpt lat="45.19532" lon="5.99816">
        <ele>2348.7</ele>
        <time>2013-03-10T11:37:16Z</time>
      </trkpt>
      <trkpt lat="45.19536" lon="5.99806">
        <ele>2352.1</ele>
        <time>2013-03-10T11:37:58Z</time>
      </trkpt>
      <trkpt lat="45.19528" lon="5.998">
        <ele>2355</ele>
        <time>2013-03-10T11:38:09Z</time>
      </trkpt>
      <trkpt lat="45.1952" lon="5.99795">
        <ele>2357.5</ele>
        <time>2013-03-10T11:38:29Z</time>
      </trkpt>
      <trkpt lat="45.1952" lon="5.99795">
        <ele>2357.8</ele>
        <time>2013-03-10T11:38:30Z</time>
      </trkpt>
      <trkpt lat="45.1952" lon="5.99786">
        <ele>2365.8</ele>
        <time>2013-03-10T11:40:28Z</time>
      </trkpt>
      <trkpt lat="45.1952" lon="5.99786">
        <ele>2366.5</ele>
        <time>2013-03-10T11:40:29Z</time>
      </trkpt>
      <trkpt lat="45.19532" lon="5.99768">
        <ele>2370.1</ele>
        <time>2013-03-10T11:41:21Z</time>
      </trkpt>
      <trkpt lat="45.1954" lon="5.99772">
        <ele>2373</ele>
        <time>2013-03-10T11:42:08Z</time>
      </trkpt>
      <trkpt lat="45.19541" lon="5.99772">
        <ele>2373.1</ele>
        <time>2013-03-10T11:42:09Z</time>
      </trkpt>
      <trkpt lat="45.19548" lon="5.99766">
        <ele>2381.7</ele>
        <time>2013-03-10T11:43:14Z</time>
      </trkpt>
      <trkpt lat="45.19546" lon="5.99742">
        <ele>2389.7</ele>
        <time>2013-03-10T11:45:07Z</time>
      </trkpt>
      <trkpt lat="45.19546" lon="5.99741">
        <ele>2390</ele>
        <time>2013-03-10T11:45:08Z</time>
      </trkpt>
      <trkpt lat="45.19548" lon="5.99717">
        <ele>2395</ele>
        <time>2013-03-10T11:45:33Z</time>
      </trkpt>
      <trkpt lat="45.19554" lon="5.99708">
        <ele>2397.7</ele>
        <time>2013-03-10T11:45:56Z</time>
      </trkpt>
      <trkpt lat="45.19563" lon="5.99705">
        <ele>2402.1</ele>
        <time>2013-03-10T11:47:06Z</time>
      </trkpt>
      <trkpt lat="45.19563" lon="5.99705">
        <ele>2401.9</ele>
        <time>2013-03-10T11:47:07Z</time>
      </trkpt>
      <trkpt lat="45.19578" lon="5.99695">
        <ele>2408.7</ele>
        <time>2013-03-10T11:47:52Z</time>
      </trkpt>
      <trkpt lat="45.19578" lon="5.99682">
        <ele>2411.1</ele>
        <time>2013-03-10T11:48:52Z</time>
      </trkpt>
      <trkpt lat="45.19579" lon="5.99682">
        <ele>2411.6</ele>
        <time>2013-03-10T11:48:53Z</time>
      </trkpt>
      <trkpt lat="45.19594" lon="5.99673">
        <ele>2412.9</ele>
        <time>2013-03-10T11:49:30Z</time>
      </trkpt>
      <trkpt lat="45.19603" lon="5.99672">
        <ele>2424.8</ele>
        <time>2013-03-10T11:50:45Z</time>
      </trkpt>
      <trkpt lat="45.19603" lon="5.99672">
        <ele>2425.4</ele>
        <time>2013-03-10T11:50:46Z</time>
      </trkpt>
      <trkpt lat="45.19605" lon="5.99653">
        <ele>2429.8</ele>
        <time>2013-03-10T11:51:41Z</time>
      </trkpt>
      <trkpt lat="45.19599" lon="5.99644">
        <ele>2431.9</ele>
        <time>2013-03-10T11:52:01Z</time>
      </trkpt>
      <trkpt lat="45.19599" lon="5.99643">
        <ele>2432.1</ele>
        <time>2013-03-10T11:52:02Z</time>
      </trkpt>
      <trkpt lat="45.19586" lon="5.9963">
        <ele>2440.1</ele>
        <time>2013-03-10T11:52:53Z</time>
      </trkpt>
      <trkpt lat="45.19592" lon="5.99622">
        <ele>2440.1</ele>
        <time>2013-03-10T11:53:05Z</time>
      </trkpt>
      <trkpt lat="45.19593" lon="5.99621">
        <ele>2439.8</ele>
        <time>2013-03-10T11:53:06Z</time>
      </trkpt>
      <trkpt lat="45.19594" lon="5.99609">
        <ele>2442.8</ele>
        <time>2013-03-10T11:53:48Z</time>
      </trkpt>
      <trkpt lat="45.19586" lon="5.99608">
        <ele>2446</ele>
        <time>2013-03-10T11:53:56Z</time>
      </trkpt>
      <trkpt lat="45.19577" lon="5.99609">
        <ele>2448.3</ele>
        <time>2013-03-10T11:54:08Z</time>
      </trkpt>
      <trkpt lat="45.19577" lon="5.99609">
        <ele>2448.4</ele>
        <time>2013-03-10T11:54:09Z</time>
      </trkpt>
      <trkpt lat="45.19577" lon="5.99609">
        <ele>2449.2</ele>
        <time>2013-03-10T11:54:59Z</time>
      </trkpt>
      <trkpt lat="45.19569" lon="5.99609">
        <ele>2448.3</ele>
        <time>2013-03-10T11:55:11Z</time>
      </trkpt>
      <trkpt lat="45.19568" lon="5.99609">
        <ele>2448.8</ele>
        <time>2013-03-10T11:55:12Z</time>
      </trkpt>
      <trkpt lat="45.19586" lon="5.99608">
        <ele>2451.4</ele>
        <time>2013-03-10T11:55:53Z</time>
      </trkpt>
      <trkpt lat="45.19594" lon="5.99601">
        <ele>2455.1</ele>
        <time>2013-03-10T11:56:14Z</time>
      </trkpt>
      <trkpt lat="45.19595" lon="5.99601">
        <ele>2455.7</ele>
        <time>2013-03-10T11:56:15Z</time>
      </trkpt>
      <trkpt lat="45.19611" lon="5.99601">
        <ele>2455.4</ele>
        <time>2013-03-10T11:56:52Z</time>
      </trkpt>
      <trkpt lat="45.19616" lon="5.99591">
        <ele>2463.2</ele>
        <time>2013-03-10T11:57:24Z</time>
      </trkpt>
      <trkpt lat="45.19616" lon="5.9959">
        <ele>2463.7</ele>
        <time>2013-03-10T11:57:25Z</time>
      </trkpt>
      <trkpt lat="45.19611" lon="5.99574">
        <ele>2471.8</ele>
        <time>2013-03-10T11:58:43Z</time>
      </trkpt>
      <trkpt lat="45.19611" lon="5.99573">
        <ele>2472.4</ele>
        <time>2013-03-10T11:58:44Z</time>
      </trkpt>
      <trkpt lat="45.1961" lon="5.9955">
        <ele>2478</ele>
        <time>2013-03-10T11:59:29Z</time>
      </trkpt>
      <trkpt lat="45.19618" lon="5.99543">
        <ele>2480.8</ele>
        <time>2013-03-10T11:59:46Z</time>
      </trkpt>
      <trkpt lat="45.19619" lon="5.99542">
        <ele>2480.7</ele>
        <time>2013-03-10T11:59:47Z</time>
      </trkpt>
      <trkpt lat="45.1963" lon="5.99529">
        <ele>2484.8</ele>
        <time>2013-03-10T12:00:27Z</time>
      </trkpt>
      <trkpt lat="45.19638" lon="5.99525">
        <ele>2485.8</ele>
        <time>2013-03-10T12:00:55Z</time>
      </trkpt>
      <trkpt lat="45.19638" lon="5.99524">
        <ele>2485.8</ele>
        <time>2013-03-10T12:00:56Z</time>
      </trkpt>
      <trkpt lat="45.19622" lon="5.99516">
        <ele>2490</ele>
        <time>2013-03-10T12:01:15Z</time>
      </trkpt>
      <trkpt lat="45.19614" lon="5.99511">
        <ele>2491.2</ele>
        <time>2013-03-10T12:01:22Z</time>
      </trkpt>
      <trkpt lat="45.19606" lon="5.99508">
        <ele>2494.3</ele>
        <time>2013-03-10T12:01:31Z</time>
      </trkpt>
      <trkpt lat="45.19613" lon="5.99514">
        <ele>2495.9</ele>
        <time>2013-03-10T12:01:48Z</time>
      </trkpt>
      <trkpt lat="45.19605" lon="5.99516">
        <ele>2495.5</ele>
        <time>2013-03-10T12:01:58Z</time>
      </trkpt>
      <trkpt lat="45.19604" lon="5.99517">
        <ele>2495.6</ele>
        <time>2013-03-10T12:01:59Z</time>
      </trkpt>
      <trkpt lat="45.19605" lon="5.99509">
        <ele>2499.1</ele>
        <time>2013-03-10T12:02:44Z</time>
      </trkpt>
      <trkpt lat="45.19613" lon="5.99509">
        <ele>2502.9</ele>
        <time>2013-03-10T12:02:54Z</time>
      </trkpt>
      <trkpt lat="45.19622" lon="5.99511">
        <ele>2502.1</ele>
        <time>2013-03-10T12:03:07Z</time>
      </trkpt>
      <trkpt lat="45.19623" lon="5.99512">
        <ele>2502</ele>
        <time>2013-03-10T12:03:08Z</time>
      </trkpt>
      <trkpt lat="45.19631" lon="5.99503">
        <ele>2513</ele>
        <time>2013-03-10T12:03:58Z</time>
      </trkpt>
      <trkpt lat="45.19628" lon="5.99492">
        <ele>2519.9</ele>
        <time>2013-03-10T12:05:26Z</time>
      </trkpt>
      <trkpt lat="45.19628" lon="5.99491">
        <ele>2519.8</ele>
        <time>2013-03-10T12:05:27Z</time>
      </trkpt>
      <trkpt lat="45.19623" lon="5.99477">
        <ele>2524</ele>
        <time>2013-03-10T12:05:58Z</time>
      </trkpt>
      <trkpt lat="45.19631" lon="5.9947">
        <ele>2524.5</ele>
        <time>2013-03-10T12:06:13Z</time>
      </trkpt>
      <trkpt lat="45.19635" lon="5.9946">
        <ele>2527.4</ele>
        <time>2013-03-10T12:06:21Z</time>
      </trkpt>
      <trkpt lat="45.19629" lon="5.99469">
        <ele>2524.9</ele>
        <time>2013-03-10T12:06:37Z</time>
      </trkpt>
      <trkpt lat="45.19629" lon="5.99469">
        <ele>2524.7</ele>
        <time>2013-03-10T12:06:38Z</time>
      </trkpt>
      <trkpt lat="45.19641" lon="5.99485">
        <ele>2532.3</ele>
        <time>2013-03-10T12:07:44Z</time>
      </trkpt>
      <trkpt lat="45.19642" lon="5.99485">
        <ele>2533.1</ele>
        <time>2013-03-10T12:07:45Z</time>
      </trkpt>
      <trkpt lat="45.19648" lon="5.99475">
        <ele>2539</ele>
        <time>2013-03-10T12:09:08Z</time>
      </trkpt>
      <trkpt lat="45.19647" lon="5.99474">
        <ele>2539.3</ele>
        <time>2013-03-10T12:09:09Z</time>
      </trkpt>
      <trkpt lat="45.19631" lon="5.9947">
        <ele>2544</ele>
        <time>2013-03-10T12:10:05Z</time>
      </trkpt>
      <trkpt lat="45.19625" lon="5.9946">
        <ele>2548.3</ele>
        <time>2013-03-10T12:10:18Z</time>
      </trkpt>
      <trkpt lat="45.19625" lon="5.99459">
        <ele>2547.9</ele>
        <time>2013-03-10T12:10:19Z</time>
      </trkpt>
      <trkpt lat="45.19631" lon="5.9945">
        <ele>2553.8</ele>
        <time>2013-03-10T12:14:09Z</time>
      </trkpt>
      <trkpt lat="45.19623" lon="5.99456">
        <ele>2559.7</ele>
        <time>2013-03-10T12:19:13Z</time>
      </trkpt>
      <trkpt lat="45.19631" lon="5.99462">
        <ele>2567.8</ele>
        <time>2013-03-10T12:25:57Z</time>
      </trkpt>
      <trkpt lat="45.19629" lon="5.99461">
        <ele>2566</ele>
        <time>2013-03-10T12:28:10Z</time>
      </trkpt>
      <trkpt lat="45.19629" lon="5.99461">
        <ele>2565.8</ele>
        <time>2013-03-10T12:28:11Z</time>
      </trkpt>
      <trkpt lat="45.19621" lon="5.99458">
        <ele>2566.8</ele>
        <time>2013-03-10T12:30:41Z</time>
      </trkpt>
      <trkpt lat="45.19628" lon="5.99476">
        <ele>2563.8</ele>
        <time>2013-03-10T12:31:29Z</time>
      </trkpt>
      <trkpt lat="45.19633" lon="5.99481">
        <ele>2563</ele>
        <time>2013-03-10T12:31:30Z</time>
      </trkpt>
      <trkpt lat="45.19638" lon="5.99488">
        <ele>2561.7</ele>
        <time>2013-03-10T12:31:31Z</time>
      </trkpt>
      <trkpt lat="45.19641" lon="5.99495">
        <ele>2560.6</ele>
        <time>2013-03-10T12:31:32Z</time>
      </trkpt>
      <trkpt lat="45.19644" lon="5.99505">
        <ele>2558.6</ele>
        <time>2013-03-10T12:31:34Z</time>
      </trkpt>
      <trkpt lat="45.1964" lon="5.99515">
        <ele>2555</ele>
        <time>2013-03-10T12:31:38Z</time>
      </trkpt>
      <trkpt lat="45.19635" lon="5.99523">
        <ele>2550.1</ele>
        <time>2013-03-10T12:31:42Z</time>
      </trkpt>
      <trkpt lat="45.19634" lon="5.99525">
        <ele>2548.8</ele>
        <time>2013-03-10T12:31:43Z</time>
      </trkpt>
      <trkpt lat="45.19623" lon="5.99538">
        <ele>2536.4</ele>
        <time>2013-03-10T12:31:53Z</time>
      </trkpt>
      <trkpt lat="45.19616" lon="5.99541">
        <ele>2532.2</ele>
        <time>2013-03-10T12:31:56Z</time>
      </trkpt>
      <trkpt lat="45.19613" lon="5.99551">
        <ele>2528.5</ele>
        <time>2013-03-10T12:31:58Z</time>
      </trkpt>
      <trkpt lat="45.19608" lon="5.99541">
        <ele>2518.3</ele>
        <time>2013-03-10T12:32:21Z</time>
      </trkpt>
      <trkpt lat="45.19606" lon="5.99529">
        <ele>2518</ele>
        <time>2013-03-10T12:32:50Z</time>
      </trkpt>
      <trkpt lat="45.19606" lon="5.99529">
        <ele>2518.1</ele>
        <time>2013-03-10T12:32:51Z</time>
      </trkpt>
      <trkpt lat="45.19598" lon="5.99534">
        <ele>2518.2</ele>
        <time>2013-03-10T12:33:54Z</time>
      </trkpt>
      <trkpt lat="45.19583" lon="5.99523">
        <ele>2517.7</ele>
        <time>2013-03-10T12:34:14Z</time>
      </trkpt>
      <trkpt lat="45.19575" lon="5.99519">
        <ele>2517.8</ele>
        <time>2013-03-10T12:34:24Z</time>
      </trkpt>
      <trkpt lat="45.19581" lon="5.99528">
        <ele>2517.8</ele>
        <time>2013-03-10T12:35:08Z</time>
      </trkpt>
      <trkpt lat="45.19582" lon="5.99528">
        <ele>2518.1</ele>
        <time>2013-03-10T12:35:09Z</time>
      </trkpt>
      <trkpt lat="45.19585" lon="5.99545">
        <ele>2515.7</ele>
        <time>2013-03-10T12:35:27Z</time>
      </trkpt>
      <trkpt lat="45.19586" lon="5.99555">
        <ele>2514.1</ele>
        <time>2013-03-10T12:35:29Z</time>
      </trkpt>
      <trkpt lat="45.19587" lon="5.99565">
        <ele>2512.3</ele>
        <time>2013-03-10T12:35:31Z</time>
      </trkpt>
      <trkpt lat="45.19586" lon="5.99574">
        <ele>2509.1</ele>
        <time>2013-03-10T12:35:33Z</time>
      </trkpt>
      <trkpt lat="45.19584" lon="5.99586">
        <ele>2504.9</ele>
        <time>2013-03-10T12:35:36Z</time>
      </trkpt>
      <trkpt lat="45.19581" lon="5.99597">
        <ele>2501</ele>
        <time>2013-03-10T12:35:39Z</time>
      </trkpt>
      <trkpt lat="45.19581" lon="5.99609">
        <ele>2496.2</ele>
        <time>2013-03-10T12:35:42Z</time>
      </trkpt>
      <trkpt lat="45.19574" lon="5.99615">
        <ele>2489.1</ele>
        <time>2013-03-10T12:35:47Z</time>
      </trkpt>
      <trkpt lat="45.19582" lon="5.99617">
        <ele>2484.4</ele>
        <time>2013-03-10T12:36:20Z</time>
      </trkpt>
      <trkpt lat="45.19584" lon="5.99618">
        <ele>2484.5</ele>
        <time>2013-03-10T12:36:21Z</time>
      </trkpt>
      <trkpt lat="45.19593" lon="5.99632">
        <ele>2482.4</ele>
        <time>2013-03-10T12:36:25Z</time>
      </trkpt>
      <trkpt lat="45.19591" lon="5.99643">
        <ele>2478.8</ele>
        <time>2013-03-10T12:36:29Z</time>
      </trkpt>
      <trkpt lat="45.19589" lon="5.9965">
        <ele>2475.4</ele>
        <time>2013-03-10T12:36:32Z</time>
      </trkpt>
      <trkpt lat="45.19586" lon="5.9966">
        <ele>2471.5</ele>
        <time>2013-03-10T12:36:35Z</time>
      </trkpt>
      <trkpt lat="45.19584" lon="5.99672">
        <ele>2467.6</ele>
        <time>2013-03-10T12:36:39Z</time>
      </trkpt>
      <trkpt lat="45.19578" lon="5.99681">
        <ele>2461.5</ele>
        <time>2013-03-10T12:36:43Z</time>
      </trkpt>
      <trkpt lat="45.19575" lon="5.99691">
        <ele>2457.2</ele>
        <time>2013-03-10T12:36:46Z</time>
      </trkpt>
      <trkpt lat="45.19571" lon="5.99701">
        <ele>2452.8</ele>
        <time>2013-03-10T12:36:49Z</time>
      </trkpt>
      <trkpt lat="45.19566" lon="5.99709">
        <ele>2448.9</ele>
        <time>2013-03-10T12:36:52Z</time>
      </trkpt>
      <trkpt lat="45.19561" lon="5.99713">
        <ele>2446</ele>
        <time>2013-03-10T12:36:55Z</time>
      </trkpt>
      <trkpt lat="45.19554" lon="5.99712">
        <ele>2443.6</ele>
        <time>2013-03-10T12:36:57Z</time>
      </trkpt>
      <trkpt lat="45.19547" lon="5.99718">
        <ele>2440.8</ele>
        <time>2013-03-10T12:36:59Z</time>
      </trkpt>
      <trkpt lat="45.19544" lon="5.99725">
        <ele>2438.8</ele>
        <time>2013-03-10T12:37:01Z</time>
      </trkpt>
      <trkpt lat="45.19536" lon="5.99723">
        <ele>2433.5</ele>
        <time>2013-03-10T12:37:08Z</time>
      </trkpt>
      <trkpt lat="45.1953" lon="5.99714">
        <ele>2431.2</ele>
        <time>2013-03-10T12:37:16Z</time>
      </trkpt>
      <trkpt lat="45.19523" lon="5.99706">
        <ele>2432.3</ele>
        <time>2013-03-10T12:37:23Z</time>
      </trkpt>
      <trkpt lat="45.19522" lon="5.99705">
        <ele>2432.4</ele>
        <time>2013-03-10T12:37:24Z</time>
      </trkpt>
      <trkpt lat="45.19509" lon="5.99694">
        <ele>2431.4</ele>
        <time>2013-03-10T12:38:27Z</time>
      </trkpt>
      <trkpt lat="45.19508" lon="5.99694">
        <ele>2431.2</ele>
        <time>2013-03-10T12:38:28Z</time>
      </trkpt>
      <trkpt lat="45.19522" lon="5.99706">
        <ele>2431.8</ele>
        <time>2013-03-10T12:39:20Z</time>
      </trkpt>
      <trkpt lat="45.19518" lon="5.99715">
        <ele>2429.9</ele>
        <time>2013-03-10T12:39:25Z</time>
      </trkpt>
      <trkpt lat="45.19518" lon="5.99724">
        <ele>2428.2</ele>
        <time>2013-03-10T12:39:28Z</time>
      </trkpt>
      <trkpt lat="45.1952" lon="5.99736">
        <ele>2425</ele>
        <time>2013-03-10T12:39:31Z</time>
      </trkpt>
      <trkpt lat="45.1952" lon="5.99739">
        <ele>2424.3</ele>
        <time>2013-03-10T12:39:32Z</time>
      </trkpt>
      <trkpt lat="45.19516" lon="5.99758">
        <ele>2417</ele>
        <time>2013-03-10T12:39:39Z</time>
      </trkpt>
      <trkpt lat="45.19509" lon="5.99762">
        <ele>2413.3</ele>
        <time>2013-03-10T12:39:43Z</time>
      </trkpt>
      <trkpt lat="45.19507" lon="5.99774">
        <ele>2410.4</ele>
        <time>2013-03-10T12:39:47Z</time>
      </trkpt>
      <trkpt lat="45.19509" lon="5.99784">
        <ele>2407</ele>
        <time>2013-03-10T12:39:50Z</time>
      </trkpt>
      <trkpt lat="45.19505" lon="5.99794">
        <ele>2402.3</ele>
        <time>2013-03-10T12:39:54Z</time>
      </trkpt>
      <trkpt lat="45.19512" lon="5.99802">
        <ele>2398.4</ele>
        <time>2013-03-10T12:39:58Z</time>
      </trkpt>
      <trkpt lat="45.1952" lon="5.99803">
        <ele>2395.2</ele>
        <time>2013-03-10T12:40:01Z</time>
      </trkpt>
      <trkpt lat="45.19527" lon="5.99797">
        <ele>2393.3</ele>
        <time>2013-03-10T12:40:04Z</time>
      </trkpt>
      <trkpt lat="45.1953" lon="5.99809">
        <ele>2392.7</ele>
        <time>2013-03-10T12:40:23Z</time>
      </trkpt>
      <trkpt lat="45.19524" lon="5.99818">
        <ele>2391.8</ele>
        <time>2013-03-10T12:41:07Z</time>
      </trkpt>
      <trkpt lat="45.19523" lon="5.99818">
        <ele>2392.2</ele>
        <time>2013-03-10T12:41:08Z</time>
      </trkpt>
      <trkpt lat="45.19516" lon="5.99836">
        <ele>2391.1</ele>
        <time>2013-03-10T12:41:14Z</time>
      </trkpt>
      <trkpt lat="45.19516" lon="5.99846">
        <ele>2390.4</ele>
        <time>2013-03-10T12:41:16Z</time>
      </trkpt>
      <trkpt lat="45.19514" lon="5.99856">
        <ele>2388.5</ele>
        <time>2013-03-10T12:41:18Z</time>
      </trkpt>
      <trkpt lat="45.19516" lon="5.99864">
        <ele>2385.5</ele>
        <time>2013-03-10T12:41:20Z</time>
      </trkpt>
      <trkpt lat="45.19514" lon="5.99874">
        <ele>2381.7</ele>
        <time>2013-03-10T12:41:22Z</time>
      </trkpt>
      <trkpt lat="45.19513" lon="5.99884">
        <ele>2376.3</ele>
        <time>2013-03-10T12:41:25Z</time>
      </trkpt>
      <trkpt lat="45.19512" lon="5.99896">
        <ele>2370.6</ele>
        <time>2013-03-10T12:41:29Z</time>
      </trkpt>
      <trkpt lat="45.19512" lon="5.99908">
        <ele>2366.8</ele>
        <time>2013-03-10T12:41:32Z</time>
      </trkpt>
      <trkpt lat="45.19511" lon="5.99918">
        <ele>2363.3</ele>
        <time>2013-03-10T12:41:35Z</time>
      </trkpt>
      <trkpt lat="45.19508" lon="5.99928">
        <ele>2358.3</ele>
        <time>2013-03-10T12:41:38Z</time>
      </trkpt>
      <trkpt lat="45.19508" lon="5.9994">
        <ele>2354.7</ele>
        <time>2013-03-10T12:41:41Z</time>
      </trkpt>
      <trkpt lat="45.19506" lon="5.99951">
        <ele>2351.8</ele>
        <time>2013-03-10T12:41:43Z</time>
      </trkpt>
      <trkpt lat="45.19506" lon="5.99964">
        <ele>2347.6</ele>
        <time>2013-03-10T12:41:46Z</time>
      </trkpt>
      <trkpt lat="45.19505" lon="5.99974">
        <ele>2342.2</ele>
        <time>2013-03-10T12:41:49Z</time>
      </trkpt>
      <trkpt lat="45.19502" lon="5.99987">
        <ele>2337.1</ele>
        <time>2013-03-10T12:41:52Z</time>
      </trkpt>
      <trkpt lat="45.19499" lon="5.99996">
        <ele>2326.2</ele>
        <time>2013-03-10T12:44:13Z</time>
      </trkpt>
      <trkpt lat="45.19497" lon="6">
        <ele>2325.6</ele>
        <time>2013-03-10T12:44:14Z</time>
      </trkpt>
      <trkpt lat="45.19496" lon="6.0002">
        <ele>2321.7</ele>
        <time>2013-03-10T12:44:17Z</time>
      </trkpt>
      <trkpt lat="45.19497" lon="6.00031">
        <ele>2319.8</ele>
        <time>2013-03-10T12:44:19Z</time>
      </trkpt>
      <trkpt lat="45.19498" lon="6.00042">
        <ele>2317.6</ele>
        <time>2013-03-10T12:44:21Z</time>
      </trkpt>
      <trkpt lat="45.195" lon="6.00053">
        <ele>2314.6</ele>
        <time>2013-03-10T12:44:23Z</time>
      </trkpt>
      <trkpt lat="45.19499" lon="6.00066">
        <ele>2311.9</ele>
        <time>2013-03-10T12:44:25Z</time>
      </trkpt>
      <trkpt lat="45.19497" lon="6.00076">
        <ele>2310.4</ele>
        <time>2013-03-10T12:44:27Z</time>
      </trkpt>
      <trkpt lat="45.19489" lon="6.00081">
        <ele>2307.6</ele>
        <time>2013-03-10T12:44:30Z</time>
      </trkpt>
      <trkpt lat="45.1948" lon="6.00083">
        <ele>2301.8</ele>
        <time>2013-03-10T12:44:44Z</time>
      </trkpt>
      <trkpt lat="45.19471" lon="6.00083">
        <ele>2302.7</ele>
        <time>2013-03-10T12:44:56Z</time>
      </trkpt>
      <trkpt lat="45.1947" lon="6.00092">
        <ele>2302.3</ele>
        <time>2013-03-10T12:44:58Z</time>
      </trkpt>
      <trkpt lat="45.19471" lon="6.00104">
        <ele>2299.7</ele>
        <time>2013-03-10T12:45:01Z</time>
      </trkpt>
      <trkpt lat="45.19471" lon="6.00114">
        <ele>2297.9</ele>
        <time>2013-03-10T12:45:03Z</time>
      </trkpt>
      <trkpt lat="45.19473" lon="6.00123">
        <ele>2295.5</ele>
        <time>2013-03-10T12:45:05Z</time>
      </trkpt>
      <trkpt lat="45.19473" lon="6.00132">
        <ele>2292.2</ele>
        <time>2013-03-10T12:45:07Z</time>
      </trkpt>
      <trkpt lat="45.19474" lon="6.00142">
        <ele>2289.6</ele>
        <time>2013-03-10T12:45:09Z</time>
      </trkpt>
      <trkpt lat="45.19478" lon="6.00152">
        <ele>2286.4</ele>
        <time>2013-03-10T12:45:11Z</time>
      </trkpt>
      <trkpt lat="45.19477" lon="6.00162">
        <ele>2281.4</ele>
        <time>2013-03-10T12:45:14Z</time>
      </trkpt>
      <trkpt lat="45.19477" lon="6.00171">
        <ele>2278.6</ele>
        <time>2013-03-10T12:45:16Z</time>
      </trkpt>
      <trkpt lat="45.19479" lon="6.00177">
        <ele>2277</ele>
        <time>2013-03-10T12:45:17Z</time>
      </trkpt>
      <trkpt lat="45.19477" lon="6.00195">
        <ele>2269.9</ele>
        <time>2013-03-10T12:45:22Z</time>
      </trkpt>
      <trkpt lat="45.19478" lon="6.00205">
        <ele>2266.3</ele>
        <time>2013-03-10T12:45:24Z</time>
      </trkpt>
      <trkpt lat="45.19479" lon="6.00215">
        <ele>2262.5</ele>
        <time>2013-03-10T12:45:26Z</time>
      </trkpt>
      <trkpt lat="45.19478" lon="6.00224">
        <ele>2259.8</ele>
        <time>2013-03-10T12:45:28Z</time>
      </trkpt>
      <trkpt lat="45.19479" lon="6.00232">
        <ele>2256.5</ele>
        <time>2013-03-10T12:45:30Z</time>
      </trkpt>
      <trkpt lat="45.1948" lon="6.00245">
        <ele>2246</ele>
        <time>2013-03-10T12:45:39Z</time>
      </trkpt>
      <trkpt lat="45.19489" lon="6.00246">
        <ele>2244.7</ele>
        <time>2013-03-10T12:45:50Z</time>
      </trkpt>
      <trkpt lat="45.19485" lon="6.00235">
        <ele>2244.8</ele>
        <time>2013-03-10T12:46:33Z</time>
      </trkpt>
      <trkpt lat="45.19485" lon="6.00235">
        <ele>2244.9</ele>
        <time>2013-03-10T12:46:34Z</time>
      </trkpt>
      <trkpt lat="45.19488" lon="6.00253">
        <ele>2244.6</ele>
        <time>2013-03-10T12:46:52Z</time>
      </trkpt>
      <trkpt lat="45.19486" lon="6.00261">
        <ele>2243.3</ele>
        <time>2013-03-10T12:46:54Z</time>
      </trkpt>
      <trkpt lat="45.19485" lon="6.00272">
        <ele>2242.2</ele>
        <time>2013-03-10T12:46:56Z</time>
      </trkpt>
      <trkpt lat="45.19482" lon="6.00283">
        <ele>2238.7</ele>
        <time>2013-03-10T12:46:58Z</time>
      </trkpt>
      <trkpt lat="45.19482" lon="6.00293">
        <ele>2235.4</ele>
        <time>2013-03-10T12:47:00Z</time>
      </trkpt>
      <trkpt lat="45.19482" lon="6.003">
        <ele>2233.5</ele>
        <time>2013-03-10T12:47:01Z</time>
      </trkpt>
      <trkpt lat="45.19481" lon="6.00312">
        <ele>2231</ele>
        <time>2013-03-10T12:47:03Z</time>
      </trkpt>
      <trkpt lat="45.19481" lon="6.00323">
        <ele>2228.1</ele>
        <time>2013-03-10T12:47:05Z</time>
      </trkpt>
      <trkpt lat="45.1948" lon="6.00329">
        <ele>2226.4</ele>
        <time>2013-03-10T12:47:06Z</time>
      </trkpt>
      <trkpt lat="45.19481" lon="6.00336">
        <ele>2225</ele>
        <time>2013-03-10T12:47:07Z</time>
      </trkpt>
      <trkpt lat="45.1948" lon="6.00349">
        <ele>2222.3</ele>
        <time>2013-03-10T12:47:09Z</time>
      </trkpt>
      <trkpt lat="45.1948" lon="6.00355">
        <ele>2221.4</ele>
        <time>2013-03-10T12:47:10Z</time>
      </trkpt>
      <trkpt lat="45.19478" lon="6.00367">
        <ele>2218.3</ele>
        <time>2013-03-10T12:47:12Z</time>
      </trkpt>
      <trkpt lat="45.19474" lon="6.00375">
        <ele>2216.1</ele>
        <time>2013-03-10T12:47:14Z</time>
      </trkpt>
      <trkpt lat="45.1947" lon="6.0038">
        <ele>2214.1</ele>
        <time>2013-03-10T12:47:15Z</time>
      </trkpt>
      <trkpt lat="45.19467" lon="6.00385">
        <ele>2212.6</ele>
        <time>2013-03-10T12:47:16Z</time>
      </trkpt>
      <trkpt lat="45.19464" lon="6.0039">
        <ele>2211.4</ele>
        <time>2013-03-10T12:47:17Z</time>
      </trkpt>
      <trkpt lat="45.19461" lon="6.00396">
        <ele>2210.5</ele>
        <time>2013-03-10T12:47:18Z</time>
      </trkpt>
      <trkpt lat="45.19456" lon="6.00404">
        <ele>2209</ele>
        <time>2013-03-10T12:47:20Z</time>
      </trkpt>
      <trkpt lat="45.19452" lon="6.00412">
        <ele>2207.9</ele>
        <time>2013-03-10T12:47:22Z</time>
      </trkpt>
      <trkpt lat="45.19445" lon="6.0042">
        <ele>2205.5</ele>
        <time>2013-03-10T12:47:26Z</time>
      </trkpt>
      <trkpt lat="45.1944" lon="6.00427">
        <ele>2204.1</ele>
        <time>2013-03-10T12:47:29Z</time>
      </trkpt>
      <trkpt lat="45.19439" lon="6.00436">
        <ele>2203.5</ele>
        <time>2013-03-10T12:47:31Z</time>
      </trkpt>
      <trkpt lat="45.19443" lon="6.00443">
        <ele>2201.4</ele>
        <time>2013-03-10T12:47:33Z</time>
      </trkpt>
      <trkpt lat="45.19444" lon="6.00453">
        <ele>2199.1</ele>
        <time>2013-03-10T12:47:35Z</time>
      </trkpt>
      <trkpt lat="45.19444" lon="6.00458">
        <ele>2198.3</ele>
        <time>2013-03-10T12:47:36Z</time>
      </trkpt>
      <trkpt lat="45.19442" lon="6.00473">
        <ele>2192.7</ele>
        <time>2013-03-10T12:47:39Z</time>
      </trkpt>
      <trkpt lat="45.19439" lon="6.00481">
        <ele>2189.4</ele>
        <time>2013-03-10T12:47:41Z</time>
      </trkpt>
      <trkpt lat="45.19436" lon="6.00491">
        <ele>2185.7</ele>
        <time>2013-03-10T12:47:43Z</time>
      </trkpt>
      <trkpt lat="45.19432" lon="6.005">
        <ele>2182.2</ele>
        <time>2013-03-10T12:47:45Z</time>
      </trkpt>
      <trkpt lat="45.19431" lon="6.00507">
        <ele>2179.7</ele>
        <time>2013-03-10T12:47:46Z</time>
      </trkpt>
      <trkpt lat="45.19429" lon="6.00512">
        <ele>2177.9</ele>
        <time>2013-03-10T12:47:47Z</time>
      </trkpt>
      <trkpt lat="45.19426" lon="6.00518">
        <ele>2176.4</ele>
        <time>2013-03-10T12:47:48Z</time>
      </trkpt>
      <trkpt lat="45.19426" lon="6.0053">
        <ele>2172.8</ele>
        <time>2013-03-10T12:47:50Z</time>
      </trkpt>
      <trkpt lat="45.19433" lon="6.00539">
        <ele>2164.5</ele>
        <time>2013-03-10T12:49:38Z</time>
      </trkpt>
      <trkpt lat="45.19433" lon="6.00539">
        <ele>2164.3</ele>
        <time>2013-03-10T12:49:39Z</time>
      </trkpt>
      <trkpt lat="45.19424" lon="6.00538">
        <ele>2164.5</ele>
        <time>2013-03-10T13:05:15Z</time>
      </trkpt>
      <trkpt lat="45.19439" lon="6.00553">
        <ele>2165.2</ele>
        <time>2013-03-10T13:07:15Z</time>
      </trkpt>
      <trkpt lat="45.19439" lon="6.00553">
        <ele>2165.4</ele>
        <time>2013-03-10T13:07:16Z</time>
      </trkpt>
      <trkpt lat="45.19446" lon="6.00571">
        <ele>2164.2</ele>
        <time>2013-03-10T13:08:12Z</time>
      </trkpt>
      <trkpt lat="45.1945" lon="6.0058">
        <ele>2164.7</ele>
        <time>2013-03-10T13:08:16Z</time>
      </trkpt>
      <trkpt lat="45.19454" lon="6.0057">
        <ele>2165.9</ele>
        <time>2013-03-10T13:08:36Z</time>
      </trkpt>
      <trkpt lat="45.19454" lon="6.00569">
        <ele>2165.5</ele>
        <time>2013-03-10T13:08:37Z</time>
      </trkpt>
      <trkpt lat="45.19444" lon="6.0056">
        <ele>2165.2</ele>
        <time>2013-03-10T13:09:17Z</time>
      </trkpt>
      <trkpt lat="45.19439" lon="6.00549">
        <ele>2165.6</ele>
        <time>2013-03-10T13:09:40Z</time>
      </trkpt>
      <trkpt lat="45.19439" lon="6.00548">
        <ele>2165.4</ele>
        <time>2013-03-10T13:09:41Z</time>
      </trkpt>
      <trkpt lat="45.19441" lon="6.00548">
        <ele>2165.9</ele>
        <time>2013-03-10T13:10:56Z</time>
      </trkpt>
      <trkpt lat="45.19441" lon="6.00549">
        <ele>2165.9</ele>
        <time>2013-03-10T13:10:57Z</time>
      </trkpt>
      <trkpt lat="45.19438" lon="6.00552">
        <ele>2165</ele>
        <time>2013-03-10T13:11:26Z</time>
      </trkpt>
      <trkpt lat="45.1943" lon="6.00551">
        <ele>2165.5</ele>
        <time>2013-03-10T13:11:43Z</time>
      </trkpt>
      <trkpt lat="45.19428" lon="6.00562">
        <ele>2165.4</ele>
        <time>2013-03-10T13:11:56Z</time>
      </trkpt>
      <trkpt lat="45.19428" lon="6.00574">
        <ele>2165.7</ele>
        <time>2013-03-10T13:12:04Z</time>
      </trkpt>
      <trkpt lat="45.19428" lon="6.00575">
        <ele>2165.8</ele>
        <time>2013-03-10T13:12:05Z</time>
      </trkpt>
      <trkpt lat="45.19446" lon="6.00566">
        <ele>2165.7</ele>
        <time>2013-03-10T13:12:29Z</time>
      </trkpt>
      <trkpt lat="45.19454" lon="6.00565">
        <ele>2164.7</ele>
        <time>2013-03-10T13:12:41Z</time>
      </trkpt>
      <trkpt lat="45.19448" lon="6.00581">
        <ele>2165</ele>
        <time>2013-03-10T13:13:08Z</time>
      </trkpt>
      <trkpt lat="45.19445" lon="6.00584">
        <ele>2165.7</ele>
        <time>2013-03-10T13:13:10Z</time>
      </trkpt>
      <trkpt lat="45.19435" lon="6.00596">
        <ele>2165.1</ele>
        <time>2013-03-10T13:13:18Z</time>
      </trkpt>
      <trkpt lat="45.19428" lon="6.00604">
        <ele>2165.2</ele>
        <time>2013-03-10T13:13:25Z</time>
      </trkpt>
      <trkpt lat="45.1943" lon="6.00593">
        <ele>2165.6</ele>
        <time>2013-03-10T13:13:35Z</time>
      </trkpt>
      <trkpt lat="45.19436" lon="6.00584">
        <ele>2164.9</ele>
        <time>2013-03-10T13:13:40Z</time>
      </trkpt>
      <trkpt lat="45.19446" lon="6.00577">
        <ele>2165.6</ele>
        <time>2013-03-10T13:13:45Z</time>
      </trkpt>
      <trkpt lat="45.19452" lon="6.0057">
        <ele>2166.1</ele>
        <time>2013-03-10T13:14:13Z</time>
      </trkpt>
      <trkpt lat="45.19454" lon="6.0057">
        <ele>2165.7</ele>
        <time>2013-03-10T13:14:14Z</time>
      </trkpt>
      <trkpt lat="45.19457" lon="6.00558">
        <ele>2166.8</ele>
        <time>2013-03-10T13:15:01Z</time>
      </trkpt>
      <trkpt lat="45.1945" lon="6.00566">
        <ele>2167.4</ele>
        <time>2013-03-10T13:15:24Z</time>
      </trkpt>
      <trkpt lat="45.19449" lon="6.00565">
        <ele>2166.9</ele>
        <time>2013-03-10T13:15:25Z</time>
      </trkpt>
      <trkpt lat="45.19449" lon="6.00552">
        <ele>2165.3</ele>
        <time>2013-03-10T13:15:54Z</time>
      </trkpt>
      <trkpt lat="45.19444" lon="6.00562">
        <ele>2166.3</ele>
        <time>2013-03-10T13:18:23Z</time>
      </trkpt>
      <trkpt lat="45.19444" lon="6.00564">
        <ele>2166</ele>
        <time>2013-03-10T13:18:24Z</time>
      </trkpt>
      <trkpt lat="45.19442" lon="6.00577">
        <ele>2166</ele>
        <time>2013-03-10T13:18:27Z</time>
      </trkpt>
      <trkpt lat="45.19441" lon="6.00587">
        <ele>2164.9</ele>
        <time>2013-03-10T13:18:28Z</time>
      </trkpt>
      <trkpt lat="45.19441" lon="6.00597">
        <ele>2164</ele>
        <time>2013-03-10T13:18:29Z</time>
      </trkpt>
      <trkpt lat="45.19442" lon="6.00606">
        <ele>2163.2</ele>
        <time>2013-03-10T13:18:30Z</time>
      </trkpt>
      <trkpt lat="45.19443" lon="6.00614">
        <ele>2162.6</ele>
        <time>2013-03-10T13:18:31Z</time>
      </trkpt>
      <trkpt lat="45.19445" lon="6.00622">
        <ele>2162.1</ele>
        <time>2013-03-10T13:18:32Z</time>
      </trkpt>
      <trkpt lat="45.19447" lon="6.00629">
        <ele>2160.8</ele>
        <time>2013-03-10T13:18:33Z</time>
      </trkpt>
      <trkpt lat="45.1945" lon="6.0064">
        <ele>2159</ele>
        <time>2013-03-10T13:18:35Z</time>
      </trkpt>
      <trkpt lat="45.19453" lon="6.00648">
        <ele>2157.9</ele>
        <time>2013-03-10T13:18:37Z</time>
      </trkpt>
      <trkpt lat="45.19455" lon="6.00657">
        <ele>2157.6</ele>
        <time>2013-03-10T13:18:39Z</time>
      </trkpt>
      <trkpt lat="45.1945" lon="6.00667">
        <ele>2151.7</ele>
        <time>2013-03-10T13:18:53Z</time>
      </trkpt>
      <trkpt lat="45.19446" lon="6.00676">
        <ele>2151.3</ele>
        <time>2013-03-10T13:18:56Z</time>
      </trkpt>
      <trkpt lat="45.1945" lon="6.00683">
        <ele>2150.9</ele>
        <time>2013-03-10T13:18:59Z</time>
      </trkpt>
      <trkpt lat="45.19455" lon="6.00691">
        <ele>2149.9</ele>
        <time>2013-03-10T13:19:01Z</time>
      </trkpt>
      <trkpt lat="45.19458" lon="6.00697">
        <ele>2149.2</ele>
        <time>2013-03-10T13:19:02Z</time>
      </trkpt>
      <trkpt lat="45.19463" lon="6.00708">
        <ele>2147.6</ele>
        <time>2013-03-10T13:19:04Z</time>
      </trkpt>
      <trkpt lat="45.19465" lon="6.00718">
        <ele>2146.7</ele>
        <time>2013-03-10T13:19:06Z</time>
      </trkpt>
      <trkpt lat="45.19468" lon="6.0073">
        <ele>2145.5</ele>
        <time>2013-03-10T13:19:08Z</time>
      </trkpt>
      <trkpt lat="45.1947" lon="6.0074">
        <ele>2144.3</ele>
        <time>2013-03-10T13:19:10Z</time>
      </trkpt>
      <trkpt lat="45.19467" lon="6.0075">
        <ele>2138.7</ele>
        <time>2013-03-10T13:19:33Z</time>
      </trkpt>
      <trkpt lat="45.19467" lon="6.00755">
        <ele>2138.5</ele>
        <time>2013-03-10T13:19:34Z</time>
      </trkpt>
      <trkpt lat="45.19457" lon="6.00766">
        <ele>2132.1</ele>
        <time>2013-03-10T13:19:39Z</time>
      </trkpt>
      <trkpt lat="45.19454" lon="6.00774">
        <ele>2127.8</ele>
        <time>2013-03-10T13:19:42Z</time>
      </trkpt>
      <trkpt lat="45.19455" lon="6.00787">
        <ele>2123.8</ele>
        <time>2013-03-10T13:19:45Z</time>
      </trkpt>
      <trkpt lat="45.19456" lon="6.00799">
        <ele>2120.4</ele>
        <time>2013-03-10T13:19:48Z</time>
      </trkpt>
      <trkpt lat="45.19448" lon="6.00803">
        <ele>2110.6</ele>
        <time>2013-03-10T13:20:34Z</time>
      </trkpt>
      <trkpt lat="45.19458" lon="6.00808">
        <ele>2108</ele>
        <time>2013-03-10T13:21:04Z</time>
      </trkpt>
      <trkpt lat="45.19457" lon="6.00813">
        <ele>2108.5</ele>
        <time>2013-03-10T13:21:06Z</time>
      </trkpt>
      <trkpt lat="45.19457" lon="6.00828">
        <ele>2106</ele>
        <time>2013-03-10T13:21:09Z</time>
      </trkpt>
      <trkpt lat="45.19455" lon="6.0084">
        <ele>2102.6</ele>
        <time>2013-03-10T13:21:12Z</time>
      </trkpt>
      <trkpt lat="45.19454" lon="6.00852">
        <ele>2098.3</ele>
        <time>2013-03-10T13:21:15Z</time>
      </trkpt>
      <trkpt lat="45.19452" lon="6.00864">
        <ele>2093.5</ele>
        <time>2013-03-10T13:21:18Z</time>
      </trkpt>
      <trkpt lat="45.19452" lon="6.00875">
        <ele>2088.1</ele>
        <time>2013-03-10T13:21:21Z</time>
      </trkpt>
      <trkpt lat="45.19451" lon="6.00894">
        <ele>2077.4</ele>
        <time>2013-03-10T13:21:26Z</time>
      </trkpt>
      <trkpt lat="45.19455" lon="6.00909">
        <ele>2069</ele>
        <time>2013-03-10T13:21:30Z</time>
      </trkpt>
      <trkpt lat="45.19457" lon="6.00919">
        <ele>2064.3</ele>
        <time>2013-03-10T13:21:33Z</time>
      </trkpt>
      <trkpt lat="45.19461" lon="6.0093">
        <ele>2061.6</ele>
        <time>2013-03-10T13:21:35Z</time>
      </trkpt>
      <trkpt lat="45.19463" lon="6.00935">
        <ele>2059.4</ele>
        <time>2013-03-10T13:21:36Z</time>
      </trkpt>
      <trkpt lat="45.19463" lon="6.00942">
        <ele>2057.7</ele>
        <time>2013-03-10T13:21:37Z</time>
      </trkpt>
      <trkpt lat="45.19465" lon="6.00949">
        <ele>2056.3</ele>
        <time>2013-03-10T13:21:38Z</time>
      </trkpt>
      <trkpt lat="45.19466" lon="6.0096">
        <ele>2053.6</ele>
        <time>2013-03-10T13:21:40Z</time>
      </trkpt>
      <trkpt lat="45.1947" lon="6.00971">
        <ele>2051.4</ele>
        <time>2013-03-10T13:21:42Z</time>
      </trkpt>
      <trkpt lat="45.19469" lon="6.00978">
        <ele>2049.9</ele>
        <time>2013-03-10T13:21:43Z</time>
      </trkpt>
      <trkpt lat="45.19468" lon="6.00985">
        <ele>2048.8</ele>
        <time>2013-03-10T13:21:44Z</time>
      </trkpt>
      <trkpt lat="45.19471" lon="6.00996">
        <ele>2045.8</ele>
        <time>2013-03-10T13:21:46Z</time>
      </trkpt>
      <trkpt lat="45.19472" lon="6.01007">
        <ele>2043.3</ele>
        <time>2013-03-10T13:21:49Z</time>
      </trkpt>
      <trkpt lat="45.1948" lon="6.01013">
        <ele>2040.5</ele>
        <time>2013-03-10T13:22:40Z</time>
      </trkpt>
      <trkpt lat="45.1948" lon="6.01013">
        <ele>2040.7</ele>
        <time>2013-03-10T13:22:41Z</time>
      </trkpt>
      <trkpt lat="45.19472" lon="6.00996">
        <ele>2040.5</ele>
        <time>2013-03-10T13:23:31Z</time>
      </trkpt>
      <trkpt lat="45.19466" lon="6.01005">
        <ele>2040.1</ele>
        <time>2013-03-10T13:23:43Z</time>
      </trkpt>
      <trkpt lat="45.19466" lon="6.01006">
        <ele>2040.1</ele>
        <time>2013-03-10T13:23:44Z</time>
      </trkpt>
      <trkpt lat="45.19461" lon="6.00984">
        <ele>2039.1</ele>
        <time>2013-03-10T13:24:52Z</time>
      </trkpt>
      <trkpt lat="45.1946" lon="6.00981">
        <ele>2038.8</ele>
        <time>2013-03-10T13:24:53Z</time>
      </trkpt>
      <trkpt lat="45.19455" lon="6.00962">
        <ele>2039.9</ele>
        <time>2013-03-10T13:25:02Z</time>
      </trkpt>
      <trkpt lat="45.1945" lon="6.00953">
        <ele>2040.5</ele>
        <time>2013-03-10T13:25:08Z</time>
      </trkpt>
      <trkpt lat="45.19442" lon="6.00946">
        <ele>2040.1</ele>
        <time>2013-03-10T13:25:17Z</time>
      </trkpt>
      <trkpt lat="45.19445" lon="6.00957">
        <ele>2040.3</ele>
        <time>2013-03-10T13:25:30Z</time>
      </trkpt>
      <trkpt lat="45.19454" lon="6.00954">
        <ele>2040.2</ele>
        <time>2013-03-10T13:25:48Z</time>
      </trkpt>
      <trkpt lat="45.19462" lon="6.00951">
        <ele>2040</ele>
        <time>2013-03-10T13:25:59Z</time>
      </trkpt>
      <trkpt lat="45.19463" lon="6.00951">
        <ele>2039.8</ele>
        <time>2013-03-10T13:26:00Z</time>
      </trkpt>
      <trkpt lat="45.19468" lon="6.00973">
        <ele>2040.5</ele>
        <time>2013-03-10T13:26:21Z</time>
      </trkpt>
      <trkpt lat="45.19475" lon="6.00976">
        <ele>2040.6</ele>
        <time>2013-03-10T13:26:25Z</time>
      </trkpt>
      <trkpt lat="45.19483" lon="6.00975">
        <ele>2040.3</ele>
        <time>2013-03-10T13:26:27Z</time>
      </trkpt>
      <trkpt lat="45.19487" lon="6.00984">
        <ele>2038.6</ele>
        <time>2013-03-10T13:26:29Z</time>
      </trkpt>
      <trkpt lat="45.1949" lon="6.00994">
        <ele>2037.9</ele>
        <time>2013-03-10T13:26:31Z</time>
      </trkpt>
      <trkpt lat="45.19494" lon="6.01003">
        <ele>2034.8</ele>
        <time>2013-03-10T13:26:33Z</time>
      </trkpt>
      <trkpt lat="45.19498" lon="6.0101">
        <ele>2032.4</ele>
        <time>2013-03-10T13:26:35Z</time>
      </trkpt>
      <trkpt lat="45.19501" lon="6.01018">
        <ele>2029.6</ele>
        <time>2013-03-10T13:26:37Z</time>
      </trkpt>
      <trkpt lat="45.19504" lon="6.01029">
        <ele>2024.9</ele>
        <time>2013-03-10T13:26:40Z</time>
      </trkpt>
      <trkpt lat="45.19505" lon="6.01039">
        <ele>2021.2</ele>
        <time>2013-03-10T13:26:43Z</time>
      </trkpt>
      <trkpt lat="45.1951" lon="6.01049">
        <ele>2012.1</ele>
        <time>2013-03-10T13:26:58Z</time>
      </trkpt>
      <trkpt lat="45.19514" lon="6.01059">
        <ele>2011.3</ele>
        <time>2013-03-10T13:27:09Z</time>
      </trkpt>
      <trkpt lat="45.19514" lon="6.01064">
        <ele>2010.8</ele>
        <time>2013-03-10T13:27:10Z</time>
      </trkpt>
      <trkpt lat="45.19513" lon="6.01078">
        <ele>2009.2</ele>
        <time>2013-03-10T13:27:13Z</time>
      </trkpt>
      <trkpt lat="45.19506" lon="6.01084">
        <ele>2003.6</ele>
        <time>2013-03-10T13:27:17Z</time>
      </trkpt>
      <trkpt lat="45.19507" lon="6.01092">
        <ele>2000.8</ele>
        <time>2013-03-10T13:27:19Z</time>
      </trkpt>
      <trkpt lat="45.195" lon="6.01096">
        <ele>1992.8</ele>
        <time>2013-03-10T13:27:25Z</time>
      </trkpt>
      <trkpt lat="45.19496" lon="6.01107">
        <ele>1989.4</ele>
        <time>2013-03-10T13:27:28Z</time>
      </trkpt>
      <trkpt lat="45.19488" lon="6.01106">
        <ele>1985.9</ele>
        <time>2013-03-10T13:27:31Z</time>
      </trkpt>
      <trkpt lat="45.19488" lon="6.01114">
        <ele>1983.1</ele>
        <time>2013-03-10T13:27:33Z</time>
      </trkpt>
      <trkpt lat="45.19481" lon="6.0112">
        <ele>1978.5</ele>
        <time>2013-03-10T13:27:36Z</time>
      </trkpt>
      <trkpt lat="45.19481" lon="6.01132">
        <ele>1967.7</ele>
        <time>2013-03-10T13:27:58Z</time>
      </trkpt>
      <trkpt lat="45.19477" lon="6.01144">
        <ele>1968.6</ele>
        <time>2013-03-10T13:28:14Z</time>
      </trkpt>
      <trkpt lat="45.19477" lon="6.01146">
        <ele>1968.7</ele>
        <time>2013-03-10T13:28:15Z</time>
      </trkpt>
      <trkpt lat="45.19474" lon="6.01126">
        <ele>1967.6</ele>
        <time>2013-03-10T13:29:44Z</time>
      </trkpt>
      <trkpt lat="45.1947" lon="6.01125">
        <ele>1967.2</ele>
        <time>2013-03-10T13:29:45Z</time>
      </trkpt>
      <trkpt lat="45.19463" lon="6.01122">
        <ele>1965.9</ele>
        <time>2013-03-10T13:29:47Z</time>
      </trkpt>
      <trkpt lat="45.19458" lon="6.01119">
        <ele>1965.2</ele>
        <time>2013-03-10T13:29:48Z</time>
      </trkpt>
      <trkpt lat="45.19449" lon="6.01116">
        <ele>1963.1</ele>
        <time>2013-03-10T13:29:50Z</time>
      </trkpt>
      <trkpt lat="45.19444" lon="6.01115">
        <ele>1962.5</ele>
        <time>2013-03-10T13:29:51Z</time>
      </trkpt>
      <trkpt lat="45.19438" lon="6.01115">
        <ele>1961.2</ele>
        <time>2013-03-10T13:29:52Z</time>
      </trkpt>
      <trkpt lat="45.19433" lon="6.01115">
        <ele>1960.2</ele>
        <time>2013-03-10T13:29:53Z</time>
      </trkpt>
      <trkpt lat="45.19428" lon="6.01115">
        <ele>1959</ele>
        <time>2013-03-10T13:29:54Z</time>
      </trkpt>
      <trkpt lat="45.19423" lon="6.01115">
        <ele>1958.1</ele>
        <time>2013-03-10T13:29:55Z</time>
      </trkpt>
      <trkpt lat="45.19418" lon="6.01116">
        <ele>1956.8</ele>
        <time>2013-03-10T13:29:56Z</time>
      </trkpt>
      <trkpt lat="45.1941" lon="6.01118">
        <ele>1955.1</ele>
        <time>2013-03-10T13:29:58Z</time>
      </trkpt>
      <trkpt lat="45.19403" lon="6.01122">
        <ele>1953.5</ele>
        <time>2013-03-10T13:30:00Z</time>
      </trkpt>
      <trkpt lat="45.19396" lon="6.01128">
        <ele>1952.4</ele>
        <time>2013-03-10T13:30:03Z</time>
      </trkpt>
      <trkpt lat="45.19389" lon="6.01132">
        <ele>1951.7</ele>
        <time>2013-03-10T13:30:05Z</time>
      </trkpt>
      <trkpt lat="45.19381" lon="6.01133">
        <ele>1949.4</ele>
        <time>2013-03-10T13:30:14Z</time>
      </trkpt>
      <trkpt lat="45.19373" lon="6.01136">
        <ele>1949.2</ele>
        <time>2013-03-10T13:30:17Z</time>
      </trkpt>
      <trkpt lat="45.19366" lon="6.01139">
        <ele>1948</ele>
        <time>2013-03-10T13:30:20Z</time>
      </trkpt>
      <trkpt lat="45.19361" lon="6.01147">
        <ele>1945.7</ele>
        <time>2013-03-10T13:30:24Z</time>
      </trkpt>
      <trkpt lat="45.19358" lon="6.01159">
        <ele>1940.2</ele>
        <time>2013-03-10T13:30:35Z</time>
      </trkpt>
      <trkpt lat="45.19355" lon="6.01171">
        <ele>1938.7</ele>
        <time>2013-03-10T13:30:45Z</time>
      </trkpt>
      <trkpt lat="45.19362" lon="6.01177">
        <ele>1938.1</ele>
        <time>2013-03-10T13:30:47Z</time>
      </trkpt>
      <trkpt lat="45.19363" lon="6.01182">
        <ele>1937.9</ele>
        <time>2013-03-10T13:30:48Z</time>
      </trkpt>
      <trkpt lat="45.19363" lon="6.01198">
        <ele>1934.7</ele>
        <time>2013-03-10T13:30:51Z</time>
      </trkpt>
      <trkpt lat="45.19363" lon="6.01209">
        <ele>1932.6</ele>
        <time>2013-03-10T13:30:53Z</time>
      </trkpt>
      <trkpt lat="45.19362" lon="6.0122">
        <ele>1930.6</ele>
        <time>2013-03-10T13:30:55Z</time>
      </trkpt>
      <trkpt lat="45.19365" lon="6.01231">
        <ele>1928</ele>
        <time>2013-03-10T13:30:57Z</time>
      </trkpt>
      <trkpt lat="45.19365" lon="6.0124">
        <ele>1924.4</ele>
        <time>2013-03-10T13:30:59Z</time>
      </trkpt>
      <trkpt lat="45.19372" lon="6.01247">
        <ele>1910.2</ele>
        <time>2013-03-10T13:31:58Z</time>
      </trkpt>
      <trkpt lat="45.19373" lon="6.01247">
        <ele>1910.3</ele>
        <time>2013-03-10T13:31:59Z</time>
      </trkpt>
      <trkpt lat="45.19387" lon="6.01255">
        <ele>1908.4</ele>
        <time>2013-03-10T13:32:42Z</time>
      </trkpt>
      <trkpt lat="45.19381" lon="6.01263">
        <ele>1905.7</ele>
        <time>2013-03-10T13:32:47Z</time>
      </trkpt>
      <trkpt lat="45.19386" lon="6.01273">
        <ele>1901.4</ele>
        <time>2013-03-10T13:32:52Z</time>
      </trkpt>
      <trkpt lat="45.1939" lon="6.01283">
        <ele>1895.7</ele>
        <time>2013-03-10T13:32:57Z</time>
      </trkpt>
      <trkpt lat="45.19396" lon="6.01291">
        <ele>1893.3</ele>
        <time>2013-03-10T13:32:59Z</time>
      </trkpt>
      <trkpt lat="45.19399" lon="6.01293">
        <ele>1892.4</ele>
        <time>2013-03-10T13:33:00Z</time>
      </trkpt>
      <trkpt lat="45.1941" lon="6.01296">
        <ele>1888.4</ele>
        <time>2013-03-10T13:33:05Z</time>
      </trkpt>
      <trkpt lat="45.19417" lon="6.01296">
        <ele>1885.6</ele>
        <time>2013-03-10T13:33:08Z</time>
      </trkpt>
      <trkpt lat="45.19426" lon="6.01294">
        <ele>1884.4</ele>
        <time>2013-03-10T13:33:10Z</time>
      </trkpt>
      <trkpt lat="45.19432" lon="6.01294">
        <ele>1884.1</ele>
        <time>2013-03-10T13:33:11Z</time>
      </trkpt>
      <trkpt lat="45.19437" lon="6.01295">
        <ele>1883.9</ele>
        <time>2013-03-10T13:33:12Z</time>
      </trkpt>
      <trkpt lat="45.19432" lon="6.01301">
        <ele>1877.8</ele>
        <time>2013-03-10T13:33:28Z</time>
      </trkpt>
      <trkpt lat="45.19425" lon="6.01303">
        <ele>1876.9</ele>
        <time>2013-03-10T13:33:30Z</time>
      </trkpt>
      <trkpt lat="45.19417" lon="6.01309">
        <ele>1874.7</ele>
        <time>2013-03-10T13:33:38Z</time>
      </trkpt>
      <trkpt lat="45.19413" lon="6.01317">
        <ele>1872.6</ele>
        <time>2013-03-10T13:33:54Z</time>
      </trkpt>
      <trkpt lat="45.19418" lon="6.01324">
        <ele>1871.5</ele>
        <time>2013-03-10T13:33:56Z</time>
      </trkpt>
      <trkpt lat="45.19425" lon="6.01326">
        <ele>1869.6</ele>
        <time>2013-03-10T13:33:58Z</time>
      </trkpt>
      <trkpt lat="45.19432" lon="6.01332">
        <ele>1868.1</ele>
        <time>2013-03-10T13:34:01Z</time>
      </trkpt>
      <trkpt lat="45.19437" lon="6.01341">
        <ele>1866.4</ele>
        <time>2013-03-10T13:34:04Z</time>
      </trkpt>
      <trkpt lat="45.19439" lon="6.01344">
        <ele>1865.9</ele>
        <time>2013-03-10T13:34:05Z</time>
      </trkpt>
      <trkpt lat="45.19446" lon="6.01356">
        <ele>1863.4</ele>
        <time>2013-03-10T13:34:09Z</time>
      </trkpt>
      <trkpt lat="45.1945" lon="6.01368">
        <ele>1860</ele>
        <time>2013-03-10T13:34:13Z</time>
      </trkpt>
      <trkpt lat="45.19452" lon="6.0138">
        <ele>1857.5</ele>
        <time>2013-03-10T13:34:38Z</time>
      </trkpt>
      <trkpt lat="45.19458" lon="6.01388">
        <ele>1855.1</ele>
        <time>2013-03-10T13:35:34Z</time>
      </trkpt>
      <trkpt lat="45.19458" lon="6.01391">
        <ele>1855</ele>
        <time>2013-03-10T13:35:35Z</time>
      </trkpt>
      <trkpt lat="45.19462" lon="6.0141">
        <ele>1852.8</ele>
        <time>2013-03-10T13:35:40Z</time>
      </trkpt>
      <trkpt lat="45.19453" lon="6.01412">
        <ele>1847.9</ele>
        <time>2013-03-10T13:35:45Z</time>
      </trkpt>
      <trkpt lat="45.19449" lon="6.01421">
        <ele>1843.9</ele>
        <time>2013-03-10T13:35:50Z</time>
      </trkpt>
      <trkpt lat="45.19442" lon="6.01429">
        <ele>1838.3</ele>
        <time>2013-03-10T13:35:56Z</time>
      </trkpt>
      <trkpt lat="45.19436" lon="6.01436">
        <ele>1832.6</ele>
        <time>2013-03-10T13:36:01Z</time>
      </trkpt>
      <trkpt lat="45.19429" lon="6.01443">
        <ele>1823.9</ele>
        <time>2013-03-10T13:36:08Z</time>
      </trkpt>
      <trkpt lat="45.19423" lon="6.01452">
        <ele>1818.2</ele>
        <time>2013-03-10T13:36:50Z</time>
      </trkpt>
      <trkpt lat="45.19423" lon="6.01456">
        <ele>1818.4</ele>
        <time>2013-03-10T13:36:51Z</time>
      </trkpt>
      <trkpt lat="45.19415" lon="6.01463">
        <ele>1811.6</ele>
        <time>2013-03-10T13:36:57Z</time>
      </trkpt>
      <trkpt lat="45.19411" lon="6.0147">
        <ele>1809.6</ele>
        <time>2013-03-10T13:36:59Z</time>
      </trkpt>
      <trkpt lat="45.19412" lon="6.01482">
        <ele>1803.1</ele>
        <time>2013-03-10T13:37:11Z</time>
      </trkpt>
      <trkpt lat="45.19408" lon="6.01493">
        <ele>1801.2</ele>
        <time>2013-03-10T13:37:15Z</time>
      </trkpt>
      <trkpt lat="45.19403" lon="6.01502">
        <ele>1798.6</ele>
        <time>2013-03-10T13:37:18Z</time>
      </trkpt>
      <trkpt lat="45.19397" lon="6.01511">
        <ele>1794.2</ele>
        <time>2013-03-10T13:37:21Z</time>
      </trkpt>
      <trkpt lat="45.19398" lon="6.01523">
        <ele>1787.2</ele>
        <time>2013-03-10T13:37:25Z</time>
      </trkpt>
      <trkpt lat="45.19391" lon="6.01529">
        <ele>1780.6</ele>
        <time>2013-03-10T13:37:47Z</time>
      </trkpt>
      <trkpt lat="45.19386" lon="6.01537">
        <ele>1777.4</ele>
        <time>2013-03-10T13:37:51Z</time>
      </trkpt>
      <trkpt lat="45.19386" lon="6.0154">
        <ele>1776.3</ele>
        <time>2013-03-10T13:37:52Z</time>
      </trkpt>
      <trkpt lat="45.19379" lon="6.01559">
        <ele>1763.9</ele>
        <time>2013-03-10T13:38:18Z</time>
      </trkpt>
      <trkpt lat="45.19377" lon="6.01571">
        <ele>1760.8</ele>
        <time>2013-03-10T13:38:24Z</time>
      </trkpt>
      <trkpt lat="45.19369" lon="6.01575">
        <ele>1757.1</ele>
        <time>2013-03-10T13:38:29Z</time>
      </trkpt>
      <trkpt lat="45.19365" lon="6.01583">
        <ele>1753.1</ele>
        <time>2013-03-10T13:38:32Z</time>
      </trkpt>
      <trkpt lat="45.19363" lon="6.01595">
        <ele>1748.4</ele>
        <time>2013-03-10T13:38:38Z</time>
      </trkpt>
      <trkpt lat="45.19359" lon="6.01604">
        <ele>1746.4</ele>
        <time>2013-03-10T13:38:42Z</time>
      </trkpt>
      <trkpt lat="45.19353" lon="6.01597">
        <ele>1742.8</ele>
        <time>2013-03-10T13:38:46Z</time>
      </trkpt>
      <trkpt lat="45.19347" lon="6.01588">
        <ele>1740.1</ele>
        <time>2013-03-10T13:38:49Z</time>
      </trkpt>
      <trkpt lat="45.19342" lon="6.01597">
        <ele>1736.5</ele>
        <time>2013-03-10T13:39:16Z</time>
      </trkpt>
      <trkpt lat="45.19341" lon="6.01601">
        <ele>1735.6</ele>
        <time>2013-03-10T13:39:17Z</time>
      </trkpt>
      <trkpt lat="45.19332" lon="6.01617">
        <ele>1724.9</ele>
        <time>2013-03-10T13:40:59Z</time>
      </trkpt>
      <trkpt lat="45.19329" lon="6.01615">
        <ele>1724.4</ele>
        <time>2013-03-10T13:41:00Z</time>
      </trkpt>
      <trkpt lat="45.1932" lon="6.01627">
        <ele>1716.4</ele>
        <time>2013-03-10T13:41:11Z</time>
      </trkpt>
      <trkpt lat="45.19315" lon="6.01637">
        <ele>1714.6</ele>
        <time>2013-03-10T13:41:23Z</time>
      </trkpt>
      <trkpt lat="45.19313" lon="6.01645">
        <ele>1713.8</ele>
        <time>2013-03-10T13:41:25Z</time>
      </trkpt>
      <trkpt lat="45.19306" lon="6.01641">
        <ele>1709.6</ele>
        <time>2013-03-10T13:41:29Z</time>
      </trkpt>
      <trkpt lat="45.19299" lon="6.01645">
        <ele>1706.3</ele>
        <time>2013-03-10T13:41:32Z</time>
      </trkpt>
      <trkpt lat="45.19299" lon="6.01657">
        <ele>1702.8</ele>
        <time>2013-03-10T13:41:35Z</time>
      </trkpt>
      <trkpt lat="45.19293" lon="6.01663">
        <ele>1699</ele>
        <time>2013-03-10T13:41:52Z</time>
      </trkpt>
      <trkpt lat="45.19285" lon="6.0166">
        <ele>1697.2</ele>
        <time>2013-03-10T13:41:55Z</time>
      </trkpt>
      <trkpt lat="45.19282" lon="6.01667">
        <ele>1696.3</ele>
        <time>2013-03-10T13:41:57Z</time>
      </trkpt>
      <trkpt lat="45.19283" lon="6.01677">
        <ele>1693.9</ele>
        <time>2013-03-10T13:41:59Z</time>
      </trkpt>
      <trkpt lat="45.19283" lon="6.01688">
        <ele>1688.8</ele>
        <time>2013-03-10T13:42:02Z</time>
      </trkpt>
      <trkpt lat="45.19283" lon="6.01693">
        <ele>1687.8</ele>
        <time>2013-03-10T13:42:03Z</time>
      </trkpt>
      <trkpt lat="45.19272" lon="6.01705">
        <ele>1680.5</ele>
        <time>2013-03-10T13:42:09Z</time>
      </trkpt>
      <trkpt lat="45.19271" lon="6.01714">
        <ele>1678</ele>
        <time>2013-03-10T13:42:11Z</time>
      </trkpt>
      <trkpt lat="45.19263" lon="6.01717">
        <ele>1672.5</ele>
        <time>2013-03-10T13:42:15Z</time>
      </trkpt>
      <trkpt lat="45.1926" lon="6.01726">
        <ele>1670.2</ele>
        <time>2013-03-10T13:42:17Z</time>
      </trkpt>
      <trkpt lat="45.19253" lon="6.0173">
        <ele>1667.8</ele>
        <time>2013-03-10T13:42:19Z</time>
      </trkpt>
      <trkpt lat="45.19247" lon="6.01722">
        <ele>1664.7</ele>
        <time>2013-03-10T13:42:21Z</time>
      </trkpt>
      <trkpt lat="45.1924" lon="6.0173">
        <ele>1653.6</ele>
        <time>2013-03-10T13:44:59Z</time>
      </trkpt>
      <trkpt lat="45.19237" lon="6.01729">
        <ele>1653.1</ele>
        <time>2013-03-10T13:45:00Z</time>
      </trkpt>
      <trkpt lat="45.19227" lon="6.01733">
        <ele>1646.3</ele>
        <time>2013-03-10T13:45:06Z</time>
      </trkpt>
      <trkpt lat="45.19228" lon="6.01742">
        <ele>1643.9</ele>
        <time>2013-03-10T13:45:09Z</time>
      </trkpt>
      <trkpt lat="45.19225" lon="6.01745">
        <ele>1642.8</ele>
        <time>2013-03-10T13:45:10Z</time>
      </trkpt>
      <trkpt lat="45.19219" lon="6.01747">
        <ele>1642</ele>
        <time>2013-03-10T13:45:11Z</time>
      </trkpt>
      <trkpt lat="45.19213" lon="6.01745">
        <ele>1639.9</ele>
        <time>2013-03-10T13:45:12Z</time>
      </trkpt>
      <trkpt lat="45.19207" lon="6.0174">
        <ele>1633.3</ele>
        <time>2013-03-10T13:45:18Z</time>
      </trkpt>
      <trkpt lat="45.192" lon="6.01737">
        <ele>1632</ele>
        <time>2013-03-10T13:45:20Z</time>
      </trkpt>
      <trkpt lat="45.19194" lon="6.01737">
        <ele>1630.8</ele>
        <time>2013-03-10T13:45:22Z</time>
      </trkpt>
      <trkpt lat="45.19186" lon="6.01735">
        <ele>1629.6</ele>
        <time>2013-03-10T13:45:27Z</time>
      </trkpt>
      <trkpt lat="45.19179" lon="6.01727">
        <ele>1627.6</ele>
        <time>2013-03-10T13:46:11Z</time>
      </trkpt>
      <trkpt lat="45.19178" lon="6.01727">
        <ele>1628</ele>
        <time>2013-03-10T13:46:12Z</time>
      </trkpt>
      <trkpt lat="45.19172" lon="6.01719">
        <ele>1628.8</ele>
        <time>2013-03-10T13:48:56Z</time>
      </trkpt>
      <trkpt lat="45.19178" lon="6.01729">
        <ele>1628.5</ele>
        <time>2013-03-10T13:50:39Z</time>
      </trkpt>
      <trkpt lat="45.19186" lon="6.01726">
        <ele>1627.6</ele>
        <time>2013-03-10T13:52:17Z</time>
      </trkpt>
      <trkpt lat="45.19182" lon="6.01741">
        <ele>1627.8</ele>
        <time>2013-03-10T13:55:41Z</time>
      </trkpt>
      <trkpt lat="45.19181" lon="6.01742">
        <ele>1628</ele>
        <time>2013-03-10T13:55:42Z</time>
      </trkpt>
      <trkpt lat="45.19199" lon="6.01738">
        <ele>1626.6</ele>
        <time>2013-03-10T13:56:42Z</time>
      </trkpt>
      <trkpt lat="45.19203" lon="6.01746">
        <ele>1626.8</ele>
        <time>2013-03-10T13:57:05Z</time>
      </trkpt>
      <trkpt lat="45.19199" lon="6.01751">
        <ele>1626.5</ele>
        <time>2013-03-10T13:57:06Z</time>
      </trkpt>
      <trkpt lat="45.19197" lon="6.01763">
        <ele>1624.2</ele>
        <time>2013-03-10T13:57:08Z</time>
      </trkpt>
      <trkpt lat="45.19192" lon="6.01774">
        <ele>1622.1</ele>
        <time>2013-03-10T13:57:10Z</time>
      </trkpt>
      <trkpt lat="45.19187" lon="6.01781">
        <ele>1618.2</ele>
        <time>2013-03-10T13:57:12Z</time>
      </trkpt>
      <trkpt lat="45.19189" lon="6.01791">
        <ele>1615.3</ele>
        <time>2013-03-10T13:57:14Z</time>
      </trkpt>
      <trkpt lat="45.19191" lon="6.01802">
        <ele>1611.7</ele>
        <time>2013-03-10T13:57:17Z</time>
      </trkpt>
      <trkpt lat="45.19186" lon="6.01813">
        <ele>1608.8</ele>
        <time>2013-03-10T13:57:31Z</time>
      </trkpt>
      <trkpt lat="45.19186" lon="6.01823">
        <ele>1607.3</ele>
        <time>2013-03-10T13:57:44Z</time>
      </trkpt>
      <trkpt lat="45.1918" lon="6.01831">
        <ele>1606.4</ele>
        <time>2013-03-10T13:57:47Z</time>
      </trkpt>
      <trkpt lat="45.19178" lon="6.01843">
        <ele>1603</ele>
        <time>2013-03-10T13:57:50Z</time>
      </trkpt>
      <trkpt lat="45.19169" lon="6.01844">
        <ele>1600.7</ele>
        <time>2013-03-10T13:57:53Z</time>
      </trkpt>
      <trkpt lat="45.19164" lon="6.01851">
        <ele>1599</ele>
        <time>2013-03-10T13:57:55Z</time>
      </trkpt>
      <trkpt lat="45.19157" lon="6.01852">
        <ele>1597.4</ele>
        <time>2013-03-10T13:57:57Z</time>
      </trkpt>
      <trkpt lat="45.19148" lon="6.01854">
        <ele>1593.9</ele>
        <time>2013-03-10T13:58:01Z</time>
      </trkpt>
      <trkpt lat="45.19145" lon="6.01864">
        <ele>1592.6</ele>
        <time>2013-03-10T13:58:03Z</time>
      </trkpt>
      <trkpt lat="45.19138" lon="6.0187">
        <ele>1588.3</ele>
        <time>2013-03-10T13:58:08Z</time>
      </trkpt>
      <trkpt lat="45.19137" lon="6.01873">
        <ele>1587.6</ele>
        <time>2013-03-10T13:58:09Z</time>
      </trkpt>
      <trkpt lat="45.19134" lon="6.01895">
        <ele>1580.8</ele>
        <time>2013-03-10T13:58:18Z</time>
      </trkpt>
      <trkpt lat="45.19128" lon="6.01903">
        <ele>1573.8</ele>
        <time>2013-03-10T13:58:31Z</time>
      </trkpt>
      <trkpt lat="45.19127" lon="6.01913">
        <ele>1572.5</ele>
        <time>2013-03-10T13:58:34Z</time>
      </trkpt>
      <trkpt lat="45.19122" lon="6.0192">
        <ele>1567.4</ele>
        <time>2013-03-10T13:58:43Z</time>
      </trkpt>
      <trkpt lat="45.19121" lon="6.01924">
        <ele>1567.3</ele>
        <time>2013-03-10T13:58:44Z</time>
      </trkpt>
      <trkpt lat="45.19117" lon="6.0193">
        <ele>1567.2</ele>
        <time>2013-03-10T13:58:45Z</time>
      </trkpt>
      <trkpt lat="45.1911" lon="6.01936">
        <ele>1565</ele>
        <time>2013-03-10T13:58:49Z</time>
      </trkpt>
      <trkpt lat="45.19103" lon="6.01941">
        <ele>1561.9</ele>
        <time>2013-03-10T13:59:01Z</time>
      </trkpt>
      <trkpt lat="45.19096" lon="6.01948">
        <ele>1561.6</ele>
        <time>2013-03-10T13:59:04Z</time>
      </trkpt>
      <trkpt lat="45.19093" lon="6.01958">
        <ele>1559.3</ele>
        <time>2013-03-10T13:59:06Z</time>
      </trkpt>
      <trkpt lat="45.19086" lon="6.0196">
        <ele>1557.6</ele>
        <time>2013-03-10T13:59:08Z</time>
      </trkpt>
      <trkpt lat="45.19084" lon="6.0197">
        <ele>1555.6</ele>
        <time>2013-03-10T13:59:10Z</time>
      </trkpt>
      <trkpt lat="45.19085" lon="6.01976">
        <ele>1554.7</ele>
        <time>2013-03-10T13:59:11Z</time>
      </trkpt>
      <trkpt lat="45.19078" lon="6.0199">
        <ele>1550.6</ele>
        <time>2013-03-10T13:59:15Z</time>
      </trkpt>
      <trkpt lat="45.19076" lon="6.01999">
        <ele>1546.3</ele>
        <time>2013-03-10T13:59:18Z</time>
      </trkpt>
      <trkpt lat="45.19073" lon="6.02011">
        <ele>1544</ele>
        <time>2013-03-10T13:59:21Z</time>
      </trkpt>
      <trkpt lat="45.19071" lon="6.02021">
        <ele>1541.2</ele>
        <time>2013-03-10T13:59:23Z</time>
      </trkpt>
      <trkpt lat="45.19067" lon="6.0203">
        <ele>1536.7</ele>
        <time>2013-03-10T13:59:26Z</time>
      </trkpt>
      <trkpt lat="45.19064" lon="6.0204">
        <ele>1534.4</ele>
        <time>2013-03-10T13:59:28Z</time>
      </trkpt>
      <trkpt lat="45.19064" lon="6.02051">
        <ele>1529.9</ele>
        <time>2013-03-10T13:59:31Z</time>
      </trkpt>
      <trkpt lat="45.19064" lon="6.02064">
        <ele>1526.7</ele>
        <time>2013-03-10T13:59:34Z</time>
      </trkpt>
      <trkpt lat="45.19067" lon="6.02074">
        <ele>1522.7</ele>
        <time>2013-03-10T13:59:41Z</time>
      </trkpt>
      <trkpt lat="45.19071" lon="6.02085">
        <ele>1520.4</ele>
        <time>2013-03-10T13:59:57Z</time>
      </trkpt>
      <trkpt lat="45.1907" lon="6.02095">
        <ele>1519.8</ele>
        <time>2013-03-10T14:00:20Z</time>
      </trkpt>
      <trkpt lat="45.19071" lon="6.02099">
        <ele>1518.9</ele>
        <time>2013-03-10T14:00:21Z</time>
      </trkpt>
      <trkpt lat="45.19079" lon="6.02105">
        <ele>1515.8</ele>
        <time>2013-03-10T14:00:25Z</time>
      </trkpt>
      <trkpt lat="45.19084" lon="6.02105">
        <ele>1514.8</ele>
        <time>2013-03-10T14:00:26Z</time>
      </trkpt>
      <trkpt lat="45.19092" lon="6.021">
        <ele>1512.2</ele>
        <time>2013-03-10T14:00:29Z</time>
      </trkpt>
      <trkpt lat="45.19098" lon="6.02107">
        <ele>1509.4</ele>
        <time>2013-03-10T14:00:33Z</time>
      </trkpt>
      <trkpt lat="45.19097" lon="6.02114">
        <ele>1508.6</ele>
        <time>2013-03-10T14:00:35Z</time>
      </trkpt>
      <trkpt lat="45.19096" lon="6.02125">
        <ele>1507.9</ele>
        <time>2013-03-10T14:00:37Z</time>
      </trkpt>
      <trkpt lat="45.19101" lon="6.02135">
        <ele>1502.2</ele>
        <time>2013-03-10T14:01:59Z</time>
      </trkpt>
      <trkpt lat="45.19101" lon="6.02136">
        <ele>1502.2</ele>
        <time>2013-03-10T14:02:00Z</time>
      </trkpt>
      <trkpt lat="45.191" lon="6.02136">
        <ele>1502.2</ele>
        <time>2013-03-10T14:03:29Z</time>
      </trkpt>
      <trkpt lat="45.191" lon="6.02135">
        <ele>1502.3</ele>
        <time>2013-03-10T14:03:30Z</time>
      </trkpt>
      <trkpt lat="45.19092" lon="6.02156">
        <ele>1500.3</ele>
        <time>2013-03-10T14:04:21Z</time>
      </trkpt>
      <trkpt lat="45.19091" lon="6.02169">
        <ele>1495.8</ele>
        <time>2013-03-10T14:04:36Z</time>
      </trkpt>
      <trkpt lat="45.19091" lon="6.02169">
        <ele>1495.9</ele>
        <time>2013-03-10T14:04:37Z</time>
      </trkpt>
      <trkpt lat="45.19089" lon="6.0219">
        <ele>1492.3</ele>
        <time>2013-03-10T14:05:00Z</time>
      </trkpt>
      <trkpt lat="45.1908" lon="6.02195">
        <ele>1485.9</ele>
        <time>2013-03-10T14:05:17Z</time>
      </trkpt>
      <trkpt lat="45.19074" lon="6.02187">
        <ele>1485.6</ele>
        <time>2013-03-10T14:05:34Z</time>
      </trkpt>
      <trkpt lat="45.19069" lon="6.02195">
        <ele>1485.8</ele>
        <time>2013-03-10T14:05:44Z</time>
      </trkpt>
      <trkpt lat="45.19068" lon="6.02199">
        <ele>1485.7</ele>
        <time>2013-03-10T14:05:45Z</time>
      </trkpt>
      <trkpt lat="45.19067" lon="6.02217">
        <ele>1479.4</ele>
        <time>2013-03-10T14:05:54Z</time>
      </trkpt>
      <trkpt lat="45.19063" lon="6.02226">
        <ele>1477.6</ele>
        <time>2013-03-10T14:05:58Z</time>
      </trkpt>
      <trkpt lat="45.19059" lon="6.02237">
        <ele>1476</ele>
        <time>2013-03-10T14:06:01Z</time>
      </trkpt>
      <trkpt lat="45.19059" lon="6.02249">
        <ele>1472.9</ele>
        <time>2013-03-10T14:06:08Z</time>
      </trkpt>
      <trkpt lat="45.19059" lon="6.02261">
        <ele>1469.2</ele>
        <time>2013-03-10T14:06:18Z</time>
      </trkpt>
      <trkpt lat="45.19059" lon="6.02273">
        <ele>1467.9</ele>
        <time>2013-03-10T14:06:30Z</time>
      </trkpt>
      <trkpt lat="45.19056" lon="6.02285">
        <ele>1466.3</ele>
        <time>2013-03-10T14:06:38Z</time>
      </trkpt>
      <trkpt lat="45.19055" lon="6.02293">
        <ele>1465</ele>
        <time>2013-03-10T14:06:40Z</time>
      </trkpt>
      <trkpt lat="45.19054" lon="6.02305">
        <ele>1462.8</ele>
        <time>2013-03-10T14:06:43Z</time>
      </trkpt>
      <trkpt lat="45.19053" lon="6.02317">
        <ele>1459.6</ele>
        <time>2013-03-10T14:06:47Z</time>
      </trkpt>
      <trkpt lat="45.19053" lon="6.02319">
        <ele>1458.2</ele>
        <time>2013-03-10T14:06:48Z</time>
      </trkpt>
      <trkpt lat="45.19051" lon="6.02341">
        <ele>1450.4</ele>
        <time>2013-03-10T14:07:11Z</time>
      </trkpt>
      <trkpt lat="45.19052" lon="6.02353">
        <ele>1447.1</ele>
        <time>2013-03-10T14:07:20Z</time>
      </trkpt>
      <trkpt lat="45.19051" lon="6.02365">
        <ele>1446.2</ele>
        <time>2013-03-10T14:07:37Z</time>
      </trkpt>
      <trkpt lat="45.19051" lon="6.02377">
        <ele>1442.2</ele>
        <time>2013-03-10T14:07:48Z</time>
      </trkpt>
      <trkpt lat="45.19043" lon="6.0238">
        <ele>1439.8</ele>
        <time>2013-03-10T14:08:05Z</time>
      </trkpt>
      <trkpt lat="45.19041" lon="6.0238">
        <ele>1439.5</ele>
        <time>2013-03-10T14:08:06Z</time>
      </trkpt>
      <trkpt lat="45.19044" lon="6.02402">
        <ele>1431.9</ele>
        <time>2013-03-10T14:08:30Z</time>
      </trkpt>
      <trkpt lat="45.19045" lon="6.02415">
        <ele>1431</ele>
        <time>2013-03-10T14:08:41Z</time>
      </trkpt>
      <trkpt lat="45.19046" lon="6.02427">
        <ele>1427.9</ele>
        <time>2013-03-10T14:08:52Z</time>
      </trkpt>
      <trkpt lat="45.19044" lon="6.02439">
        <ele>1425.1</ele>
        <time>2013-03-10T14:09:07Z</time>
      </trkpt>
      <trkpt lat="45.19044" lon="6.0244">
        <ele>1425.2</ele>
        <time>2013-03-10T14:09:08Z</time>
      </trkpt>
      <trkpt lat="45.19031" lon="6.02447">
        <ele>1422.4</ele>
        <time>2013-03-10T14:09:31Z</time>
      </trkpt>
      <trkpt lat="45.19024" lon="6.02451">
        <ele>1422.2</ele>
        <time>2013-03-10T14:09:43Z</time>
      </trkpt>
      <trkpt lat="45.1903" lon="6.02455">
        <ele>1419.2</ele>
        <time>2013-03-10T14:09:51Z</time>
      </trkpt>
      <trkpt lat="45.19038" lon="6.0246">
        <ele>1414.2</ele>
        <time>2013-03-10T14:10:53Z</time>
      </trkpt>
      <trkpt lat="45.19039" lon="6.02461">
        <ele>1414.2</ele>
        <time>2013-03-10T14:10:54Z</time>
      </trkpt>
      <trkpt lat="45.19046" lon="6.02477">
        <ele>1414.1</ele>
        <time>2013-03-10T14:11:03Z</time>
      </trkpt>
      <trkpt lat="45.1905" lon="6.02486">
        <ele>1413.8</ele>
        <time>2013-03-10T14:11:05Z</time>
      </trkpt>
      <trkpt lat="45.19052" lon="6.02496">
        <ele>1410.7</ele>
        <time>2013-03-10T14:11:10Z</time>
      </trkpt>
      <trkpt lat="45.19053" lon="6.02509">
        <ele>1409</ele>
        <time>2013-03-10T14:11:18Z</time>
      </trkpt>
      <trkpt lat="45.19053" lon="6.02521">
        <ele>1407.7</ele>
        <time>2013-03-10T14:11:32Z</time>
      </trkpt>
      <trkpt lat="45.19057" lon="6.02533">
        <ele>1403.6</ele>
        <time>2013-03-10T14:11:54Z</time>
      </trkpt>
      <trkpt lat="45.19055" lon="6.02544">
        <ele>1404.5</ele>
        <time>2013-03-10T14:12:06Z</time>
      </trkpt>
      <trkpt lat="45.19054" lon="6.02545">
        <ele>1404.3</ele>
        <time>2013-03-10T14:12:07Z</time>
      </trkpt>
      <trkpt lat="45.19052" lon="6.02558">
        <ele>1403.8</ele>
        <time>2013-03-10T14:13:13Z</time>
      </trkpt>
      <trkpt lat="45.19053" lon="6.0256">
        <ele>1403.7</ele>
        <time>2013-03-10T14:13:14Z</time>
      </trkpt>
      <trkpt lat="45.19061" lon="6.02579">
        <ele>1401</ele>
        <time>2013-03-10T14:13:29Z</time>
      </trkpt>
      <trkpt lat="45.19063" lon="6.0259">
        <ele>1400.4</ele>
        <time>2013-03-10T14:13:49Z</time>
      </trkpt>
      <trkpt lat="45.19063" lon="6.026">
        <ele>1400.9</ele>
        <time>2013-03-10T14:13:56Z</time>
      </trkpt>
      <trkpt lat="45.19061" lon="6.02612">
        <ele>1400.2</ele>
        <time>2013-03-10T14:14:01Z</time>
      </trkpt>
      <trkpt lat="45.19064" lon="6.02623">
        <ele>1399.4</ele>
        <time>2013-03-10T14:14:05Z</time>
      </trkpt>
      <trkpt lat="45.19067" lon="6.02632">
        <ele>1397.9</ele>
        <time>2013-03-10T14:14:08Z</time>
      </trkpt>
      <trkpt lat="45.1907" lon="6.02641">
        <ele>1396.4</ele>
        <time>2013-03-10T14:14:12Z</time>
      </trkpt>
      <trkpt lat="45.1907" lon="6.02652">
        <ele>1394.7</ele>
        <time>2013-03-10T14:14:16Z</time>
      </trkpt>
      <trkpt lat="45.1907" lon="6.02655">
        <ele>1394.7</ele>
        <time>2013-03-10T14:14:17Z</time>
      </trkpt>
      <trkpt lat="45.19066" lon="6.02675">
        <ele>1393.2</ele>
        <time>2013-03-10T14:14:22Z</time>
      </trkpt>
      <trkpt lat="45.19065" lon="6.02686">
        <ele>1392.4</ele>
        <time>2013-03-10T14:14:27Z</time>
      </trkpt>
      <trkpt lat="45.19065" lon="6.02697">
        <ele>1392.5</ele>
        <time>2013-03-10T14:14:32Z</time>
      </trkpt>
      <trkpt lat="45.19067" lon="6.02708">
        <ele>1392</ele>
        <time>2013-03-10T14:14:35Z</time>
      </trkpt>
      <trkpt lat="45.19066" lon="6.02717">
        <ele>1391.5</ele>
        <time>2013-03-10T14:14:38Z</time>
      </trkpt>
      <trkpt lat="45.19063" lon="6.02729">
        <ele>1390.6</ele>
        <time>2013-03-10T14:14:41Z</time>
      </trkpt>
      <trkpt lat="45.19063" lon="6.02741">
        <ele>1389.4</ele>
        <time>2013-03-10T14:14:44Z</time>
      </trkpt>
      <trkpt lat="45.19063" lon="6.02752">
        <ele>1388.7</ele>
        <time>2013-03-10T14:14:47Z</time>
      </trkpt>
      <trkpt lat="45.19061" lon="6.02762">
        <ele>1388</ele>
        <time>2013-03-10T14:14:49Z</time>
      </trkpt>
      <trkpt lat="45.19059" lon="6.02773">
        <ele>1387.3</ele>
        <time>2013-03-10T14:14:51Z</time>
      </trkpt>
      <trkpt lat="45.19056" lon="6.02782">
        <ele>1386.1</ele>
        <time>2013-03-10T14:14:53Z</time>
      </trkpt>
      <trkpt lat="45.19053" lon="6.02794">
        <ele>1385</ele>
        <time>2013-03-10T14:14:55Z</time>
      </trkpt>
      <trkpt lat="45.19049" lon="6.02804">
        <ele>1384.1</ele>
        <time>2013-03-10T14:14:57Z</time>
      </trkpt>
      <trkpt lat="45.19046" lon="6.02814">
        <ele>1383.5</ele>
        <time>2013-03-10T14:14:59Z</time>
      </trkpt>
      <trkpt lat="45.19043" lon="6.02825">
        <ele>1383.1</ele>
        <time>2013-03-10T14:15:01Z</time>
      </trkpt>
      <trkpt lat="45.19041" lon="6.02832">
        <ele>1382.6</ele>
        <time>2013-03-10T14:15:02Z</time>
      </trkpt>
      <trkpt lat="45.1904" lon="6.02839">
        <ele>1382.2</ele>
        <time>2013-03-10T14:15:03Z</time>
      </trkpt>
      <trkpt lat="45.19039" lon="6.02846">
        <ele>1381.6</ele>
        <time>2013-03-10T14:15:04Z</time>
      </trkpt>
      <trkpt lat="45.19038" lon="6.02857">
        <ele>1380.9</ele>
        <time>2013-03-10T14:15:06Z</time>
      </trkpt>
      <trkpt lat="45.19037" lon="6.02863">
        <ele>1380.7</ele>
        <time>2013-03-10T14:15:07Z</time>
      </trkpt>
      <trkpt lat="45.19036" lon="6.02875">
        <ele>1380.4</ele>
        <time>2013-03-10T14:15:09Z</time>
      </trkpt>
      <trkpt lat="45.19033" lon="6.02886">
        <ele>1380.1</ele>
        <time>2013-03-10T14:15:11Z</time>
      </trkpt>
      <trkpt lat="45.19032" lon="6.02897">
        <ele>1379.5</ele>
        <time>2013-03-10T14:15:13Z</time>
      </trkpt>
      <trkpt lat="45.19031" lon="6.02909">
        <ele>1377.8</ele>
        <time>2013-03-10T14:15:16Z</time>
      </trkpt>
      <trkpt lat="45.19029" lon="6.02921">
        <ele>1376</ele>
        <time>2013-03-10T14:15:20Z</time>
      </trkpt>
      <trkpt lat="45.19029" lon="6.02924">
        <ele>1376.1</ele>
        <time>2013-03-10T14:15:21Z</time>
      </trkpt>
      <trkpt lat="45.19026" lon="6.02943">
        <ele>1375.5</ele>
        <time>2013-03-10T14:15:29Z</time>
      </trkpt>
      <trkpt lat="45.19022" lon="6.02952">
        <ele>1374.7</ele>
        <time>2013-03-10T14:15:32Z</time>
      </trkpt>
      <trkpt lat="45.19019" lon="6.02962">
        <ele>1374.2</ele>
        <time>2013-03-10T14:15:35Z</time>
      </trkpt>
      <trkpt lat="45.19016" lon="6.02973">
        <ele>1373.6</ele>
        <time>2013-03-10T14:15:37Z</time>
      </trkpt>
      <trkpt lat="45.19015" lon="6.0298">
        <ele>1373.1</ele>
        <time>2013-03-10T14:15:38Z</time>
      </trkpt>
      <trkpt lat="45.19013" lon="6.02992">
        <ele>1372.1</ele>
        <time>2013-03-10T14:15:40Z</time>
      </trkpt>
      <trkpt lat="45.1901" lon="6.03003">
        <ele>1371.1</ele>
        <time>2013-03-10T14:15:42Z</time>
      </trkpt>
      <trkpt lat="45.1901" lon="6.03015">
        <ele>1370</ele>
        <time>2013-03-10T14:15:45Z</time>
      </trkpt>
      <trkpt lat="45.19008" lon="6.03026">
        <ele>1369</ele>
        <time>2013-03-10T14:15:50Z</time>
      </trkpt>
      <trkpt lat="45.19007" lon="6.03037">
        <ele>1367.7</ele>
        <time>2013-03-10T14:15:56Z</time>
      </trkpt>
      <trkpt lat="45.19002" lon="6.03047">
        <ele>1367.5</ele>
        <time>2013-03-10T14:16:01Z</time>
      </trkpt>
      <trkpt lat="45.18998" lon="6.03058">
        <ele>1367</ele>
        <time>2013-03-10T14:16:04Z</time>
      </trkpt>
      <trkpt lat="45.18996" lon="6.03067">
        <ele>1366.3</ele>
        <time>2013-03-10T14:16:06Z</time>
      </trkpt>
      <trkpt lat="45.18992" lon="6.03078">
        <ele>1365.2</ele>
        <time>2013-03-10T14:16:10Z</time>
      </trkpt>
      <trkpt lat="45.18985" lon="6.03082">
        <ele>1364.3</ele>
        <time>2013-03-10T14:16:14Z</time>
      </trkpt>
      <trkpt lat="45.18978" lon="6.0309">
        <ele>1364.1</ele>
        <time>2013-03-10T14:16:19Z</time>
      </trkpt>
      <trkpt lat="45.18975" lon="6.03101">
        <ele>1363.2</ele>
        <time>2013-03-10T14:16:25Z</time>
      </trkpt>
      <trkpt lat="45.18975" lon="6.03103">
        <ele>1363.4</ele>
        <time>2013-03-10T14:16:26Z</time>
      </trkpt>
      <trkpt lat="45.18984" lon="6.03122">
        <ele>1364</ele>
        <time>2013-03-10T14:16:33Z</time>
      </trkpt>
      <trkpt lat="45.18989" lon="6.03131">
        <ele>1362.9</ele>
        <time>2013-03-10T14:16:36Z</time>
      </trkpt>
      <trkpt lat="45.18994" lon="6.03141">
        <ele>1362.9</ele>
        <time>2013-03-10T14:16:40Z</time>
      </trkpt>
      <trkpt lat="45.18998" lon="6.03149">
        <ele>1362.5</ele>
        <time>2013-03-10T14:16:44Z</time>
      </trkpt>
      <trkpt lat="45.19003" lon="6.03157">
        <ele>1362</ele>
        <time>2013-03-10T14:16:48Z</time>
      </trkpt>
      <trkpt lat="45.19008" lon="6.03165">
        <ele>1362.3</ele>
        <time>2013-03-10T14:16:52Z</time>
      </trkpt>
      <trkpt lat="45.19014" lon="6.03173">
        <ele>1361.6</ele>
        <time>2013-03-10T14:16:57Z</time>
      </trkpt>
      <trkpt lat="45.1902" lon="6.03178">
        <ele>1361.7</ele>
        <time>2013-03-10T14:17:01Z</time>
      </trkpt>
      <trkpt lat="45.19026" lon="6.03184">
        <ele>1361.3</ele>
        <time>2013-03-10T14:17:04Z</time>
      </trkpt>
      <trkpt lat="45.19033" lon="6.03191">
        <ele>1361.3</ele>
        <time>2013-03-10T14:17:07Z</time>
      </trkpt>
      <trkpt lat="45.19039" lon="6.03197">
        <ele>1360.9</ele>
        <time>2013-03-10T14:17:10Z</time>
      </trkpt>
      <trkpt lat="45.19045" lon="6.03203">
        <ele>1360.1</ele>
        <time>2013-03-10T14:17:13Z</time>
      </trkpt>
      <trkpt lat="45.19051" lon="6.03211">
        <ele>1359.7</ele>
        <time>2013-03-10T14:17:17Z</time>
      </trkpt>
      <trkpt lat="45.19058" lon="6.03219">
        <ele>1359.5</ele>
        <time>2013-03-10T14:17:21Z</time>
      </trkpt>
      <trkpt lat="45.19065" lon="6.03227">
        <ele>1359</ele>
        <time>2013-03-10T14:17:25Z</time>
      </trkpt>
      <trkpt lat="45.19071" lon="6.03234">
        <ele>1357.8</ele>
        <time>2013-03-10T14:17:29Z</time>
      </trkpt>
      <trkpt lat="45.19072" lon="6.03236">
        <ele>1357.6</ele>
        <time>2013-03-10T14:17:30Z</time>
      </trkpt>
      <trkpt lat="45.19083" lon="6.03249">
        <ele>1356.8</ele>
        <time>2013-03-10T14:17:37Z</time>
      </trkpt>
      <trkpt lat="45.19089" lon="6.03257">
        <ele>1356.9</ele>
        <time>2013-03-10T14:17:41Z</time>
      </trkpt>
      <trkpt lat="45.19092" lon="6.03265">
        <ele>1356.4</ele>
        <time>2013-03-10T14:17:44Z</time>
      </trkpt>
      <trkpt lat="45.19096" lon="6.03274">
        <ele>1357.1</ele>
        <time>2013-03-10T14:17:48Z</time>
      </trkpt>
      <trkpt lat="45.191" lon="6.03285">
        <ele>1356.5</ele>
        <time>2013-03-10T14:17:53Z</time>
      </trkpt>
      <trkpt lat="45.19105" lon="6.03295">
        <ele>1356.6</ele>
        <time>2013-03-10T14:17:58Z</time>
      </trkpt>
      <trkpt lat="45.19111" lon="6.03302">
        <ele>1355.9</ele>
        <time>2013-03-10T14:18:03Z</time>
      </trkpt>
      <trkpt lat="45.19119" lon="6.03309">
        <ele>1355.9</ele>
        <time>2013-03-10T14:18:08Z</time>
      </trkpt>
      <trkpt lat="45.19126" lon="6.03313">
        <ele>1355.9</ele>
        <time>2013-03-10T14:18:11Z</time>
      </trkpt>
      <trkpt lat="45.19134" lon="6.03315">
        <ele>1355.1</ele>
        <time>2013-03-10T14:18:14Z</time>
      </trkpt>
      <trkpt lat="45.19142" lon="6.03317">
        <ele>1354.5</ele>
        <time>2013-03-10T14:18:16Z</time>
      </trkpt>
      <trkpt lat="45.19149" lon="6.0332">
        <ele>1353.9</ele>
        <time>2013-03-10T14:18:18Z</time>
      </trkpt>
      <trkpt lat="45.19155" lon="6.03323">
        <ele>1352.8</ele>
        <time>2013-03-10T14:18:20Z</time>
      </trkpt>
      <trkpt lat="45.19162" lon="6.03329">
        <ele>1351.8</ele>
        <time>2013-03-10T14:18:22Z</time>
      </trkpt>
      <trkpt lat="45.19167" lon="6.03333">
        <ele>1351.3</ele>
        <time>2013-03-10T14:18:24Z</time>
      </trkpt>
      <trkpt lat="45.19174" lon="6.03341">
        <ele>1351</ele>
        <time>2013-03-10T14:18:27Z</time>
      </trkpt>
      <trkpt lat="45.1918" lon="6.03347">
        <ele>1350.6</ele>
        <time>2013-03-10T14:18:30Z</time>
      </trkpt>
      <trkpt lat="45.19186" lon="6.0335">
        <ele>1349.9</ele>
        <time>2013-03-10T14:18:32Z</time>
      </trkpt>
      <trkpt lat="45.1919" lon="6.03352">
        <ele>1349.6</ele>
        <time>2013-03-10T14:18:33Z</time>
      </trkpt>
      <trkpt lat="45.192" lon="6.03358">
        <ele>1349.2</ele>
        <time>2013-03-10T14:18:37Z</time>
      </trkpt>
      <trkpt lat="45.19208" lon="6.03362">
        <ele>1348.4</ele>
        <time>2013-03-10T14:18:40Z</time>
      </trkpt>
      <trkpt lat="45.19216" lon="6.03363">
        <ele>1347.6</ele>
        <time>2013-03-10T14:18:47Z</time>
      </trkpt>
      <trkpt lat="45.19224" lon="6.03358">
        <ele>1347.4</ele>
        <time>2013-03-10T14:18:56Z</time>
      </trkpt>
      <trkpt lat="45.19232" lon="6.03356">
        <ele>1346.3</ele>
        <time>2013-03-10T14:19:13Z</time>
      </trkpt>
      <trkpt lat="45.19239" lon="6.03362">
        <ele>1348.1</ele>
        <time>2013-03-10T14:19:25Z</time>
      </trkpt>
      <trkpt lat="45.19246" lon="6.03367">
        <ele>1347.4</ele>
        <time>2013-03-10T14:19:29Z</time>
      </trkpt>
      <trkpt lat="45.19253" lon="6.0337">
        <ele>1346.5</ele>
        <time>2013-03-10T14:19:33Z</time>
      </trkpt>
      <trkpt lat="45.19255" lon="6.0337">
        <ele>1346.5</ele>
        <time>2013-03-10T14:19:34Z</time>
      </trkpt>
      <trkpt lat="45.19267" lon="6.03377">
        <ele>1345.4</ele>
        <time>2013-03-10T14:19:41Z</time>
      </trkpt>
      <trkpt lat="45.19275" lon="6.03381">
        <ele>1344.3</ele>
        <time>2013-03-10T14:19:45Z</time>
      </trkpt>
      <trkpt lat="45.19282" lon="6.03386">
        <ele>1343.2</ele>
        <time>2013-03-10T14:19:52Z</time>
      </trkpt>
      <trkpt lat="45.19287" lon="6.03396">
        <ele>1342.7</ele>
        <time>2013-03-10T14:20:02Z</time>
      </trkpt>
      <trkpt lat="45.19294" lon="6.03403">
        <ele>1342.7</ele>
        <time>2013-03-10T14:20:08Z</time>
      </trkpt>
      <trkpt lat="45.193" lon="6.03406">
        <ele>1341.7</ele>
        <time>2013-03-10T14:20:11Z</time>
      </trkpt>
      <trkpt lat="45.19307" lon="6.0341">
        <ele>1341.3</ele>
        <time>2013-03-10T14:20:14Z</time>
      </trkpt>
      <trkpt lat="45.19314" lon="6.03416">
        <ele>1341.3</ele>
        <time>2013-03-10T14:20:17Z</time>
      </trkpt>
      <trkpt lat="45.19321" lon="6.03421">
        <ele>1341</ele>
        <time>2013-03-10T14:20:21Z</time>
      </trkpt>
      <trkpt lat="45.19328" lon="6.03427">
        <ele>1339.9</ele>
        <time>2013-03-10T14:20:26Z</time>
      </trkpt>
      <trkpt lat="45.19334" lon="6.03435">
        <ele>1339.2</ele>
        <time>2013-03-10T14:20:36Z</time>
      </trkpt>
      <trkpt lat="45.19335" lon="6.03435">
        <ele>1339.1</ele>
        <time>2013-03-10T14:20:37Z</time>
      </trkpt>
      <trkpt lat="45.19351" lon="6.03438">
        <ele>1338.7</ele>
        <time>2013-03-10T14:21:27Z</time>
      </trkpt>
      <trkpt lat="45.19358" lon="6.03442">
        <ele>1339.9</ele>
        <time>2013-03-10T14:21:34Z</time>
      </trkpt>
      <trkpt lat="45.19366" lon="6.03447">
        <ele>1339.4</ele>
        <time>2013-03-10T14:21:43Z</time>
      </trkpt>
      <trkpt lat="45.19367" lon="6.03447">
        <ele>1339.4</ele>
        <time>2013-03-10T14:21:44Z</time>
      </trkpt>
      <trkpt lat="45.19382" lon="6.03455">
        <ele>1339.8</ele>
        <time>2013-03-10T14:22:00Z</time>
      </trkpt>
      <trkpt lat="45.19389" lon="6.03462">
        <ele>1340</ele>
        <time>2013-03-10T14:22:06Z</time>
      </trkpt>
      <trkpt lat="45.19396" lon="6.03468">
        <ele>1339.1</ele>
        <time>2013-03-10T14:22:12Z</time>
      </trkpt>
      <trkpt lat="45.19403" lon="6.03473">
        <ele>1340.1</ele>
        <time>2013-03-10T14:22:18Z</time>
      </trkpt>
      <trkpt lat="45.19411" lon="6.0348">
        <ele>1340</ele>
        <time>2013-03-10T14:22:23Z</time>
      </trkpt>
      <trkpt lat="45.19418" lon="6.03486">
        <ele>1339</ele>
        <time>2013-03-10T14:22:29Z</time>
      </trkpt>
      <trkpt lat="45.19424" lon="6.03491">
        <ele>1338.4</ele>
        <time>2013-03-10T14:22:33Z</time>
      </trkpt>
      <trkpt lat="45.19433" lon="6.03495">
        <ele>1337.7</ele>
        <time>2013-03-10T14:22:39Z</time>
      </trkpt>
      <trkpt lat="45.19438" lon="6.03502">
        <ele>1336.8</ele>
        <time>2013-03-10T14:22:43Z</time>
      </trkpt>
      <trkpt lat="45.19445" lon="6.03509">
        <ele>1335.7</ele>
        <time>2013-03-10T14:22:47Z</time>
      </trkpt>
      <trkpt lat="45.19447" lon="6.0351">
        <ele>1335.6</ele>
        <time>2013-03-10T14:22:48Z</time>
      </trkpt>
      <trkpt lat="45.1946" lon="6.03519">
        <ele>1334.4</ele>
        <time>2013-03-10T14:22:59Z</time>
      </trkpt>
      <trkpt lat="45.19466" lon="6.03527">
        <ele>1333.3</ele>
        <time>2013-03-10T14:23:05Z</time>
      </trkpt>
      <trkpt lat="45.19471" lon="6.03533">
        <ele>1333.1</ele>
        <time>2013-03-10T14:23:07Z</time>
      </trkpt>
      <trkpt lat="45.19478" lon="6.03539">
        <ele>1333.6</ele>
        <time>2013-03-10T14:23:10Z</time>
      </trkpt>
      <trkpt lat="45.19485" lon="6.03546">
        <ele>1332.6</ele>
        <time>2013-03-10T14:23:14Z</time>
      </trkpt>
      <trkpt lat="45.1949" lon="6.03553">
        <ele>1332</ele>
        <time>2013-03-10T14:23:17Z</time>
      </trkpt>
      <trkpt lat="45.19495" lon="6.0356">
        <ele>1332</ele>
        <time>2013-03-10T14:23:20Z</time>
      </trkpt>
      <trkpt lat="45.195" lon="6.03568">
        <ele>1331.7</ele>
        <time>2013-03-10T14:23:23Z</time>
      </trkpt>
      <trkpt lat="45.19505" lon="6.03574">
        <ele>1330.6</ele>
        <time>2013-03-10T14:23:26Z</time>
      </trkpt>
      <trkpt lat="45.19511" lon="6.03582">
        <ele>1330</ele>
        <time>2013-03-10T14:23:29Z</time>
      </trkpt>
      <trkpt lat="45.19517" lon="6.03591">
        <ele>1329.4</ele>
        <time>2013-03-10T14:23:32Z</time>
      </trkpt>
      <trkpt lat="45.19523" lon="6.03598">
        <ele>1328.8</ele>
        <time>2013-03-10T14:23:35Z</time>
      </trkpt>
      <trkpt lat="45.19527" lon="6.03605">
        <ele>1328.4</ele>
        <time>2013-03-10T14:23:38Z</time>
      </trkpt>
      <trkpt lat="45.19532" lon="6.03613">
        <ele>1327.9</ele>
        <time>2013-03-10T14:23:41Z</time>
      </trkpt>
      <trkpt lat="45.19538" lon="6.03622">
        <ele>1327.5</ele>
        <time>2013-03-10T14:23:46Z</time>
      </trkpt>
      <trkpt lat="45.19545" lon="6.03629">
        <ele>1327.2</ele>
        <time>2013-03-10T14:23:52Z</time>
      </trkpt>
      <trkpt lat="45.19547" lon="6.0363">
        <ele>1326.7</ele>
        <time>2013-03-10T14:23:53Z</time>
      </trkpt>
      <trkpt lat="45.19558" lon="6.03641">
        <ele>1326.9</ele>
        <time>2013-03-10T14:23:59Z</time>
      </trkpt>
      <trkpt lat="45.19565" lon="6.03645">
        <ele>1325.9</ele>
        <time>2013-03-10T14:24:02Z</time>
      </trkpt>
      <trkpt lat="45.19572" lon="6.03649">
        <ele>1325.6</ele>
        <time>2013-03-10T14:24:05Z</time>
      </trkpt>
      <trkpt lat="45.19579" lon="6.03654">
        <ele>1325.4</ele>
        <time>2013-03-10T14:24:08Z</time>
      </trkpt>
      <trkpt lat="45.19586" lon="6.03657">
        <ele>1325.2</ele>
        <time>2013-03-10T14:24:13Z</time>
      </trkpt>
      <trkpt lat="45.19595" lon="6.03662">
        <ele>1325.8</ele>
        <time>2013-03-10T14:24:18Z</time>
      </trkpt>
      <trkpt lat="45.19602" lon="6.03666">
        <ele>1325.4</ele>
        <time>2013-03-10T14:24:23Z</time>
      </trkpt>
      <trkpt lat="45.19609" lon="6.03671">
        <ele>1325.5</ele>
        <time>2013-03-10T14:24:28Z</time>
      </trkpt>
      <trkpt lat="45.19617" lon="6.03675">
        <ele>1323.4</ele>
        <time>2013-03-10T14:24:33Z</time>
      </trkpt>
      <trkpt lat="45.19625" lon="6.03679">
        <ele>1324.5</ele>
        <time>2013-03-10T14:24:39Z</time>
      </trkpt>
      <trkpt lat="45.19633" lon="6.03683">
        <ele>1324.4</ele>
        <time>2013-03-10T14:24:43Z</time>
      </trkpt>
      <trkpt lat="45.1964" lon="6.03687">
        <ele>1324.1</ele>
        <time>2013-03-10T14:24:47Z</time>
      </trkpt>
      <trkpt lat="45.19649" lon="6.0369">
        <ele>1322.7</ele>
        <time>2013-03-10T14:24:53Z</time>
      </trkpt>
      <trkpt lat="45.19657" lon="6.03694">
        <ele>1322.8</ele>
        <time>2013-03-10T14:24:59Z</time>
      </trkpt>
      <trkpt lat="45.19658" lon="6.03694">
        <ele>1322.7</ele>
        <time>2013-03-10T14:25:00Z</time>
      </trkpt>
      <trkpt lat="45.19671" lon="6.03699">
        <ele>1322.5</ele>
        <time>2013-03-10T14:25:08Z</time>
      </trkpt>
      <trkpt lat="45.19679" lon="6.03701">
        <ele>1322.4</ele>
        <time>2013-03-10T14:25:12Z</time>
      </trkpt>
      <trkpt lat="45.19687" lon="6.03702">
        <ele>1322.4</ele>
        <time>2013-03-10T14:25:16Z</time>
      </trkpt>
      <trkpt lat="45.19695" lon="6.03704">
        <ele>1321</ele>
        <time>2013-03-10T14:25:20Z</time>
      </trkpt>
      <trkpt lat="45.19703" lon="6.03707">
        <ele>1320.8</ele>
        <time>2013-03-10T14:25:25Z</time>
      </trkpt>
      <trkpt lat="45.19712" lon="6.03707">
        <ele>1320</ele>
        <time>2013-03-10T14:25:29Z</time>
      </trkpt>
      <trkpt lat="45.19719" lon="6.03709">
        <ele>1319.9</ele>
        <time>2013-03-10T14:25:32Z</time>
      </trkpt>
      <trkpt lat="45.19726" lon="6.03711">
        <ele>1319.9</ele>
        <time>2013-03-10T14:25:35Z</time>
      </trkpt>
      <trkpt lat="45.19733" lon="6.03715">
        <ele>1319</ele>
        <time>2013-03-10T14:25:38Z</time>
      </trkpt>
      <trkpt lat="45.19741" lon="6.03718">
        <ele>1317.9</ele>
        <time>2013-03-10T14:25:42Z</time>
      </trkpt>
      <trkpt lat="45.19749" lon="6.03722">
        <ele>1317.7</ele>
        <time>2013-03-10T14:25:46Z</time>
      </trkpt>
      <trkpt lat="45.19755" lon="6.03725">
        <ele>1317.3</ele>
        <time>2013-03-10T14:25:49Z</time>
      </trkpt>
      <trkpt lat="45.19762" lon="6.03728">
        <ele>1316.4</ele>
        <time>2013-03-10T14:25:52Z</time>
      </trkpt>
      <trkpt lat="45.1977" lon="6.0373">
        <ele>1316.1</ele>
        <time>2013-03-10T14:25:56Z</time>
      </trkpt>
      <trkpt lat="45.19779" lon="6.03733">
        <ele>1315.2</ele>
        <time>2013-03-10T14:26:00Z</time>
      </trkpt>
      <trkpt lat="45.19786" lon="6.03734">
        <ele>1314.8</ele>
        <time>2013-03-10T14:26:03Z</time>
      </trkpt>
      <trkpt lat="45.19788" lon="6.03735">
        <ele>1315</ele>
        <time>2013-03-10T14:26:04Z</time>
      </trkpt>
      <trkpt lat="45.198" lon="6.03744">
        <ele>1314.6</ele>
        <time>2013-03-10T14:26:11Z</time>
      </trkpt>
      <trkpt lat="45.19808" lon="6.03748">
        <ele>1315.1</ele>
        <time>2013-03-10T14:26:15Z</time>
      </trkpt>
      <trkpt lat="45.19816" lon="6.03752">
        <ele>1315.2</ele>
        <time>2013-03-10T14:26:19Z</time>
      </trkpt>
      <trkpt lat="45.19823" lon="6.03754">
        <ele>1315</ele>
        <time>2013-03-10T14:26:22Z</time>
      </trkpt>
      <trkpt lat="45.19831" lon="6.03755">
        <ele>1314.1</ele>
        <time>2013-03-10T14:26:25Z</time>
      </trkpt>
      <trkpt lat="45.19837" lon="6.03755">
        <ele>1313.6</ele>
        <time>2013-03-10T14:26:27Z</time>
      </trkpt>
      <trkpt lat="45.19843" lon="6.03755">
        <ele>1313.4</ele>
        <time>2013-03-10T14:26:29Z</time>
      </trkpt>
      <trkpt lat="45.19852" lon="6.03753">
        <ele>1312.5</ele>
        <time>2013-03-10T14:26:31Z</time>
      </trkpt>
      <trkpt lat="45.19857" lon="6.03751">
        <ele>1312.2</ele>
        <time>2013-03-10T14:26:32Z</time>
      </trkpt>
      <trkpt lat="45.19864" lon="6.03748">
        <ele>1312</ele>
        <time>2013-03-10T14:26:34Z</time>
      </trkpt>
      <trkpt lat="45.19871" lon="6.03747">
        <ele>1311.1</ele>
        <time>2013-03-10T14:26:36Z</time>
      </trkpt>
      <trkpt lat="45.19875" lon="6.03746">
        <ele>1310.3</ele>
        <time>2013-03-10T14:26:37Z</time>
      </trkpt>
      <trkpt lat="45.19881" lon="6.03746">
        <ele>1309.6</ele>
        <time>2013-03-10T14:26:38Z</time>
      </trkpt>
      <trkpt lat="45.19885" lon="6.03747">
        <ele>1309.2</ele>
        <time>2013-03-10T14:26:39Z</time>
      </trkpt>
      <trkpt lat="45.19891" lon="6.03748">
        <ele>1308.6</ele>
        <time>2013-03-10T14:26:40Z</time>
      </trkpt>
      <trkpt lat="45.19896" lon="6.03749">
        <ele>1308.1</ele>
        <time>2013-03-10T14:26:41Z</time>
      </trkpt>
      <trkpt lat="45.19904" lon="6.03752">
        <ele>1306.9</ele>
        <time>2013-03-10T14:26:43Z</time>
      </trkpt>
      <trkpt lat="45.19911" lon="6.03754">
        <ele>1306.2</ele>
        <time>2013-03-10T14:26:45Z</time>
      </trkpt>
      <trkpt lat="45.1992" lon="6.03751">
        <ele>1303.6</ele>
        <time>2013-03-10T14:26:53Z</time>
      </trkpt>
      <trkpt lat="45.19928" lon="6.03747">
        <ele>1305.1</ele>
        <time>2013-03-10T14:27:07Z</time>
      </trkpt>
      <trkpt lat="45.19929" lon="6.03747">
        <ele>1304.7</ele>
        <time>2013-03-10T14:27:08Z</time>
      </trkpt>
      <trkpt lat="45.19935" lon="6.0375">
        <ele>1302.9</ele>
        <time>2013-03-10T14:28:55Z</time>
      </trkpt>
      <trkpt lat="45.19935" lon="6.0375">
        <ele>1303.2</ele>
        <time>2013-03-10T14:28:56Z</time>
      </trkpt>
      <trkpt lat="45.19942" lon="6.03759">
        <ele>1302.9</ele>
        <time>2013-03-10T14:30:34Z</time>
      </trkpt>
      <trkpt lat="45.19958" lon="6.03765">
        <ele>1301.7</ele>
        <time>2013-03-10T14:31:07Z</time>
      </trkpt>
      <trkpt lat="45.19966" lon="6.0377">
        <ele>1301.3</ele>
        <time>2013-03-10T14:31:16Z</time>
      </trkpt>
      <trkpt lat="45.19973" lon="6.03774">
        <ele>1299.8</ele>
        <time>2013-03-10T14:31:22Z</time>
      </trkpt>
      <trkpt lat="45.1998" lon="6.0378">
        <ele>1299.8</ele>
        <time>2013-03-10T14:31:28Z</time>
      </trkpt>
      <trkpt lat="45.19987" lon="6.03784">
        <ele>1298.7</ele>
        <time>2013-03-10T14:31:34Z</time>
      </trkpt>
      <trkpt lat="45.19988" lon="6.03784">
        <ele>1298.5</ele>
        <time>2013-03-10T14:31:35Z</time>
      </trkpt>
      <trkpt lat="45.20003" lon="6.03794">
        <ele>1297</ele>
        <time>2013-03-10T14:31:49Z</time>
      </trkpt>
      <trkpt lat="45.2001" lon="6.038">
        <ele>1296.6</ele>
        <time>2013-03-10T14:31:56Z</time>
      </trkpt>
      <trkpt lat="45.20017" lon="6.03807">
        <ele>1295.2</ele>
        <time>2013-03-10T14:32:04Z</time>
      </trkpt>
      <trkpt lat="45.20022" lon="6.03816">
        <ele>1294.8</ele>
        <time>2013-03-10T14:33:09Z</time>
      </trkpt>
      <trkpt lat="45.20023" lon="6.03816">
        <ele>1295</ele>
        <time>2013-03-10T14:33:10Z</time>
      </trkpt>
      <trkpt lat="45.20036" lon="6.03827">
        <ele>1292.1</ele>
        <time>2013-03-10T14:33:24Z</time>
      </trkpt>
      <trkpt lat="45.20044" lon="6.03833">
        <ele>1291.7</ele>
        <time>2013-03-10T14:33:31Z</time>
      </trkpt>
      <trkpt lat="45.20051" lon="6.0384">
        <ele>1290.2</ele>
        <time>2013-03-10T14:33:39Z</time>
      </trkpt>
      <trkpt lat="45.2006" lon="6.03844">
        <ele>1288.5</ele>
        <time>2013-03-10T14:34:01Z</time>
      </trkpt>
      <trkpt lat="45.20067" lon="6.03851">
        <ele>1286.7</ele>
        <time>2013-03-10T14:34:13Z</time>
      </trkpt>
      <trkpt lat="45.20068" lon="6.03851">
        <ele>1286.7</ele>
        <time>2013-03-10T14:34:14Z</time>
      </trkpt>
      <trkpt lat="45.20079" lon="6.03866">
        <ele>1285.1</ele>
        <time>2013-03-10T14:34:32Z</time>
      </trkpt>
      <trkpt lat="45.20086" lon="6.03872">
        <ele>1284</ele>
        <time>2013-03-10T14:34:39Z</time>
      </trkpt>
      <trkpt lat="45.20093" lon="6.03879">
        <ele>1283.5</ele>
        <time>2013-03-10T14:34:48Z</time>
      </trkpt>
      <trkpt lat="45.20099" lon="6.03888">
        <ele>1282.1</ele>
        <time>2013-03-10T14:34:57Z</time>
      </trkpt>
      <trkpt lat="45.20105" lon="6.03895">
        <ele>1281</ele>
        <time>2013-03-10T14:35:04Z</time>
      </trkpt>
      <trkpt lat="45.20113" lon="6.039">
        <ele>1281.2</ele>
        <time>2013-03-10T14:35:12Z</time>
      </trkpt>
      <trkpt lat="45.20121" lon="6.03906">
        <ele>1280.4</ele>
        <time>2013-03-10T14:35:21Z</time>
      </trkpt>
      <trkpt lat="45.20122" lon="6.03907">
        <ele>1280.2</ele>
        <time>2013-03-10T14:35:22Z</time>
      </trkpt>
      <trkpt lat="45.20136" lon="6.03915">
        <ele>1278.3</ele>
        <time>2013-03-10T14:35:38Z</time>
      </trkpt>
      <trkpt lat="45.20144" lon="6.03918">
        <ele>1277.5</ele>
        <time>2013-03-10T14:35:46Z</time>
      </trkpt>
      <trkpt lat="45.20152" lon="6.03922">
        <ele>1276.6</ele>
        <time>2013-03-10T14:35:53Z</time>
      </trkpt>
      <trkpt lat="45.2016" lon="6.03926">
        <ele>1274.8</ele>
        <time>2013-03-10T14:36:00Z</time>
      </trkpt>
      <trkpt lat="45.20168" lon="6.0393">
        <ele>1275.3</ele>
        <time>2013-03-10T14:36:08Z</time>
      </trkpt>
      <trkpt lat="45.20175" lon="6.03935">
        <ele>1273</ele>
        <time>2013-03-10T14:36:16Z</time>
      </trkpt>
      <trkpt lat="45.20182" lon="6.03942">
        <ele>1273</ele>
        <time>2013-03-10T14:36:24Z</time>
      </trkpt>
      <trkpt lat="45.20183" lon="6.03943">
        <ele>1273.1</ele>
        <time>2013-03-10T14:36:25Z</time>
      </trkpt>
      <trkpt lat="45.20192" lon="6.03961">
        <ele>1272.2</ele>
        <time>2013-03-10T14:36:39Z</time>
      </trkpt>
      <trkpt lat="45.20197" lon="6.0397">
        <ele>1270.9</ele>
        <time>2013-03-10T14:36:45Z</time>
      </trkpt>
      <trkpt lat="45.20203" lon="6.03978">
        <ele>1270.5</ele>
        <time>2013-03-10T14:36:52Z</time>
      </trkpt>
      <trkpt lat="45.2021" lon="6.03985">
        <ele>1272</ele>
        <time>2013-03-10T14:37:00Z</time>
      </trkpt>
      <trkpt lat="45.20218" lon="6.0399">
        <ele>1271.4</ele>
        <time>2013-03-10T14:37:12Z</time>
      </trkpt>
      <trkpt lat="45.20226" lon="6.03996">
        <ele>1272.9</ele>
        <time>2013-03-10T14:37:20Z</time>
      </trkpt>
      <trkpt lat="45.20234" lon="6.04001">
        <ele>1271.3</ele>
        <time>2013-03-10T14:37:28Z</time>
      </trkpt>
      <trkpt lat="45.20235" lon="6.04001">
        <ele>1271.6</ele>
        <time>2013-03-10T14:37:29Z</time>
      </trkpt>
      <trkpt lat="45.20251" lon="6.04007">
        <ele>1271.7</ele>
        <time>2013-03-10T14:37:44Z</time>
      </trkpt>
      <trkpt lat="45.20259" lon="6.0401">
        <ele>1271.7</ele>
        <time>2013-03-10T14:37:51Z</time>
      </trkpt>
      <trkpt lat="45.20267" lon="6.04009">
        <ele>1272.5</ele>
        <time>2013-03-10T14:37:57Z</time>
      </trkpt>
      <trkpt lat="45.20275" lon="6.04008">
        <ele>1272.6</ele>
        <time>2013-03-10T14:38:04Z</time>
      </trkpt>
      <trkpt lat="45.20284" lon="6.04008">
        <ele>1272.9</ele>
        <time>2013-03-10T14:38:14Z</time>
      </trkpt>
      <trkpt lat="45.20292" lon="6.04012">
        <ele>1272.4</ele>
        <time>2013-03-10T14:38:22Z</time>
      </trkpt>
      <trkpt lat="45.20299" lon="6.04013">
        <ele>1272.2</ele>
        <time>2013-03-10T14:38:28Z</time>
      </trkpt>
      <trkpt lat="45.20307" lon="6.04013">
        <ele>1271.5</ele>
        <time>2013-03-10T14:38:34Z</time>
      </trkpt>
      <trkpt lat="45.20309" lon="6.04013">
        <ele>1271.6</ele>
        <time>2013-03-10T14:38:35Z</time>
      </trkpt>
      <trkpt lat="45.2032" lon="6.04026">
        <ele>1269.4</ele>
        <time>2013-03-10T14:38:47Z</time>
      </trkpt>
      <trkpt lat="45.20322" lon="6.04037">
        <ele>1268.7</ele>
        <time>2013-03-10T14:38:53Z</time>
      </trkpt>
      <trkpt lat="45.20328" lon="6.04047">
        <ele>1268.6</ele>
        <time>2013-03-10T14:39:00Z</time>
      </trkpt>
      <trkpt lat="45.20334" lon="6.04055">
        <ele>1269.3</ele>
        <time>2013-03-10T14:39:07Z</time>
      </trkpt>
      <trkpt lat="45.20341" lon="6.04064">
        <ele>1271</ele>
        <time>2013-03-10T14:39:16Z</time>
      </trkpt>
      <trkpt lat="45.20347" lon="6.04072">
        <ele>1271.1</ele>
        <time>2013-03-10T14:39:24Z</time>
      </trkpt>
      <trkpt lat="45.20353" lon="6.0408">
        <ele>1271.9</ele>
        <time>2013-03-10T14:39:32Z</time>
      </trkpt>
      <trkpt lat="45.20359" lon="6.04087">
        <ele>1272.2</ele>
        <time>2013-03-10T14:39:39Z</time>
      </trkpt>
      <trkpt lat="45.2036" lon="6.04088">
        <ele>1272.3</ele>
        <time>2013-03-10T14:39:40Z</time>
      </trkpt>
      <trkpt lat="45.20372" lon="6.04102">
        <ele>1273.9</ele>
        <time>2013-03-10T14:39:56Z</time>
      </trkpt>
      <trkpt lat="45.2038" lon="6.04106">
        <ele>1272.8</ele>
        <time>2013-03-10T14:40:03Z</time>
      </trkpt>
      <trkpt lat="45.20386" lon="6.04113">
        <ele>1273.6</ele>
        <time>2013-03-10T14:40:09Z</time>
      </trkpt>
      <trkpt lat="45.20393" lon="6.04117">
        <ele>1273.7</ele>
        <time>2013-03-10T14:40:15Z</time>
      </trkpt>
      <trkpt lat="45.20401" lon="6.04121">
        <ele>1273.5</ele>
        <time>2013-03-10T14:40:21Z</time>
      </trkpt>
      <trkpt lat="45.20408" lon="6.04129">
        <ele>1274.8</ele>
        <time>2013-03-10T14:40:29Z</time>
      </trkpt>
      <trkpt lat="45.20414" lon="6.04137">
        <ele>1273.8</ele>
        <time>2013-03-10T14:40:37Z</time>
      </trkpt>
      <trkpt lat="45.20422" lon="6.04142">
        <ele>1274.6</ele>
        <time>2013-03-10T14:40:43Z</time>
      </trkpt>
      <trkpt lat="45.20423" lon="6.04143">
        <ele>1274.7</ele>
        <time>2013-03-10T14:40:44Z</time>
      </trkpt>
      <trkpt lat="45.20436" lon="6.04157">
        <ele>1274.9</ele>
        <time>2013-03-10T14:40:57Z</time>
      </trkpt>
      <trkpt lat="45.20441" lon="6.04165">
        <ele>1274.3</ele>
        <time>2013-03-10T14:41:03Z</time>
      </trkpt>
      <trkpt lat="45.20446" lon="6.04174">
        <ele>1275.3</ele>
        <time>2013-03-10T14:41:10Z</time>
      </trkpt>
      <trkpt lat="45.20451" lon="6.04184">
        <ele>1275</ele>
        <time>2013-03-10T14:41:18Z</time>
      </trkpt>
      <trkpt lat="45.20451" lon="6.04188">
        <ele>1274.2</ele>
        <time>2013-03-10T14:42:09Z</time>
      </trkpt>
      <trkpt lat="45.20451" lon="6.04188">
        <ele>1274.4</ele>
        <time>2013-03-10T14:42:10Z</time>
      </trkpt>
    </trkseg>
  </trk>
</gpx>